Time,TemperatureF,DewpointF,PressureIn,WindDirection,WindDirectionDegrees,WindSpeedMPH,WindSpeedGustMPH,Humidity,HourlyPrecipIn,Conditions,Clouds,dailyrainin,SoftwareType,DateUTC
2013-03-15 00:00:00,33.4,11.7,30.21,SSE,158,0.0,0.0,40,0.00,,---,0.00,VWS V14.01,2013-03-15 04:00:00,
2013-03-15 00:01:00,33.4,11.7,30.21,SSW,202,0.0,0.0,40,0.00,,---,0.00,VWS V14.01,2013-03-15 04:01:00,
2013-03-15 00:02:00,33.4,11.7,30.21,SE,135,0.0,0.0,40,0.00,,---,0.00,VWS V14.01,2013-03-15 04:02:00,
2013-03-15 00:03:00,33.4,11.7,30.21,SSE,158,0.0,0.0,40,0.00,,---,0.00,VWS V14.01,2013-03-15 04:03:00,
2013-03-15 00:04:00,33.4,11.7,30.21,SSE,158,0.0,0.0,40,0.00,,---,0.00,VWS V14.01,2013-03-15 04:04:00,
2013-03-15 00:05:00,33.3,11.6,30.21,SW,225,0.0,0.0,40,0.00,,---,0.00,VWS V14.01,2013-03-15 04:05:00,
2013-03-15 00:06:00,33.3,11.6,30.21,SW,225,0.0,0.0,40,0.00,,---,0.00,VWS V14.01,2013-03-15 04:06:00,
2013-03-15 00:07:00,33.3,11.6,30.21,SW,225,0.0,0.0,40,0.00,,---,0.00,VWS V14.01,2013-03-15 04:07:00,
2013-03-15 00:08:00,33.1,11.4,30.21,SW,225,0.0,0.0,40,0.00,,---,0.00,VWS V14.01,2013-03-15 04:08:00,
2013-03-15 00:09:00,33.1,11.4,30.21,SW,225,0.0,0.0,40,0.00,,---,0.00,VWS V14.01,2013-03-15 04:09:00,
2013-03-15 00:10:00,33.1,11.4,30.21,SW,225,0.0,0.0,40,0.00,,---,0.00,VWS V14.01,2013-03-15 04:10:00,
2013-03-15 00:11:00,32.9,11.2,30.21,SW,225,0.0,0.0,40,0.00,,---,0.00,VWS V14.01,2013-03-15 04:11:00,
2013-03-15 00:12:00,32.9,11.2,30.21,SW,225,0.0,0.0,40,0.00,,---,0.00,VWS V14.01,2013-03-15 04:12:00,
2013-03-15 00:13:00,33.1,11.4,30.21,SW,225,0.0,0.0,40,0.00,,---,0.00,VWS V14.01,2013-03-15 04:13:00,
2013-03-15 00:14:00,33.1,11.4,30.21,SW,225,0.0,0.0,40,0.00,,---,0.00,VWS V14.01,2013-03-15 04:14:00,
2013-03-15 00:15:00,33.1,11.4,30.21,SSE,158,0.0,0.0,40,0.00,,---,0.00,VWS V14.01,2013-03-15 04:15:00,
2013-03-15 00:16:00,33.1,11.4,30.21,WSW,248,0.0,0.0,40,0.00,,---,0.00,VWS V14.01,2013-03-15 04:16:00,
2013-03-15 00:17:00,33.1,12.0,30.21,SE,135,0.0,0.0,41,0.00,,---,0.00,VWS V14.01,2013-03-15 04:17:00,
2013-03-15 00:18:00,33.1,12.0,30.21,SSE,158,0.0,0.0,41,0.00,,---,0.00,VWS V14.01,2013-03-15 04:18:00,
2013-03-15 00:19:00,32.9,11.2,30.21,SSE,158,0.0,0.0,40,0.00,,---,0.00,VWS V14.01,2013-03-15 04:19:00,
2013-03-15 00:20:00,32.9,11.8,30.21,SSE,158,0.0,0.0,41,0.00,,---,0.00,VWS V14.01,2013-03-15 04:20:00,
2013-03-15 00:21:00,32.9,11.8,30.21,East,90,0.0,0.0,41,0.00,,---,0.00,VWS V14.01,2013-03-15 04:21:00,
2013-03-15 00:22:00,32.9,11.8,30.21,East,90,0.0,0.0,41,0.00,,---,0.00,VWS V14.01,2013-03-15 04:22:00,
2013-03-15 00:23:00,32.9,11.8,30.21,South,180,0.0,0.0,41,0.00,,---,0.00,VWS V14.01,2013-03-15 04:23:00,
2013-03-15 00:24:00,32.9,11.8,30.21,SSE,158,0.0,0.0,41,0.00,,---,0.00,VWS V14.01,2013-03-15 04:24:00,
2013-03-15 00:25:00,33.1,12.0,30.21,South,180,0.0,0.0,41,0.00,,---,0.00,VWS V14.01,2013-03-15 04:25:00,
2013-03-15 00:26:00,33.1,12.0,30.21,South,180,0.0,0.0,41,0.00,,---,0.00,VWS V14.01,2013-03-15 04:26:00,
2013-03-15 00:27:00,33.1,12.0,30.21,South,180,0.0,0.0,41,0.00,,---,0.00,VWS V14.01,2013-03-15 04:27:00,
2013-03-15 00:28:00,33.1,12.0,30.21,SSE,158,0.0,0.0,41,0.00,,---,0.00,VWS V14.01,2013-03-15 04:28:00,
2013-03-15 00:29:00,33.1,12.0,30.21,SSW,202,0.0,0.0,41,0.00,,---,0.00,VWS V14.01,2013-03-15 04:29:00,
2013-03-15 00:30:00,33.1,12.0,30.21,ESE,112,0.0,0.0,41,0.00,,---,0.00,VWS V14.01,2013-03-15 04:30:00,
2013-03-15 00:31:00,32.9,11.8,30.21,ESE,112,0.0,0.0,41,0.00,,---,0.00,VWS V14.01,2013-03-15 04:31:00,
2013-03-15 00:32:00,32.9,11.8,30.21,East,90,0.0,0.0,41,0.00,,---,0.00,VWS V14.01,2013-03-15 04:32:00,
2013-03-15 00:33:00,33.1,12.0,30.21,SSE,158,0.0,0.0,41,0.00,,---,0.00,VWS V14.01,2013-03-15 04:33:00,
2013-03-15 00:34:00,33.1,12.0,30.21,West,270,0.0,0.0,41,0.00,,---,0.00,VWS V14.01,2013-03-15 04:34:00,
2013-03-15 00:35:00,32.9,11.8,30.21,SSW,202,0.0,0.0,41,0.00,,---,0.00,VWS V14.01,2013-03-15 04:35:00,
2013-03-15 00:36:00,32.9,11.8,30.21,SSW,202,0.0,0.0,41,0.00,,---,0.00,VWS V14.01,2013-03-15 04:36:00,
2013-03-15 00:37:00,32.7,11.6,30.21,SSW,202,0.0,0.0,41,0.00,,---,0.00,VWS V14.01,2013-03-15 04:37:00,
2013-03-15 00:38:00,32.7,11.6,30.21,SSW,202,0.0,0.0,41,0.00,,---,0.00,VWS V14.01,2013-03-15 04:38:00,
2013-03-15 00:39:00,32.7,11.6,30.21,SSW,202,0.0,0.0,41,0.00,,---,0.00,VWS V14.01,2013-03-15 04:39:00,
2013-03-15 00:40:00,32.7,11.6,30.21,SW,225,0.0,0.0,41,0.00,,---,0.00,VWS V14.01,2013-03-15 04:40:00,
2013-03-15 00:41:00,32.7,11.6,30.21,SW,225,0.0,0.0,41,0.00,,---,0.00,VWS V14.01,2013-03-15 04:41:00,
2013-03-15 00:42:00,32.5,11.5,30.21,SW,225,0.0,0.0,41,0.00,,---,0.00,VWS V14.01,2013-03-15 04:42:00,
2013-03-15 00:43:00,32.5,11.5,30.21,SW,225,0.0,0.0,41,0.00,,---,0.00,VWS V14.01,2013-03-15 04:43:00,
2013-03-15 00:44:00,32.5,11.5,30.21,SE,135,0.0,0.0,41,0.00,,---,0.00,VWS V14.01,2013-03-15 04:44:00,
2013-03-15 00:45:00,32.7,11.6,30.21,SSE,158,0.0,0.0,41,0.00,,---,0.00,VWS V14.01,2013-03-15 04:45:00,
2013-03-15 00:46:00,32.7,11.6,30.21,SSE,158,0.0,0.0,41,0.00,,---,0.00,VWS V14.01,2013-03-15 04:46:00,
2013-03-15 00:47:00,32.7,11.6,30.21,SSE,158,0.0,0.0,41,0.00,,---,0.00,VWS V14.01,2013-03-15 04:47:00,
2013-03-15 00:48:00,32.7,11.6,30.21,SSE,158,0.0,0.0,41,0.00,,---,0.00,VWS V14.01,2013-03-15 04:48:00,
2013-03-15 00:49:00,32.7,11.6,30.21,SSE,158,0.0,0.0,41,0.00,,---,0.00,VWS V14.01,2013-03-15 04:49:00,
2013-03-15 00:50:00,32.7,11.6,30.21,South,180,0.0,0.0,41,0.00,,---,0.00,VWS V14.01,2013-03-15 04:50:00,
2013-03-15 00:51:00,32.7,11.6,30.21,South,180,0.0,0.0,41,0.00,,---,0.00,VWS V14.01,2013-03-15 04:51:00,
2013-03-15 00:52:00,32.7,11.6,30.21,ESE,112,0.0,0.0,41,0.00,,---,0.00,VWS V14.01,2013-03-15 04:52:00,
2013-03-15 00:53:00,32.5,11.5,30.21,South,180,0.0,0.0,41,0.00,,---,0.00,VWS V14.01,2013-03-15 04:53:00,
2013-03-15 00:54:00,32.5,11.5,30.21,South,180,0.0,0.0,41,0.00,,---,0.00,VWS V14.01,2013-03-15 04:54:00,
2013-03-15 00:55:00,32.5,11.5,30.21,SE,135,0.0,0.0,41,0.00,,---,0.00,VWS V14.01,2013-03-15 04:55:00,
2013-03-15 00:56:00,32.5,11.5,30.21,WSW,248,0.0,0.0,41,0.00,,---,0.00,VWS V14.01,2013-03-15 04:56:00,
2013-03-15 00:57:00,32.4,11.3,30.21,SW,225,0.0,0.0,41,0.00,,---,0.00,VWS V14.01,2013-03-15 04:57:00,
2013-03-15 00:58:00,32.4,11.3,30.21,SSW,202,0.0,0.0,41,0.00,,---,0.00,VWS V14.01,2013-03-15 04:58:00,
2013-03-15 00:59:00,32.4,11.3,30.21,SSW,202,0.0,0.0,41,0.00,,---,0.00,VWS V14.01,2013-03-15 04:59:00,
2013-03-15 01:00:00,32.4,11.3,30.21,SSW,202,0.0,0.0,41,0.00,,---,0.00,VWS V14.01,2013-03-15 05:00:00,
2013-03-15 01:01:00,32.2,11.1,30.21,SSE,158,0.0,0.0,41,0.00,,---,0.00,VWS V14.01,2013-03-15 05:01:00,
2013-03-15 01:02:00,32.2,11.1,30.21,SSE,158,0.0,0.0,41,0.00,,---,0.00,VWS V14.01,2013-03-15 05:02:00,
2013-03-15 01:03:00,32.4,11.3,30.21,SSE,158,0.0,0.0,41,0.00,,---,0.00,VWS V14.01,2013-03-15 05:03:00,
2013-03-15 01:04:00,32.4,11.3,30.21,SW,225,0.0,0.0,41,0.00,,---,0.00,VWS V14.01,2013-03-15 05:04:00,
2013-03-15 01:05:00,32.4,11.3,30.21,SW,225,0.0,0.0,41,0.00,,---,0.00,VWS V14.01,2013-03-15 05:05:00,
2013-03-15 01:06:00,32.2,11.1,30.21,SW,225,0.0,0.0,41,0.00,,---,0.00,VWS V14.01,2013-03-15 05:06:00,
2013-03-15 01:07:00,32.4,11.3,30.21,South,180,0.9,1.1,41,0.00,,---,0.00,VWS V14.01,2013-03-15 05:07:00,
2013-03-15 01:08:00,32.2,11.1,30.21,SSW,202,0.0,0.9,41,0.00,,---,0.00,VWS V14.01,2013-03-15 05:08:00,
2013-03-15 01:09:00,32.2,11.1,30.21,SSW,202,0.0,0.0,41,0.00,,---,0.00,VWS V14.01,2013-03-15 05:09:00,
2013-03-15 01:10:00,32.0,11.0,30.21,SSE,158,0.0,0.0,41,0.00,,---,0.00,VWS V14.01,2013-03-15 05:10:00,
2013-03-15 01:11:00,32.2,11.1,30.21,South,180,0.0,0.0,41,0.00,,---,0.00,VWS V14.01,2013-03-15 05:11:00,
2013-03-15 01:12:00,32.0,11.0,30.21,South,180,0.0,0.0,41,0.00,,---,0.00,VWS V14.01,2013-03-15 05:12:00,
2013-03-15 01:13:00,32.0,11.5,30.21,SSW,202,0.0,0.0,42,0.00,,---,0.00,VWS V14.01,2013-03-15 05:13:00,
2013-03-15 01:14:00,31.8,11.4,30.21,South,180,0.0,0.0,42,0.00,,---,0.00,VWS V14.01,2013-03-15 05:14:00,
2013-03-15 01:15:00,31.8,11.4,30.21,South,180,0.0,0.0,42,0.00,,---,0.00,VWS V14.01,2013-03-15 05:15:00,
2013-03-15 01:16:00,31.8,11.4,30.21,South,180,0.0,0.0,42,0.00,,---,0.00,VWS V14.01,2013-03-15 05:16:00,
2013-03-15 01:17:00,31.8,11.4,30.21,SE,135,0.0,0.0,42,0.00,,---,0.00,VWS V14.01,2013-03-15 05:17:00,
2013-03-15 01:18:00,32.0,11.5,30.21,SSE,158,0.0,0.0,42,0.00,,---,0.00,VWS V14.01,2013-03-15 05:18:00,
2013-03-15 01:19:00,32.0,11.5,30.21,West,270,0.0,0.0,42,0.00,,---,0.00,VWS V14.01,2013-03-15 05:19:00,
2013-03-15 01:20:00,32.0,11.5,30.21,West,270,0.0,0.0,42,0.00,,---,0.00,VWS V14.01,2013-03-15 05:20:00,
2013-03-15 01:21:00,32.0,11.5,30.21,SSE,158,0.0,0.0,42,0.00,,---,0.00,VWS V14.01,2013-03-15 05:21:00,
2013-03-15 01:22:00,32.0,11.5,30.21,SSE,158,0.0,0.0,42,0.00,,---,0.00,VWS V14.01,2013-03-15 05:22:00,
2013-03-15 01:23:00,31.6,11.2,30.21,SSE,158,0.0,0.0,42,0.00,,---,0.00,VWS V14.01,2013-03-15 05:23:00,
2013-03-15 01:24:00,31.6,11.2,30.21,SSE,158,0.0,0.0,42,0.00,,---,0.00,VWS V14.01,2013-03-15 05:24:00,
2013-03-15 01:25:00,31.6,11.2,30.21,SSE,158,0.0,0.0,42,0.00,,---,0.00,VWS V14.01,2013-03-15 05:25:00,
2013-03-15 01:26:00,31.5,11.0,30.21,SSE,158,0.0,0.0,42,0.00,,---,0.00,VWS V14.01,2013-03-15 05:26:00,
2013-03-15 01:27:00,31.3,10.9,30.21,SSE,158,0.0,0.0,42,0.00,,---,0.00,VWS V14.01,2013-03-15 05:27:00,
2013-03-15 01:28:00,31.3,10.9,30.21,SSE,158,0.0,0.0,42,0.00,,---,0.00,VWS V14.01,2013-03-15 05:28:00,
2013-03-15 01:29:00,31.3,10.9,30.21,SSW,202,0.0,0.0,42,0.00,,---,0.00,VWS V14.01,2013-03-15 05:29:00,
2013-03-15 01:30:00,31.1,10.7,30.21,SSW,202,0.0,0.0,42,0.00,,---,0.00,VWS V14.01,2013-03-15 05:30:00,
2013-03-15 01:31:00,31.1,10.7,30.21,SSW,202,0.0,0.0,42,0.00,,---,0.00,VWS V14.01,2013-03-15 05:31:00,
2013-03-15 01:32:00,30.9,10.5,30.21,SSW,202,0.0,0.0,42,0.00,,---,0.00,VWS V14.01,2013-03-15 05:32:00,
2013-03-15 01:33:00,30.9,10.5,30.21,SSW,202,0.0,0.0,42,0.00,,---,0.00,VWS V14.01,2013-03-15 05:33:00,
2013-03-15 01:34:00,30.7,10.4,30.21,SSW,202,0.0,0.0,42,0.00,,---,0.00,VWS V14.01,2013-03-15 05:34:00,
2013-03-15 01:35:00,30.7,10.4,30.21,SSW,202,0.0,0.0,42,0.00,,---,0.00,VWS V14.01,2013-03-15 05:35:00,
2013-03-15 01:36:00,30.6,10.2,30.21,SSW,202,0.0,0.0,42,0.00,,---,0.00,VWS V14.01,2013-03-15 05:36:00,
2013-03-15 01:37:00,30.6,10.2,30.21,SSW,202,0.0,0.0,42,0.00,,---,0.00,VWS V14.01,2013-03-15 05:37:00,
2013-03-15 01:38:00,30.4,10.1,30.21,SSW,202,0.0,0.0,42,0.00,,---,0.00,VWS V14.01,2013-03-15 05:38:00,
2013-03-15 01:39:00,30.2,10.4,30.21,SSW,202,0.0,0.0,43,0.00,,---,0.00,VWS V14.01,2013-03-15 05:39:00,
2013-03-15 01:40:00,30.2,10.4,30.21,SSW,202,0.0,0.0,43,0.00,,---,0.00,VWS V14.01,2013-03-15 05:40:00,
2013-03-15 01:41:00,30.2,10.4,30.21,SSW,202,0.0,0.0,43,0.00,,---,0.00,VWS V14.01,2013-03-15 05:41:00,
2013-03-15 01:42:00,30.2,10.4,30.21,SSW,202,0.0,0.0,43,0.00,,---,0.00,VWS V14.01,2013-03-15 05:42:00,
2013-03-15 01:43:00,30.2,10.4,30.21,SSW,202,0.0,0.0,43,0.00,,---,0.00,VWS V14.01,2013-03-15 05:43:00,
2013-03-15 01:44:00,30.0,10.2,30.21,SSE,158,0.0,0.0,43,0.00,,---,0.00,VWS V14.01,2013-03-15 05:44:00,
2013-03-15 01:45:00,29.8,10.1,30.21,SSW,202,0.0,0.0,43,0.00,,---,0.00,VWS V14.01,2013-03-15 05:45:00,
2013-03-15 01:46:00,29.8,10.1,30.21,SSW,202,0.0,0.0,43,0.00,,---,0.00,VWS V14.01,2013-03-15 05:46:00,
2013-03-15 01:47:00,29.8,10.1,30.21,SSW,202,0.0,0.0,43,0.00,,---,0.00,VWS V14.01,2013-03-15 05:47:00,
2013-03-15 01:48:00,29.8,10.1,30.21,SSE,158,0.0,0.0,43,0.00,,---,0.00,VWS V14.01,2013-03-15 05:48:00,
2013-03-15 01:49:00,29.8,10.1,30.21,South,180,0.0,0.0,43,0.00,,---,0.00,VWS V14.01,2013-03-15 05:49:00,
2013-03-15 01:50:00,29.7,9.9,30.21,South,180,0.0,0.0,43,0.00,,---,0.00,VWS V14.01,2013-03-15 05:50:00,
2013-03-15 01:51:00,29.7,9.9,30.21,South,180,0.0,0.0,43,0.00,,---,0.00,VWS V14.01,2013-03-15 05:51:00,
2013-03-15 01:52:00,29.7,9.9,30.21,South,180,0.0,0.0,43,0.00,,---,0.00,VWS V14.01,2013-03-15 05:52:00,
2013-03-15 01:53:00,29.5,9.8,30.21,WSW,248,0.0,0.0,43,0.00,,---,0.00,VWS V14.01,2013-03-15 05:53:00,
2013-03-15 01:54:00,29.5,9.8,30.21,SSE,158,0.0,0.0,43,0.00,,---,0.00,VWS V14.01,2013-03-15 05:54:00,
2013-03-15 01:55:00,29.5,9.8,30.21,SSE,158,0.0,0.0,43,0.00,,---,0.00,VWS V14.01,2013-03-15 05:55:00,
2013-03-15 01:56:00,29.5,9.8,30.21,SSE,158,0.0,0.0,43,0.00,,---,0.00,VWS V14.01,2013-03-15 05:56:00,
2013-03-15 01:57:00,29.5,9.8,30.21,SW,225,0.0,0.0,43,0.00,,---,0.00,VWS V14.01,2013-03-15 05:57:00,
2013-03-15 01:58:00,29.5,9.8,30.21,SW,225,0.0,0.0,43,0.00,,---,0.00,VWS V14.01,2013-03-15 05:58:00,
2013-03-15 01:59:00,29.5,10.3,30.21,SW,225,0.0,0.0,44,0.00,,---,0.00,VWS V14.01,2013-03-15 05:59:00,
2013-03-15 02:00:00,29.3,10.1,30.21,SW,225,0.0,0.0,44,0.00,,---,0.00,VWS V14.01,2013-03-15 06:00:00,
2013-03-15 02:01:00,29.3,10.1,30.21,SW,225,0.0,0.0,44,0.00,,---,0.00,VWS V14.01,2013-03-15 06:01:00,
2013-03-15 02:02:00,29.3,10.1,30.21,SW,225,0.0,0.0,44,0.00,,---,0.00,VWS V14.01,2013-03-15 06:02:00,
2013-03-15 02:03:00,29.3,10.1,30.21,SW,225,0.0,0.0,44,0.00,,---,0.00,VWS V14.01,2013-03-15 06:03:00,
2013-03-15 02:04:00,29.1,9.9,30.21,SW,225,0.0,0.0,44,0.00,,---,0.00,VWS V14.01,2013-03-15 06:04:00,
2013-03-15 02:05:00,29.1,9.9,30.21,SW,225,0.0,0.0,44,0.00,,---,0.00,VWS V14.01,2013-03-15 06:05:00,
2013-03-15 02:06:00,28.9,9.8,30.21,SW,225,0.0,0.0,44,0.00,,---,0.00,VWS V14.01,2013-03-15 06:06:00,
2013-03-15 02:07:00,28.9,9.8,30.21,SW,225,0.0,0.0,44,0.00,,---,0.00,VWS V14.01,2013-03-15 06:07:00,
2013-03-15 02:08:00,28.9,9.8,30.21,SW,225,0.0,0.0,44,0.00,,---,0.00,VWS V14.01,2013-03-15 06:08:00,
2013-03-15 02:09:00,28.9,9.8,30.21,SW,225,0.0,0.0,44,0.00,,---,0.00,VWS V14.01,2013-03-15 06:09:00,
2013-03-15 02:10:00,28.9,9.8,30.21,SW,225,0.0,0.0,44,0.00,,---,0.00,VWS V14.01,2013-03-15 06:10:00,
2013-03-15 02:11:00,28.9,9.8,30.21,SW,225,0.0,0.0,44,0.00,,---,0.00,VWS V14.01,2013-03-15 06:11:00,
2013-03-15 02:12:00,28.8,9.6,30.21,SW,225,0.0,0.0,44,0.00,,---,0.00,VWS V14.01,2013-03-15 06:12:00,
2013-03-15 02:13:00,28.8,9.6,30.21,SW,225,0.0,0.0,44,0.00,,---,0.00,VWS V14.01,2013-03-15 06:13:00,
2013-03-15 02:14:00,28.8,9.6,30.21,SW,225,0.0,0.0,44,0.00,,---,0.00,VWS V14.01,2013-03-15 06:14:00,
2013-03-15 02:15:00,28.8,9.6,30.21,SW,225,0.0,0.0,44,0.00,,---,0.00,VWS V14.01,2013-03-15 06:15:00,
2013-03-15 02:16:00,28.6,9.4,30.21,SW,225,0.0,0.0,44,0.00,,---,0.00,VWS V14.01,2013-03-15 06:16:00,
2013-03-15 02:17:00,28.6,9.4,30.21,SW,225,0.0,0.0,44,0.00,,---,0.00,VWS V14.01,2013-03-15 06:17:00,
2013-03-15 02:18:00,28.6,9.4,30.21,SW,225,0.0,0.0,44,0.00,,---,0.00,VWS V14.01,2013-03-15 06:18:00,
2013-03-15 02:19:00,28.6,9.4,30.21,SW,225,0.0,0.0,44,0.00,,---,0.00,VWS V14.01,2013-03-15 06:19:00,
2013-03-15 02:20:00,28.6,9.4,30.21,SW,225,0.0,0.0,44,0.00,,---,0.00,VWS V14.01,2013-03-15 06:20:00,
2013-03-15 02:21:00,28.4,9.8,30.21,SW,225,0.0,0.0,45,0.00,,---,0.00,VWS V14.01,2013-03-15 06:21:00,
2013-03-15 02:22:00,28.4,9.8,30.21,SW,225,0.0,0.0,45,0.00,,---,0.00,VWS V14.01,2013-03-15 06:22:00,
2013-03-15 02:23:00,28.4,9.8,30.21,SW,225,0.0,0.0,45,0.00,,---,0.00,VWS V14.01,2013-03-15 06:23:00,
2013-03-15 02:24:00,28.2,9.6,30.21,SW,225,0.0,0.0,45,0.00,,---,0.00,VWS V14.01,2013-03-15 06:24:00,
2013-03-15 02:25:00,28.2,9.6,30.21,SW,225,0.0,0.0,45,0.00,,---,0.00,VWS V14.01,2013-03-15 06:25:00,
2013-03-15 02:26:00,28.2,9.6,30.21,SW,225,0.0,0.0,45,0.00,,---,0.00,VWS V14.01,2013-03-15 06:26:00,
2013-03-15 02:27:00,28.2,10.1,30.21,SW,225,0.0,0.0,46,0.00,,---,0.00,VWS V14.01,2013-03-15 06:27:00,
2013-03-15 02:28:00,28.2,10.1,30.21,SW,225,0.0,0.0,46,0.00,,---,0.00,VWS V14.01,2013-03-15 06:28:00,
2013-03-15 02:29:00,28.0,9.9,30.21,SW,225,0.0,0.0,46,0.00,,---,0.00,VWS V14.01,2013-03-15 06:29:00,
2013-03-15 02:30:00,28.0,9.9,30.21,SW,225,0.0,0.0,46,0.00,,---,0.00,VWS V14.01,2013-03-15 06:30:00,
2013-03-15 02:31:00,28.0,9.9,30.21,SW,225,0.0,0.0,46,0.00,,---,0.00,VWS V14.01,2013-03-15 06:31:00,
2013-03-15 02:32:00,28.0,9.9,30.21,SW,225,0.0,0.0,46,0.00,,---,0.00,VWS V14.01,2013-03-15 06:32:00,
2013-03-15 02:33:00,28.0,9.9,30.21,SW,225,0.0,0.0,46,0.00,,---,0.00,VWS V14.01,2013-03-15 06:33:00,
2013-03-15 02:34:00,28.0,9.9,30.21,SW,225,0.0,0.0,46,0.00,,---,0.00,VWS V14.01,2013-03-15 06:34:00,
2013-03-15 02:35:00,28.0,9.9,30.21,SW,225,0.0,0.0,46,0.00,,---,0.00,VWS V14.01,2013-03-15 06:35:00,
2013-03-15 02:36:00,28.0,9.9,30.21,SW,225,0.0,0.0,46,0.00,,---,0.00,VWS V14.01,2013-03-15 06:36:00,
2013-03-15 02:37:00,28.0,9.9,30.21,SW,225,0.0,0.0,46,0.00,,---,0.00,VWS V14.01,2013-03-15 06:37:00,
2013-03-15 02:38:00,28.0,9.9,30.21,SW,225,0.0,0.0,46,0.00,,---,0.00,VWS V14.01,2013-03-15 06:38:00,
2013-03-15 02:39:00,28.0,10.4,30.21,SW,225,0.0,0.0,47,0.00,,---,0.00,VWS V14.01,2013-03-15 06:39:00,
2013-03-15 02:40:00,28.0,10.4,30.21,SSE,158,0.0,0.0,47,0.00,,---,0.00,VWS V14.01,2013-03-15 06:40:00,
2013-03-15 02:41:00,28.0,10.4,30.21,SSE,158,0.0,0.0,47,0.00,,---,0.00,VWS V14.01,2013-03-15 06:41:00,
2013-03-15 02:42:00,28.2,10.6,30.21,WSW,248,0.0,0.0,47,0.00,,---,0.00,VWS V14.01,2013-03-15 06:42:00,
2013-03-15 02:43:00,28.2,10.6,30.21,SE,135,0.0,1.1,47,0.00,,---,0.00,VWS V14.01,2013-03-15 06:43:00,
2013-03-15 02:44:00,28.2,11.1,30.21,SSE,158,0.0,0.0,48,0.00,,---,0.00,VWS V14.01,2013-03-15 06:44:00,
2013-03-15 02:45:00,28.2,11.5,30.21,SSE,158,0.0,0.0,49,0.00,,---,0.00,VWS V14.01,2013-03-15 06:45:00,
2013-03-15 02:46:00,28.2,11.5,30.21,WSW,248,0.0,0.0,49,0.00,,---,0.00,VWS V14.01,2013-03-15 06:46:00,
2013-03-15 02:47:00,28.2,11.5,30.21,SE,135,0.0,0.0,49,0.00,,---,0.00,VWS V14.01,2013-03-15 06:47:00,
2013-03-15 02:48:00,28.2,11.5,30.21,SE,135,0.0,0.0,49,0.00,,---,0.00,VWS V14.01,2013-03-15 06:48:00,
2013-03-15 02:49:00,28.4,12.1,30.21,SSW,202,0.0,0.0,50,0.00,,---,0.00,VWS V14.01,2013-03-15 06:49:00,
2013-03-15 02:50:00,28.4,12.1,30.21,SSW,202,0.0,0.0,50,0.00,,---,0.00,VWS V14.01,2013-03-15 06:50:00,
2013-03-15 02:51:00,28.2,12.0,30.21,SSW,202,0.0,0.0,50,0.00,,---,0.00,VWS V14.01,2013-03-15 06:51:00,
2013-03-15 02:52:00,28.2,11.5,30.21,SSW,202,0.0,0.0,49,0.00,,---,0.00,VWS V14.01,2013-03-15 06:52:00,
2013-03-15 02:53:00,28.2,11.5,30.21,SSW,202,0.0,0.0,49,0.00,,---,0.00,VWS V14.01,2013-03-15 06:53:00,
2013-03-15 02:54:00,28.4,12.1,30.21,SSW,202,0.0,0.0,50,0.00,,---,0.00,VWS V14.01,2013-03-15 06:54:00,
2013-03-15 02:55:00,28.4,12.1,30.21,SSW,202,0.0,0.0,50,0.00,,---,0.00,VWS V14.01,2013-03-15 06:55:00,
2013-03-15 02:56:00,28.2,12.0,30.21,SSW,202,0.0,0.0,50,0.00,,---,0.00,VWS V14.01,2013-03-15 06:56:00,
2013-03-15 02:57:00,28.2,12.0,30.21,SSW,202,0.0,0.0,50,0.00,,---,0.00,VWS V14.01,2013-03-15 06:57:00,
2013-03-15 02:58:00,28.2,12.0,30.21,SSW,202,0.0,0.0,50,0.00,,---,0.00,VWS V14.01,2013-03-15 06:58:00,
2013-03-15 02:59:00,28.2,12.0,30.21,SSW,202,0.0,0.0,50,0.00,,---,0.00,VWS V14.01,2013-03-15 06:59:00,
2013-03-15 03:00:00,28.0,11.8,30.21,SSW,202,0.0,0.0,50,0.00,,---,0.00,VWS V14.01,2013-03-15 07:00:00,
2013-03-15 03:01:00,28.0,11.8,30.21,SSW,202,0.0,0.0,50,0.00,,---,0.00,VWS V14.01,2013-03-15 07:01:00,
2013-03-15 03:02:00,28.0,11.4,30.21,SSW,202,0.0,0.0,49,0.00,,---,0.00,VWS V14.01,2013-03-15 07:02:00,
2013-03-15 03:03:00,28.0,11.4,30.21,SSW,202,0.0,0.0,49,0.00,,---,0.00,VWS V14.01,2013-03-15 07:03:00,
2013-03-15 03:04:00,28.0,11.4,30.21,SSW,202,0.0,0.0,49,0.00,,---,0.00,VWS V14.01,2013-03-15 07:04:00,
2013-03-15 03:05:00,27.9,11.2,30.21,SSW,202,0.0,0.0,49,0.00,,---,0.00,VWS V14.01,2013-03-15 07:05:00,
2013-03-15 03:06:00,27.9,11.2,30.21,SSW,202,0.0,0.0,49,0.00,,---,0.00,VWS V14.01,2013-03-15 07:06:00,
2013-03-15 03:07:00,28.0,11.8,30.21,SSW,202,0.0,0.0,50,0.00,,---,0.00,VWS V14.01,2013-03-15 07:07:00,
2013-03-15 03:08:00,27.9,11.6,30.21,SSW,202,0.0,0.0,50,0.00,,---,0.00,VWS V14.01,2013-03-15 07:08:00,
2013-03-15 03:09:00,27.9,11.6,30.21,SSW,202,0.0,0.0,50,0.00,,---,0.00,VWS V14.01,2013-03-15 07:09:00,
2013-03-15 03:10:00,27.9,11.6,30.21,SSW,202,0.0,0.0,50,0.00,,---,0.00,VWS V14.01,2013-03-15 07:10:00,
2013-03-15 03:11:00,27.9,11.6,30.21,SSW,202,0.0,0.0,50,0.00,,---,0.00,VWS V14.01,2013-03-15 07:11:00,
2013-03-15 03:12:00,27.9,11.6,30.21,SSW,202,0.0,0.0,50,0.00,,---,0.00,VWS V14.01,2013-03-15 07:12:00,
2013-03-15 03:13:00,27.9,11.6,30.21,SSW,202,0.0,0.0,50,0.00,,---,0.00,VWS V14.01,2013-03-15 07:13:00,
2013-03-15 03:14:00,27.9,11.6,30.21,SE,135,0.0,0.0,50,0.00,,---,0.00,VWS V14.01,2013-03-15 07:14:00,
2013-03-15 03:15:00,27.9,11.6,30.21,SSE,158,0.0,0.0,50,0.00,,---,0.00,VWS V14.01,2013-03-15 07:15:00,
2013-03-15 03:16:00,27.9,11.6,30.21,SSW,202,0.0,0.0,50,0.00,,---,0.00,VWS V14.01,2013-03-15 07:16:00,
2013-03-15 03:17:00,27.7,11.5,30.21,SSW,202,0.0,0.0,50,0.00,,---,0.00,VWS V14.01,2013-03-15 07:17:00,
2013-03-15 03:18:00,27.7,11.5,30.21,SSW,202,0.0,0.0,50,0.00,,---,0.00,VWS V14.01,2013-03-15 07:18:00,
2013-03-15 03:19:00,27.7,11.5,30.21,SSW,202,0.0,0.0,50,0.00,,---,0.00,VWS V14.01,2013-03-15 07:19:00,
2013-03-15 03:20:00,27.7,11.5,30.21,WSW,248,0.0,0.0,50,0.00,,---,0.00,VWS V14.01,2013-03-15 07:20:00,
2013-03-15 03:21:00,27.7,11.5,30.21,WSW,248,0.0,0.0,50,0.00,,---,0.00,VWS V14.01,2013-03-15 07:21:00,
2013-03-15 03:22:00,27.7,11.5,30.21,WSW,248,0.0,0.0,50,0.00,,---,0.00,VWS V14.01,2013-03-15 07:22:00,
2013-03-15 03:23:00,27.7,11.5,30.21,WSW,248,0.0,0.0,50,0.00,,---,0.00,VWS V14.01,2013-03-15 07:23:00,
2013-03-15 03:24:00,27.7,11.5,30.21,WSW,248,0.0,0.0,50,0.00,,---,0.00,VWS V14.01,2013-03-15 07:24:00,
2013-03-15 03:25:00,27.7,11.5,30.21,WSW,248,0.0,0.0,50,0.00,,---,0.00,VWS V14.01,2013-03-15 07:25:00,
2013-03-15 03:26:00,27.7,11.9,30.21,WSW,248,0.0,0.0,51,0.00,,---,0.00,VWS V14.01,2013-03-15 07:26:00,
2013-03-15 03:27:00,27.7,11.9,30.21,WSW,248,0.0,0.0,51,0.00,,---,0.00,VWS V14.01,2013-03-15 07:27:00,
2013-03-15 03:28:00,27.5,11.8,30.21,SW,225,0.0,0.0,51,0.00,,---,0.00,VWS V14.01,2013-03-15 07:28:00,
2013-03-15 03:29:00,27.5,11.8,30.21,SSW,202,0.0,0.0,51,0.00,,---,0.00,VWS V14.01,2013-03-15 07:29:00,
2013-03-15 03:30:00,27.5,11.8,30.21,SSW,202,0.0,0.0,51,0.00,,---,0.00,VWS V14.01,2013-03-15 07:30:00,
2013-03-15 03:31:00,27.5,11.8,30.21,SSW,202,0.0,0.0,51,0.00,,---,0.00,VWS V14.01,2013-03-15 07:31:00,
2013-03-15 03:32:00,27.5,11.8,30.21,SSW,202,0.0,0.0,51,0.00,,---,0.00,VWS V14.01,2013-03-15 07:32:00,
2013-03-15 03:33:00,27.3,11.6,30.21,SSW,202,0.0,0.0,51,0.00,,---,0.00,VWS V14.01,2013-03-15 07:33:00,
2013-03-15 03:34:00,27.3,11.6,30.21,SSW,202,0.0,0.0,51,0.00,,---,0.00,VWS V14.01,2013-03-15 07:34:00,
2013-03-15 03:35:00,27.3,11.1,30.21,SSW,202,0.0,0.0,50,0.00,,---,0.00,VWS V14.01,2013-03-15 07:35:00,
2013-03-15 03:36:00,27.3,11.1,30.21,SSW,202,0.0,0.0,50,0.00,,---,0.00,VWS V14.01,2013-03-15 07:36:00,
2013-03-15 03:37:00,27.3,11.1,30.21,SSE,158,0.0,0.0,50,0.00,,---,0.00,VWS V14.01,2013-03-15 07:37:00,
2013-03-15 03:38:00,27.3,11.6,30.21,SSE,158,0.0,0.0,51,0.00,,---,0.00,VWS V14.01,2013-03-15 07:38:00,
2013-03-15 03:39:00,27.3,11.1,30.21,SW,225,0.0,0.0,50,0.00,,---,0.00,VWS V14.01,2013-03-15 07:39:00,
2013-03-15 03:40:00,27.3,11.1,30.21,WSW,248,0.0,0.0,50,0.00,,---,0.00,VWS V14.01,2013-03-15 07:40:00,
2013-03-15 03:41:00,27.3,11.6,30.21,WSW,248,0.0,0.0,51,0.00,,---,0.00,VWS V14.01,2013-03-15 07:41:00,
2013-03-15 03:42:00,27.3,11.6,30.21,WSW,248,0.0,0.0,51,0.00,,---,0.00,VWS V14.01,2013-03-15 07:42:00,
2013-03-15 03:43:00,27.1,11.4,30.21,WSW,248,0.0,0.0,51,0.00,,---,0.00,VWS V14.01,2013-03-15 07:43:00,
2013-03-15 03:44:00,27.1,11.4,30.21,WSW,248,0.0,0.0,51,0.00,,---,0.00,VWS V14.01,2013-03-15 07:44:00,
2013-03-15 03:45:00,27.1,11.4,30.21,WSW,248,0.0,0.0,51,0.00,,---,0.00,VWS V14.01,2013-03-15 07:45:00,
2013-03-15 03:46:00,27.1,11.4,30.21,WSW,248,0.0,0.0,51,0.00,,---,0.00,VWS V14.01,2013-03-15 07:46:00,
2013-03-15 03:47:00,27.1,11.4,30.21,SE,135,0.0,0.0,51,0.00,,---,0.00,VWS V14.01,2013-03-15 07:47:00,
2013-03-15 03:48:00,27.1,11.4,30.21,SE,135,0.0,0.0,51,0.00,,---,0.00,VWS V14.01,2013-03-15 07:48:00,
2013-03-15 03:49:00,27.1,11.4,30.21,SSW,202,0.0,0.0,51,0.00,,---,0.00,VWS V14.01,2013-03-15 07:49:00,
2013-03-15 03:50:00,27.1,11.4,30.21,SSW,202,0.0,0.0,51,0.00,,---,0.00,VWS V14.01,2013-03-15 07:50:00,
2013-03-15 03:51:00,27.0,11.3,30.21,SSW,202,0.0,0.0,51,0.00,,---,0.00,VWS V14.01,2013-03-15 07:51:00,
2013-03-15 03:52:00,27.0,11.3,30.21,SSW,202,0.0,0.0,51,0.00,,---,0.00,VWS V14.01,2013-03-15 07:52:00,
2013-03-15 03:53:00,27.0,11.3,30.21,SSW,202,0.0,0.0,51,0.00,,---,0.00,VWS V14.01,2013-03-15 07:53:00,
2013-03-15 03:54:00,27.0,11.3,30.21,SSW,202,0.0,0.0,51,0.00,,---,0.00,VWS V14.01,2013-03-15 07:54:00,
2013-03-15 03:55:00,27.0,11.3,30.21,SW,225,0.0,0.0,51,0.00,,---,0.00,VWS V14.01,2013-03-15 07:55:00,
2013-03-15 03:56:00,27.0,11.3,30.21,SW,225,0.0,0.0,51,0.00,,---,0.00,VWS V14.01,2013-03-15 07:56:00,
2013-03-15 03:57:00,27.0,11.3,30.21,SW,225,0.0,0.0,51,0.00,,---,0.00,VWS V14.01,2013-03-15 07:57:00,
2013-03-15 03:58:00,27.0,11.3,30.21,SW,225,0.0,0.0,51,0.00,,---,0.00,VWS V14.01,2013-03-15 07:58:00,
2013-03-15 03:59:00,27.0,11.3,30.21,SW,225,0.0,0.0,51,0.00,,---,0.00,VWS V14.01,2013-03-15 07:59:00,
2013-03-15 04:00:00,27.0,11.3,30.21,SW,225,0.0,0.0,51,0.00,,---,0.00,VWS V14.01,2013-03-15 08:00:00,
2013-03-15 04:01:00,27.0,11.3,30.21,SW,225,0.0,0.0,51,0.00,,---,0.00,VWS V14.01,2013-03-15 08:01:00,
2013-03-15 04:02:00,27.0,11.3,30.21,SW,225,0.0,0.0,51,0.00,,---,0.00,VWS V14.01,2013-03-15 08:02:00,
2013-03-15 04:03:00,27.0,11.7,30.21,SW,225,0.0,0.0,52,0.00,,---,0.00,VWS V14.01,2013-03-15 08:03:00,
2013-03-15 04:04:00,27.0,11.7,30.21,SW,225,0.0,0.0,52,0.00,,---,0.00,VWS V14.01,2013-03-15 08:04:00,
2013-03-15 04:05:00,26.8,11.5,30.21,SW,225,0.0,0.0,52,0.00,,---,0.00,VWS V14.01,2013-03-15 08:05:00,
2013-03-15 04:06:00,27.0,11.7,30.21,SW,225,0.0,0.0,52,0.00,,---,0.00,VWS V14.01,2013-03-15 08:06:00,
2013-03-15 04:07:00,27.0,11.7,30.21,SW,225,0.0,0.0,52,0.00,,---,0.00,VWS V14.01,2013-03-15 08:07:00,
2013-03-15 04:08:00,27.0,11.7,30.21,SW,225,0.0,0.0,52,0.00,,---,0.00,VWS V14.01,2013-03-15 08:08:00,
2013-03-15 04:09:00,27.0,11.7,30.21,SW,225,0.0,0.0,52,0.00,,---,0.00,VWS V14.01,2013-03-15 08:09:00,
2013-03-15 04:10:00,26.8,11.5,30.21,SW,225,0.0,0.0,52,0.00,,---,0.00,VWS V14.01,2013-03-15 08:10:00,
2013-03-15 04:11:00,26.8,11.5,30.21,SW,225,0.0,0.0,52,0.00,,---,0.00,VWS V14.01,2013-03-15 08:11:00,
2013-03-15 04:12:00,26.8,11.5,30.21,SW,225,0.0,0.0,52,0.00,,---,0.00,VWS V14.01,2013-03-15 08:12:00,
2013-03-15 04:13:00,26.8,11.5,30.21,SW,225,0.0,0.0,52,0.00,,---,0.00,VWS V14.01,2013-03-15 08:13:00,
2013-03-15 04:14:00,26.8,11.5,30.21,SW,225,0.0,0.0,52,0.00,,---,0.00,VWS V14.01,2013-03-15 08:14:00,
2013-03-15 04:15:00,26.8,11.5,30.21,SW,225,0.0,0.0,52,0.00,,---,0.00,VWS V14.01,2013-03-15 08:15:00,
2013-03-15 04:16:00,26.8,11.5,30.21,SW,225,0.0,0.0,52,0.00,,---,0.00,VWS V14.01,2013-03-15 08:16:00,
2013-03-15 04:17:00,26.6,11.8,30.21,SW,225,0.0,0.0,53,0.00,,---,0.00,VWS V14.01,2013-03-15 08:17:00,
2013-03-15 04:18:00,26.6,11.8,30.21,SW,225,0.0,0.0,53,0.00,,---,0.00,VWS V14.01,2013-03-15 08:18:00,
2013-03-15 04:19:00,26.6,11.8,30.21,SW,225,0.0,0.0,53,0.00,,---,0.00,VWS V14.01,2013-03-15 08:19:00,
2013-03-15 04:20:00,26.6,11.8,30.21,SW,225,0.0,0.0,53,0.00,,---,0.00,VWS V14.01,2013-03-15 08:20:00,
2013-03-15 04:21:00,26.6,11.8,30.21,SW,225,0.0,0.0,53,0.00,,---,0.00,VWS V14.01,2013-03-15 08:21:00,
2013-03-15 04:22:00,26.6,11.8,30.21,SW,225,0.0,0.0,53,0.00,,---,0.00,VWS V14.01,2013-03-15 08:22:00,
2013-03-15 04:23:00,26.4,11.6,30.21,SW,225,0.0,0.0,53,0.00,,---,0.00,VWS V14.01,2013-03-15 08:23:00,
2013-03-15 04:24:00,26.4,11.6,30.21,SW,225,0.0,0.0,53,0.00,,---,0.00,VWS V14.01,2013-03-15 08:24:00,
2013-03-15 04:25:00,26.4,11.6,30.21,SW,225,0.0,0.0,53,0.00,,---,0.00,VWS V14.01,2013-03-15 08:25:00,
2013-03-15 04:26:00,26.4,11.6,30.21,SW,225,0.0,0.0,53,0.00,,---,0.00,VWS V14.01,2013-03-15 08:26:00,
2013-03-15 04:27:00,26.4,11.6,30.21,WNW,292,0.0,0.0,53,0.00,,---,0.00,VWS V14.01,2013-03-15 08:27:00,
2013-03-15 04:28:00,26.4,11.6,30.21,SSE,158,0.0,0.0,53,0.00,,---,0.00,VWS V14.01,2013-03-15 08:28:00,
2013-03-15 04:29:00,26.6,11.8,30.21,SSE,158,0.0,0.0,53,0.00,,---,0.00,VWS V14.01,2013-03-15 08:29:00,
2013-03-15 04:30:00,26.6,11.8,30.21,South,180,0.0,0.0,53,0.00,,---,0.00,VWS V14.01,2013-03-15 08:30:00,
2013-03-15 04:31:00,26.6,11.8,30.21,SSW,202,0.0,0.0,53,0.00,,---,0.00,VWS V14.01,2013-03-15 08:31:00,
2013-03-15 04:32:00,26.6,11.8,30.21,SSW,202,0.0,0.0,53,0.00,,---,0.00,VWS V14.01,2013-03-15 08:32:00,
2013-03-15 04:33:00,26.6,11.8,30.21,SSW,202,0.0,0.0,53,0.00,,---,0.00,VWS V14.01,2013-03-15 08:33:00,
2013-03-15 04:34:00,26.6,11.8,30.21,SSW,202,0.0,0.0,53,0.00,,---,0.00,VWS V14.01,2013-03-15 08:34:00,
2013-03-15 04:35:00,26.6,11.8,30.21,SSW,202,0.0,0.0,53,0.00,,---,0.00,VWS V14.01,2013-03-15 08:35:00,
2013-03-15 04:36:00,26.6,11.8,30.21,SSW,202,0.0,0.0,53,0.00,,---,0.00,VWS V14.01,2013-03-15 08:36:00,
2013-03-15 04:37:00,26.4,11.6,30.21,SSW,202,0.0,0.0,53,0.00,,---,0.00,VWS V14.01,2013-03-15 08:37:00,
2013-03-15 04:38:00,26.4,11.6,30.21,SSW,202,0.0,0.0,53,0.00,,---,0.00,VWS V14.01,2013-03-15 08:38:00,
2013-03-15 04:39:00,26.6,11.8,30.21,SSW,202,0.0,0.0,53,0.00,,---,0.00,VWS V14.01,2013-03-15 08:39:00,
2013-03-15 04:40:00,26.6,11.8,30.21,SSW,202,0.0,0.0,53,0.00,,---,0.00,VWS V14.01,2013-03-15 08:40:00,
2013-03-15 04:41:00,26.6,11.8,30.21,SSW,202,0.0,0.0,53,0.00,,---,0.00,VWS V14.01,2013-03-15 08:41:00,
2013-03-15 04:42:00,26.6,11.8,30.21,SSW,202,0.0,0.0,53,0.00,,---,0.00,VWS V14.01,2013-03-15 08:42:00,
2013-03-15 04:43:00,26.6,12.2,30.21,SSW,202,0.0,0.0,54,0.00,,---,0.00,VWS V14.01,2013-03-15 08:43:00,
2013-03-15 04:44:00,26.4,12.0,30.21,SSW,202,0.0,0.0,54,0.00,,---,0.00,VWS V14.01,2013-03-15 08:44:00,
2013-03-15 04:45:00,26.4,12.0,30.21,SSW,202,0.0,0.0,54,0.00,,---,0.00,VWS V14.01,2013-03-15 08:45:00,
2013-03-15 04:46:00,26.4,12.0,30.21,SSW,202,0.0,0.0,54,0.00,,---,0.00,VWS V14.01,2013-03-15 08:46:00,
2013-03-15 04:47:00,26.4,12.0,30.21,SSW,202,0.0,0.0,54,0.00,,---,0.00,VWS V14.01,2013-03-15 08:47:00,
2013-03-15 04:48:00,26.4,12.0,30.21,SSW,202,0.0,0.0,54,0.00,,---,0.00,VWS V14.01,2013-03-15 08:48:00,
2013-03-15 04:49:00,26.4,12.0,30.21,SSW,202,0.0,0.0,54,0.00,,---,0.00,VWS V14.01,2013-03-15 08:49:00,
2013-03-15 04:50:00,26.4,12.0,30.21,SSW,202,0.0,0.0,54,0.00,,---,0.00,VWS V14.01,2013-03-15 08:50:00,
2013-03-15 04:51:00,26.4,12.0,30.21,SSW,202,0.0,0.0,54,0.00,,---,0.00,VWS V14.01,2013-03-15 08:51:00,
2013-03-15 04:52:00,26.4,12.0,30.21,SW,225,0.0,0.0,54,0.00,,---,0.00,VWS V14.01,2013-03-15 08:52:00,
2013-03-15 04:53:00,26.4,12.0,30.21,SW,225,0.0,0.0,54,0.00,,---,0.00,VWS V14.01,2013-03-15 08:53:00,
2013-03-15 04:54:00,26.2,11.9,30.21,SW,225,0.0,0.0,54,0.00,,---,0.00,VWS V14.01,2013-03-15 08:54:00,
2013-03-15 04:55:00,26.2,11.9,30.21,SW,225,0.0,0.0,54,0.00,,---,0.00,VWS V14.01,2013-03-15 08:55:00,
2013-03-15 04:56:00,26.2,11.9,30.21,SW,225,0.0,0.0,54,0.00,,---,0.00,VWS V14.01,2013-03-15 08:56:00,
2013-03-15 04:57:00,26.2,11.9,30.21,SW,225,0.0,0.0,54,0.00,,---,0.00,VWS V14.01,2013-03-15 08:57:00,
2013-03-15 04:58:00,26.2,11.9,30.21,SW,225,0.0,0.0,54,0.00,,---,0.00,VWS V14.01,2013-03-15 08:58:00,
2013-03-15 04:59:00,26.2,11.9,30.21,SW,225,0.0,0.0,54,0.00,,---,0.00,VWS V14.01,2013-03-15 08:59:00,
2013-03-15 05:00:00,26.2,11.9,30.21,SW,225,0.0,0.0,54,0.00,,---,0.00,VWS V14.01,2013-03-15 09:00:00,
2013-03-15 05:01:00,26.2,11.9,30.21,SW,225,0.0,0.0,54,0.00,,---,0.00,VWS V14.01,2013-03-15 09:01:00,
2013-03-15 05:02:00,26.2,11.9,30.21,SW,225,0.0,0.0,54,0.00,,---,0.00,VWS V14.01,2013-03-15 09:02:00,
2013-03-15 05:03:00,26.2,11.9,30.21,SW,225,0.0,0.0,54,0.00,,---,0.00,VWS V14.01,2013-03-15 09:03:00,
2013-03-15 05:04:00,26.2,11.9,30.21,SW,225,0.0,0.0,54,0.00,,---,0.00,VWS V14.01,2013-03-15 09:04:00,
2013-03-15 05:05:00,26.2,11.9,30.21,SW,225,0.0,0.0,54,0.00,,---,0.00,VWS V14.01,2013-03-15 09:05:00,
2013-03-15 05:06:00,26.2,11.9,30.21,SW,225,0.0,0.0,54,0.00,,---,0.00,VWS V14.01,2013-03-15 09:06:00,
2013-03-15 05:07:00,26.2,11.9,30.21,SW,225,0.0,0.0,54,0.00,,---,0.00,VWS V14.01,2013-03-15 09:07:00,
2013-03-15 05:08:00,26.2,11.9,30.21,SW,225,0.0,0.0,54,0.00,,---,0.00,VWS V14.01,2013-03-15 09:08:00,
2013-03-15 05:09:00,26.2,11.9,30.21,SW,225,0.0,0.0,54,0.00,,---,0.00,VWS V14.01,2013-03-15 09:09:00,
2013-03-15 05:10:00,26.2,12.3,30.21,SW,225,0.0,0.0,55,0.00,,---,0.00,VWS V14.01,2013-03-15 09:10:00,
2013-03-15 05:11:00,26.2,12.3,30.21,SW,225,0.0,0.0,55,0.00,,---,0.00,VWS V14.01,2013-03-15 09:11:00,
2013-03-15 05:12:00,26.2,12.3,30.21,SW,225,0.0,0.0,55,0.00,,---,0.00,VWS V14.01,2013-03-15 09:12:00,
2013-03-15 05:13:00,26.2,12.3,30.21,SW,225,0.0,0.0,55,0.00,,---,0.00,VWS V14.01,2013-03-15 09:13:00,
2013-03-15 05:14:00,26.2,11.9,30.21,SW,225,0.0,0.0,54,0.00,,---,0.00,VWS V14.01,2013-03-15 09:14:00,
2013-03-15 05:15:00,26.1,11.7,30.21,SW,225,0.0,0.0,54,0.00,,---,0.00,VWS V14.01,2013-03-15 09:15:00,
2013-03-15 05:16:00,26.1,11.7,30.21,SW,225,0.0,0.0,54,0.00,,---,0.00,VWS V14.01,2013-03-15 09:16:00,
2013-03-15 05:17:00,26.1,11.7,30.21,SW,225,0.0,0.0,54,0.00,,---,0.00,VWS V14.01,2013-03-15 09:17:00,
2013-03-15 05:18:00,26.1,11.7,30.21,SW,225,0.0,0.0,54,0.00,,---,0.00,VWS V14.01,2013-03-15 09:18:00,
2013-03-15 05:19:00,26.1,11.7,30.21,SW,225,0.0,0.0,54,0.00,,---,0.00,VWS V14.01,2013-03-15 09:19:00,
2013-03-15 05:20:00,26.1,11.7,30.21,SW,225,0.0,0.0,54,0.00,,---,0.00,VWS V14.01,2013-03-15 09:20:00,
2013-03-15 05:21:00,26.1,11.7,30.21,SW,225,0.0,0.0,54,0.00,,---,0.00,VWS V14.01,2013-03-15 09:21:00,
2013-03-15 05:22:00,26.1,12.1,30.21,SW,225,0.0,0.0,55,0.00,,---,0.00,VWS V14.01,2013-03-15 09:22:00,
2013-03-15 05:23:00,26.1,12.1,30.21,WSW,248,0.0,0.0,55,0.00,,---,0.00,VWS V14.01,2013-03-15 09:23:00,
2013-03-15 05:24:00,26.1,12.1,30.21,WSW,248,0.0,0.0,55,0.00,,---,0.00,VWS V14.01,2013-03-15 09:24:00,
2013-03-15 05:25:00,26.1,12.1,30.21,WSW,248,0.0,0.0,55,0.00,,---,0.00,VWS V14.01,2013-03-15 09:25:00,
2013-03-15 05:26:00,26.1,12.1,30.21,WSW,248,0.0,0.0,55,0.00,,---,0.00,VWS V14.01,2013-03-15 09:26:00,
2013-03-15 05:27:00,26.1,12.1,30.21,WSW,248,0.0,0.0,55,0.00,,---,0.00,VWS V14.01,2013-03-15 09:27:00,
2013-03-15 05:28:00,26.1,12.1,30.21,WSW,248,0.0,0.0,55,0.00,,---,0.00,VWS V14.01,2013-03-15 09:28:00,
2013-03-15 05:29:00,26.1,12.1,30.21,WSW,248,0.0,0.0,55,0.00,,---,0.00,VWS V14.01,2013-03-15 09:29:00,
2013-03-15 05:30:00,26.1,12.1,30.21,WSW,248,0.0,0.0,55,0.00,,---,0.00,VWS V14.01,2013-03-15 09:30:00,
2013-03-15 05:31:00,26.1,12.1,30.21,WSW,248,0.0,0.0,55,0.00,,---,0.00,VWS V14.01,2013-03-15 09:31:00,
2013-03-15 05:32:00,26.1,12.1,30.21,WSW,248,0.0,0.0,55,0.00,,---,0.00,VWS V14.01,2013-03-15 09:32:00,
2013-03-15 05:33:00,26.1,12.1,30.21,WSW,248,0.0,0.0,55,0.00,,---,0.00,VWS V14.01,2013-03-15 09:33:00,
2013-03-15 05:34:00,26.1,12.1,30.21,WSW,248,0.0,0.0,55,0.00,,---,0.00,VWS V14.01,2013-03-15 09:34:00,
2013-03-15 05:35:00,26.1,12.1,30.21,WSW,248,0.0,0.0,55,0.00,,---,0.00,VWS V14.01,2013-03-15 09:35:00,
2013-03-15 05:36:00,26.1,12.1,30.21,WSW,248,0.0,0.0,55,0.00,,---,0.00,VWS V14.01,2013-03-15 09:36:00,
2013-03-15 05:37:00,26.1,12.1,30.21,WSW,248,0.0,0.0,55,0.00,,---,0.00,VWS V14.01,2013-03-15 09:37:00,
2013-03-15 05:38:00,26.1,12.1,30.21,WSW,248,0.0,0.0,55,0.00,,---,0.00,VWS V14.01,2013-03-15 09:38:00,
2013-03-15 05:39:00,26.1,12.1,30.21,WSW,248,0.0,0.0,55,0.00,,---,0.00,VWS V14.01,2013-03-15 09:39:00,
2013-03-15 05:40:00,26.1,12.1,30.21,WSW,248,0.0,0.0,55,0.00,,---,0.00,VWS V14.01,2013-03-15 09:40:00,
2013-03-15 05:41:00,25.9,11.9,30.21,WSW,248,0.0,0.0,55,0.00,,---,0.00,VWS V14.01,2013-03-15 09:41:00,
2013-03-15 05:42:00,25.9,11.9,30.21,WSW,248,0.0,0.0,55,0.00,,---,0.00,VWS V14.01,2013-03-15 09:42:00,
2013-03-15 05:43:00,25.9,11.9,30.21,WSW,248,0.0,0.0,55,0.00,,---,0.00,VWS V14.01,2013-03-15 09:43:00,
2013-03-15 05:44:00,25.9,11.9,30.21,WSW,248,0.0,0.0,55,0.00,,---,0.00,VWS V14.01,2013-03-15 09:44:00,
2013-03-15 05:45:00,25.9,11.9,30.21,WSW,248,0.0,0.0,55,0.00,,---,0.00,VWS V14.01,2013-03-15 09:45:00,
2013-03-15 05:46:00,25.9,12.4,30.21,WSW,248,0.0,0.0,56,0.00,,---,0.00,VWS V14.01,2013-03-15 09:46:00,
2013-03-15 05:47:00,25.9,11.9,30.21,WSW,248,0.0,0.0,55,0.00,,---,0.00,VWS V14.01,2013-03-15 09:47:00,
2013-03-15 05:48:00,25.9,11.9,30.21,WSW,248,0.0,0.0,55,0.00,,---,0.00,VWS V14.01,2013-03-15 09:48:00,
2013-03-15 05:49:00,25.9,12.4,30.21,WSW,248,0.0,0.0,56,0.00,,---,0.00,VWS V14.01,2013-03-15 09:49:00,
2013-03-15 05:50:00,25.9,12.4,30.21,WSW,248,0.0,0.0,56,0.00,,---,0.00,VWS V14.01,2013-03-15 09:50:00,
2013-03-15 05:51:00,25.9,12.4,30.21,WSW,248,0.0,0.0,56,0.00,,---,0.00,VWS V14.01,2013-03-15 09:51:00,
2013-03-15 05:52:00,25.9,12.4,30.21,WSW,248,0.0,0.0,56,0.00,,---,0.00,VWS V14.01,2013-03-15 09:52:00,
2013-03-15 05:53:00,25.9,12.4,30.21,WSW,248,0.0,0.0,56,0.00,,---,0.00,VWS V14.01,2013-03-15 09:53:00,
2013-03-15 05:54:00,25.9,12.4,30.21,WSW,248,0.0,0.0,56,0.00,,---,0.00,VWS V14.01,2013-03-15 09:54:00,
2013-03-15 05:55:00,25.9,12.4,30.21,WSW,248,0.0,0.0,56,0.00,,---,0.00,VWS V14.01,2013-03-15 09:55:00,
2013-03-15 05:56:00,25.9,12.4,30.21,WSW,248,0.0,0.0,56,0.00,,---,0.00,VWS V14.01,2013-03-15 09:56:00,
2013-03-15 05:57:00,25.7,12.2,30.21,WSW,248,0.0,0.0,56,0.00,,---,0.00,VWS V14.01,2013-03-15 09:57:00,
2013-03-15 05:58:00,25.7,12.2,30.21,WSW,248,0.0,0.0,56,0.00,,---,0.00,VWS V14.01,2013-03-15 09:58:00,
2013-03-15 05:59:00,25.7,12.2,30.21,WSW,248,0.0,0.0,56,0.00,,---,0.00,VWS V14.01,2013-03-15 09:59:00,
2013-03-15 06:00:00,25.7,12.2,30.21,WSW,248,0.0,0.0,56,0.00,,---,0.00,VWS V14.01,2013-03-15 10:00:00,
2013-03-15 06:01:00,25.7,12.2,30.21,WSW,248,0.0,0.0,56,0.00,,---,0.00,VWS V14.01,2013-03-15 10:01:00,
2013-03-15 06:02:00,25.7,12.2,30.21,WSW,248,0.0,0.0,56,0.00,,---,0.00,VWS V14.01,2013-03-15 10:02:00,
2013-03-15 06:03:00,25.7,12.2,30.21,WSW,248,0.0,0.0,56,0.00,,---,0.00,VWS V14.01,2013-03-15 10:03:00,
2013-03-15 06:04:00,25.7,12.2,30.18,WSW,248,0.0,0.0,56,0.00,,---,0.00,VWS V14.01,2013-03-15 10:04:00,
2013-03-15 06:05:00,25.7,12.2,30.18,WSW,248,0.0,0.0,56,0.00,,---,0.00,VWS V14.01,2013-03-15 10:05:00,
2013-03-15 06:06:00,25.7,12.2,30.18,WSW,248,0.0,0.0,56,0.00,,---,0.00,VWS V14.01,2013-03-15 10:06:00,
2013-03-15 06:07:00,25.5,12.0,30.18,WSW,248,0.0,0.0,56,0.00,,---,0.00,VWS V14.01,2013-03-15 10:07:00,
2013-03-15 06:08:00,25.7,12.2,30.18,WSW,248,0.0,0.0,56,0.00,,---,0.00,VWS V14.01,2013-03-15 10:08:00,
2013-03-15 06:09:00,25.7,12.2,30.18,WSW,248,0.0,0.0,56,0.00,,---,0.00,VWS V14.01,2013-03-15 10:09:00,
2013-03-15 06:10:00,25.7,12.2,30.18,WSW,248,0.0,0.0,56,0.00,,---,0.00,VWS V14.01,2013-03-15 10:10:00,
2013-03-15 06:11:00,25.7,12.2,30.18,WSW,248,0.0,0.0,56,0.00,,---,0.00,VWS V14.01,2013-03-15 10:11:00,
2013-03-15 06:12:00,25.7,12.2,30.18,WSW,248,0.0,0.0,56,0.00,,---,0.00,VWS V14.01,2013-03-15 10:12:00,
2013-03-15 06:13:00,25.5,12.0,30.18,WSW,248,0.0,0.0,56,0.00,,---,0.00,VWS V14.01,2013-03-15 10:13:00,
2013-03-15 06:14:00,25.7,12.2,30.18,WSW,248,0.0,0.0,56,0.00,,---,0.00,VWS V14.01,2013-03-15 10:14:00,
2013-03-15 06:15:00,25.5,12.0,30.18,WSW,248,0.0,0.0,56,0.00,,---,0.00,VWS V14.01,2013-03-15 10:15:00,
2013-03-15 06:16:00,25.5,12.0,30.18,WSW,248,0.0,0.0,56,0.00,,---,0.00,VWS V14.01,2013-03-15 10:16:00,
2013-03-15 06:17:00,25.5,12.4,30.18,WSW,248,0.0,0.0,57,0.00,,---,0.00,VWS V14.01,2013-03-15 10:17:00,
2013-03-15 06:18:00,25.5,12.4,30.18,WSW,248,0.0,0.0,57,0.00,,---,0.00,VWS V14.01,2013-03-15 10:18:00,
2013-03-15 06:19:00,25.5,12.4,30.18,WSW,248,0.0,0.0,57,0.00,,---,0.00,VWS V14.01,2013-03-15 10:19:00,
2013-03-15 06:20:00,25.5,12.4,30.18,WSW,248,0.0,0.0,57,0.00,,---,0.00,VWS V14.01,2013-03-15 10:20:00,
2013-03-15 06:21:00,25.5,12.0,30.18,WSW,248,0.0,0.0,56,0.00,,---,0.00,VWS V14.01,2013-03-15 10:21:00,
2013-03-15 06:22:00,25.5,12.4,30.18,WSW,248,0.0,0.0,57,0.00,,---,0.00,VWS V14.01,2013-03-15 10:22:00,
2013-03-15 06:23:00,25.5,12.4,30.18,WSW,248,0.0,0.0,57,0.00,,---,0.00,VWS V14.01,2013-03-15 10:23:00,
2013-03-15 06:24:00,25.5,12.4,30.18,WSW,248,0.0,0.0,57,0.00,,---,0.00,VWS V14.01,2013-03-15 10:24:00,
2013-03-15 06:25:00,25.5,12.4,30.18,WSW,248,0.0,0.0,57,0.00,,---,0.00,VWS V14.01,2013-03-15 10:25:00,
2013-03-15 06:26:00,25.3,12.2,30.18,WSW,248,0.0,0.0,57,0.00,,---,0.00,VWS V14.01,2013-03-15 10:26:00,
2013-03-15 06:27:00,25.3,12.2,30.18,WSW,248,0.0,0.0,57,0.00,,---,0.00,VWS V14.01,2013-03-15 10:27:00,
2013-03-15 06:28:00,25.3,12.2,30.18,WSW,248,0.0,0.0,57,0.00,,---,0.00,VWS V14.01,2013-03-15 10:28:00,
2013-03-15 06:29:00,25.3,12.2,30.18,WSW,248,0.0,0.0,57,0.00,,---,0.00,VWS V14.01,2013-03-15 10:29:00,
2013-03-15 06:30:00,25.5,12.4,30.18,WSW,248,0.0,0.0,57,0.00,,---,0.00,VWS V14.01,2013-03-15 10:30:00,
2013-03-15 06:31:00,25.5,12.4,30.18,WSW,248,0.0,0.0,57,0.00,,---,0.00,VWS V14.01,2013-03-15 10:31:00,
2013-03-15 06:32:00,25.5,12.4,30.18,WSW,248,0.0,0.0,57,0.00,,---,0.00,VWS V14.01,2013-03-15 10:32:00,
2013-03-15 06:33:00,25.5,12.4,30.18,WSW,248,0.0,0.0,57,0.00,,---,0.00,VWS V14.01,2013-03-15 10:33:00,
2013-03-15 06:34:00,25.5,12.4,30.21,WSW,248,0.0,0.0,57,0.00,,---,0.00,VWS V14.01,2013-03-15 10:34:00,
2013-03-15 06:35:00,25.5,12.4,30.21,WSW,248,0.0,0.0,57,0.00,,---,0.00,VWS V14.01,2013-03-15 10:35:00,
2013-03-15 06:36:00,25.5,12.4,30.21,WSW,248,0.0,0.0,57,0.00,,---,0.00,VWS V14.01,2013-03-15 10:36:00,
2013-03-15 06:37:00,25.5,12.4,30.21,WSW,248,0.0,0.0,57,0.00,,---,0.00,VWS V14.01,2013-03-15 10:37:00,
2013-03-15 06:38:00,25.5,12.4,30.21,WSW,248,0.0,0.0,57,0.00,,---,0.00,VWS V14.01,2013-03-15 10:38:00,
2013-03-15 06:39:00,25.7,12.6,30.21,WSW,248,0.0,0.0,57,0.00,,---,0.00,VWS V14.01,2013-03-15 10:39:00,
2013-03-15 06:40:00,25.7,12.6,30.21,WSW,248,0.0,0.0,57,0.00,,---,0.00,VWS V14.01,2013-03-15 10:40:00,
2013-03-15 06:41:00,25.7,13.0,30.21,WSW,248,0.0,0.0,58,0.00,,---,0.00,VWS V14.01,2013-03-15 10:41:00,
2013-03-15 06:42:00,25.7,13.0,30.21,WSW,248,0.0,0.0,58,0.00,,---,0.00,VWS V14.01,2013-03-15 10:42:00,
2013-03-15 06:43:00,25.7,13.0,30.21,WSW,248,0.0,0.0,58,0.00,,---,0.00,VWS V14.01,2013-03-15 10:43:00,
2013-03-15 06:44:00,25.7,13.0,30.21,WSW,248,0.0,0.0,58,0.00,,---,0.00,VWS V14.01,2013-03-15 10:44:00,
2013-03-15 06:45:00,25.9,13.1,30.21,WSW,248,0.0,0.0,58,0.00,,---,0.00,VWS V14.01,2013-03-15 10:45:00,
2013-03-15 06:46:00,25.9,13.1,30.21,WSW,248,0.0,0.0,58,0.00,,---,0.00,VWS V14.01,2013-03-15 10:46:00,
2013-03-15 06:47:00,26.1,13.3,30.21,WSW,248,0.0,0.0,58,0.00,,---,0.00,VWS V14.01,2013-03-15 10:47:00,
2013-03-15 06:48:00,26.1,13.3,30.21,WSW,248,0.0,0.0,58,0.00,,---,0.00,VWS V14.01,2013-03-15 10:48:00,
2013-03-15 06:49:00,26.2,13.5,30.18,WSW,248,0.0,0.0,58,0.00,,---,0.00,VWS V14.01,2013-03-15 10:49:00,
2013-03-15 06:50:00,26.4,13.7,30.18,WSW,248,0.0,0.0,58,0.00,,---,0.00,VWS V14.01,2013-03-15 10:50:00,
2013-03-15 06:51:00,26.4,13.7,30.18,WSW,248,0.0,0.0,58,0.00,,---,0.00,VWS V14.01,2013-03-15 10:51:00,
2013-03-15 06:52:00,26.4,14.1,30.18,WSW,248,0.0,0.0,59,0.00,,---,0.00,VWS V14.01,2013-03-15 10:52:00,
2013-03-15 06:53:00,26.6,14.2,30.18,WSW,248,0.0,0.0,59,0.00,,---,0.00,VWS V14.01,2013-03-15 10:53:00,
2013-03-15 06:54:00,26.6,14.2,30.18,WSW,248,0.0,0.0,59,0.00,,---,0.00,VWS V14.01,2013-03-15 10:54:00,
2013-03-15 06:55:00,26.6,14.2,30.18,WSW,248,0.0,0.0,59,0.00,,---,0.00,VWS V14.01,2013-03-15 10:55:00,
2013-03-15 06:56:00,26.8,14.0,30.18,WSW,248,0.0,0.0,58,0.00,,---,0.00,VWS V14.01,2013-03-15 10:56:00,
2013-03-15 06:57:00,26.8,14.0,30.18,WSW,248,0.0,0.0,58,0.00,,---,0.00,VWS V14.01,2013-03-15 10:57:00,
2013-03-15 06:58:00,26.8,14.0,30.18,WSW,248,0.0,0.0,58,0.00,,---,0.00,VWS V14.01,2013-03-15 10:58:00,
2013-03-15 06:59:00,27.0,14.2,30.18,WSW,248,0.0,0.0,58,0.00,,---,0.00,VWS V14.01,2013-03-15 10:59:00,
2013-03-15 07:00:00,27.0,14.2,30.18,WSW,248,0.0,0.0,58,0.00,,---,0.00,VWS V14.01,2013-03-15 11:00:00,
2013-03-15 07:01:00,27.1,14.7,30.18,WSW,248,0.0,0.0,59,0.00,,---,0.00,VWS V14.01,2013-03-15 11:01:00,
2013-03-15 07:02:00,27.3,14.5,30.18,WSW,248,0.0,0.0,58,0.00,,---,0.00,VWS V14.01,2013-03-15 11:02:00,
2013-03-15 07:03:00,27.9,15.4,30.18,WSW,248,0.0,0.0,59,0.00,,---,0.00,VWS V14.01,2013-03-15 11:03:00,
2013-03-15 07:04:00,28.2,15.8,30.18,WSW,248,0.0,0.0,59,0.00,,---,0.00,VWS V14.01,2013-03-15 11:04:00,
2013-03-15 07:05:00,28.2,15.8,30.21,WSW,248,0.0,0.0,59,0.00,,---,0.00,VWS V14.01,2013-03-15 11:05:00,
2013-03-15 07:06:00,29.1,17.0,30.21,WSW,248,0.0,0.0,60,0.00,,---,0.00,VWS V14.01,2013-03-15 11:06:00,
2013-03-15 07:07:00,29.7,17.5,30.21,WSW,248,0.0,0.0,60,0.00,,---,0.00,VWS V14.01,2013-03-15 11:07:00,
2013-03-15 07:08:00,30.0,17.8,30.21,WSW,248,0.0,0.0,60,0.00,,---,0.00,VWS V14.01,2013-03-15 11:08:00,
2013-03-15 07:09:00,30.4,18.2,30.21,WSW,248,0.0,0.0,60,0.00,,---,0.00,VWS V14.01,2013-03-15 11:09:00,
2013-03-15 07:10:00,30.7,18.9,30.21,WSW,248,0.0,0.0,61,0.00,,---,0.00,VWS V14.01,2013-03-15 11:10:00,
2013-03-15 07:11:00,31.1,19.2,30.21,WSW,248,0.0,0.0,61,0.00,,---,0.00,VWS V14.01,2013-03-15 11:11:00,
2013-03-15 07:12:00,31.1,19.2,30.21,WSW,248,0.0,0.0,61,0.00,,---,0.00,VWS V14.01,2013-03-15 11:12:00,
2013-03-15 07:13:00,31.3,19.0,30.21,WSW,248,0.0,0.0,60,0.00,,---,0.00,VWS V14.01,2013-03-15 11:13:00,
2013-03-15 07:14:00,31.5,19.2,30.21,WSW,248,0.0,0.0,60,0.00,,---,0.00,VWS V14.01,2013-03-15 11:14:00,
2013-03-15 07:15:00,31.6,19.4,30.21,WSW,248,0.0,0.0,60,0.00,,---,0.00,VWS V14.01,2013-03-15 11:15:00,
2013-03-15 07:16:00,31.8,19.5,30.21,WSW,248,0.0,0.0,60,0.00,,---,0.00,VWS V14.01,2013-03-15 11:16:00,
2013-03-15 07:17:00,32.0,19.7,30.21,WSW,248,0.0,0.0,60,0.00,,---,0.00,VWS V14.01,2013-03-15 11:17:00,
2013-03-15 07:18:00,32.4,20.0,30.21,WSW,248,0.0,0.0,60,0.00,,---,0.00,VWS V14.01,2013-03-15 11:18:00,
2013-03-15 07:19:00,32.5,20.2,30.21,WSW,248,0.0,0.0,60,0.00,,---,0.00,VWS V14.01,2013-03-15 11:19:00,
2013-03-15 07:20:00,32.5,20.2,30.21,WSW,248,0.0,0.0,60,0.00,,---,0.00,VWS V14.01,2013-03-15 11:20:00,
2013-03-15 07:21:00,32.7,20.0,30.21,WSW,248,0.0,0.0,59,0.00,,---,0.00,VWS V14.01,2013-03-15 11:21:00,
2013-03-15 07:22:00,32.7,20.0,30.21,WSW,248,0.0,0.0,59,0.00,,---,0.00,VWS V14.01,2013-03-15 11:22:00,
2013-03-15 07:23:00,32.9,20.2,30.21,WSW,248,0.0,0.0,59,0.00,,---,0.00,VWS V14.01,2013-03-15 11:23:00,
2013-03-15 07:24:00,32.9,20.2,30.21,WSW,248,0.0,0.0,59,0.00,,---,0.00,VWS V14.01,2013-03-15 11:24:00,
2013-03-15 07:25:00,33.1,19.9,30.21,WSW,248,0.0,0.0,58,0.00,,---,0.00,VWS V14.01,2013-03-15 11:25:00,
2013-03-15 07:26:00,33.3,20.1,30.21,WSW,248,0.0,0.0,58,0.00,,---,0.00,VWS V14.01,2013-03-15 11:26:00,
2013-03-15 07:27:00,33.3,20.1,30.21,WSW,248,0.0,0.0,58,0.00,,---,0.00,VWS V14.01,2013-03-15 11:27:00,
2013-03-15 07:28:00,33.4,20.3,30.21,WSW,248,0.0,0.0,58,0.00,,---,0.00,VWS V14.01,2013-03-15 11:28:00,
2013-03-15 07:29:00,33.6,20.4,30.21,WSW,248,0.0,0.0,58,0.00,,---,0.00,VWS V14.01,2013-03-15 11:29:00,
2013-03-15 07:30:00,33.6,20.4,30.21,WSW,248,0.0,0.0,58,0.00,,---,0.00,VWS V14.01,2013-03-15 11:30:00,
2013-03-15 07:31:00,33.6,20.0,30.21,WSW,248,0.0,0.0,57,0.00,,---,0.00,VWS V14.01,2013-03-15 11:31:00,
2013-03-15 07:32:00,33.8,19.8,30.21,WSW,248,0.0,0.0,56,0.00,,---,0.00,VWS V14.01,2013-03-15 11:32:00,
2013-03-15 07:33:00,33.8,19.8,30.21,WSW,248,0.0,0.0,56,0.00,,---,0.00,VWS V14.01,2013-03-15 11:33:00,
2013-03-15 07:34:00,33.8,19.8,30.21,WSW,248,0.0,0.0,56,0.00,,---,0.00,VWS V14.01,2013-03-15 11:34:00,
2013-03-15 07:35:00,33.6,19.6,30.21,WSW,248,0.0,0.0,56,0.00,,---,0.00,VWS V14.01,2013-03-15 11:35:00,
2013-03-15 07:36:00,33.6,19.6,30.21,WSW,248,0.0,0.0,56,0.00,,---,0.00,VWS V14.01,2013-03-15 11:36:00,
2013-03-15 07:37:00,33.6,19.6,30.21,WSW,248,0.0,0.0,56,0.00,,---,0.00,VWS V14.01,2013-03-15 11:37:00,
2013-03-15 07:38:00,33.6,19.6,30.21,WSW,248,0.0,0.0,56,0.00,,---,0.00,VWS V14.01,2013-03-15 11:38:00,
2013-03-15 07:39:00,33.8,19.8,30.21,WSW,248,0.0,0.0,56,0.00,,---,0.00,VWS V14.01,2013-03-15 11:39:00,
2013-03-15 07:40:00,34.0,20.0,30.21,WSW,248,0.0,0.0,56,0.00,,---,0.00,VWS V14.01,2013-03-15 11:40:00,
2013-03-15 07:41:00,34.2,20.1,30.21,WSW,248,0.0,0.0,56,0.00,,---,0.00,VWS V14.01,2013-03-15 11:41:00,
2013-03-15 07:42:00,34.2,20.1,30.21,WSW,248,0.0,0.0,56,0.00,,---,0.00,VWS V14.01,2013-03-15 11:42:00,
2013-03-15 07:43:00,34.5,20.5,30.21,WSW,248,0.0,0.0,56,0.00,,---,0.00,VWS V14.01,2013-03-15 11:43:00,
2013-03-15 07:44:00,34.5,20.5,30.21,WSW,248,0.0,0.0,56,0.00,,---,0.00,VWS V14.01,2013-03-15 11:44:00,
2013-03-15 07:45:00,34.7,20.6,30.21,WSW,248,0.0,0.0,56,0.00,,---,0.00,VWS V14.01,2013-03-15 11:45:00,
2013-03-15 07:46:00,34.9,20.8,30.21,WSW,248,0.0,0.0,56,0.00,,---,0.00,VWS V14.01,2013-03-15 11:46:00,
2013-03-15 07:47:00,35.1,21.0,30.21,WSW,248,0.0,0.0,56,0.00,,---,0.00,VWS V14.01,2013-03-15 11:47:00,
2013-03-15 07:48:00,35.1,20.5,30.21,WNW,292,0.0,0.0,55,0.00,,---,0.00,VWS V14.01,2013-03-15 11:48:00,
2013-03-15 07:49:00,35.1,20.5,30.18,WNW,292,0.0,0.0,55,0.00,,---,0.00,VWS V14.01,2013-03-15 11:49:00,
2013-03-15 07:50:00,35.1,20.5,30.18,WNW,292,0.0,0.0,55,0.00,,---,0.00,VWS V14.01,2013-03-15 11:50:00,
2013-03-15 07:51:00,34.9,20.4,30.18,WNW,292,0.0,0.0,55,0.00,,---,0.00,VWS V14.01,2013-03-15 11:51:00,
2013-03-15 07:52:00,34.9,20.4,30.18,WNW,292,0.0,0.0,55,0.00,,---,0.00,VWS V14.01,2013-03-15 11:52:00,
2013-03-15 07:53:00,34.9,20.4,30.18,WNW,292,0.0,0.0,55,0.00,,---,0.00,VWS V14.01,2013-03-15 11:53:00,
2013-03-15 07:54:00,34.9,20.4,30.18,WNW,292,0.0,0.0,55,0.00,,---,0.00,VWS V14.01,2013-03-15 11:54:00,
2013-03-15 07:55:00,34.5,20.0,30.18,WNW,292,0.0,0.0,55,0.00,,---,0.00,VWS V14.01,2013-03-15 11:55:00,
2013-03-15 07:56:00,34.5,20.0,30.18,WNW,292,0.0,0.0,55,0.00,,---,0.00,VWS V14.01,2013-03-15 11:56:00,
2013-03-15 07:57:00,34.5,20.0,30.18,WNW,292,0.0,0.0,55,0.00,,---,0.00,VWS V14.01,2013-03-15 11:57:00,
2013-03-15 07:58:00,34.5,20.0,30.18,WNW,292,0.0,0.0,55,0.00,,---,0.00,VWS V14.01,2013-03-15 11:58:00,
2013-03-15 07:59:00,34.5,20.0,30.18,WNW,292,0.0,0.0,55,0.00,,---,0.00,VWS V14.01,2013-03-15 11:59:00,
2013-03-15 08:00:00,34.5,20.0,30.18,WNW,292,0.0,0.0,55,0.00,,---,0.00,VWS V14.01,2013-03-15 12:00:00,
2013-03-15 08:01:00,34.5,20.0,30.18,WNW,292,0.0,0.0,55,0.00,,---,0.00,VWS V14.01,2013-03-15 12:01:00,
2013-03-15 08:02:00,34.5,20.0,30.18,WNW,292,0.0,0.0,55,0.00,,---,0.00,VWS V14.01,2013-03-15 12:02:00,
2013-03-15 08:03:00,34.7,20.2,30.18,WNW,292,0.0,0.0,55,0.00,,---,0.00,VWS V14.01,2013-03-15 12:03:00,
2013-03-15 08:04:00,34.9,20.4,30.21,WNW,292,0.0,0.0,55,0.00,,---,0.00,VWS V14.01,2013-03-15 12:04:00,
2013-03-15 08:05:00,35.2,20.7,30.21,WNW,292,0.0,0.0,55,0.00,,---,0.00,VWS V14.01,2013-03-15 12:05:00,
2013-03-15 08:06:00,35.2,20.7,30.21,WNW,292,0.0,0.0,55,0.00,,---,0.00,VWS V14.01,2013-03-15 12:06:00,
2013-03-15 08:07:00,35.8,21.2,30.21,WNW,292,0.0,0.0,55,0.00,,---,0.00,VWS V14.01,2013-03-15 12:07:00,
2013-03-15 08:08:00,36.0,21.4,30.21,WNW,292,0.0,0.0,55,0.00,,---,0.00,VWS V14.01,2013-03-15 12:08:00,
2013-03-15 08:09:00,36.3,21.7,30.21,WNW,292,0.0,0.0,55,0.00,,---,0.00,VWS V14.01,2013-03-15 12:09:00,
2013-03-15 08:10:00,36.7,22.0,30.21,WNW,292,0.0,0.0,55,0.00,,---,0.00,VWS V14.01,2013-03-15 12:10:00,
2013-03-15 08:11:00,36.9,22.2,30.21,WNW,292,0.0,0.0,55,0.00,,---,0.00,VWS V14.01,2013-03-15 12:11:00,
2013-03-15 08:12:00,37.0,22.4,30.21,WNW,292,0.0,0.0,55,0.00,,---,0.00,VWS V14.01,2013-03-15 12:12:00,
2013-03-15 08:13:00,37.2,22.6,30.21,WNW,292,0.0,0.0,55,0.00,,---,0.00,VWS V14.01,2013-03-15 12:13:00,
2013-03-15 08:14:00,37.4,22.3,30.21,East,90,0.0,0.0,54,0.00,,---,0.00,VWS V14.01,2013-03-15 12:14:00,
2013-03-15 08:15:00,37.2,22.1,30.21,East,90,0.0,0.0,54,0.00,,---,0.00,VWS V14.01,2013-03-15 12:15:00,
2013-03-15 08:16:00,37.0,22.0,30.21,East,90,0.0,0.0,54,0.00,,---,0.00,VWS V14.01,2013-03-15 12:16:00,
2013-03-15 08:17:00,37.0,21.5,30.21,East,90,0.0,0.0,53,0.00,,---,0.00,VWS V14.01,2013-03-15 12:17:00,
2013-03-15 08:18:00,37.2,21.7,30.21,East,90,0.0,0.0,53,0.00,,---,0.00,VWS V14.01,2013-03-15 12:18:00,
2013-03-15 08:19:00,37.4,21.9,30.21,East,90,0.0,0.0,53,0.00,,---,0.00,VWS V14.01,2013-03-15 12:19:00,
2013-03-15 08:20:00,37.4,21.4,30.21,East,90,0.0,0.0,52,0.00,,---,0.00,VWS V14.01,2013-03-15 12:20:00,
2013-03-15 08:21:00,37.6,21.6,30.21,NE,45,0.0,0.0,52,0.00,,---,0.00,VWS V14.01,2013-03-15 12:21:00,
2013-03-15 08:22:00,37.8,21.7,30.21,ENE,68,0.0,0.0,52,0.00,,---,0.00,VWS V14.01,2013-03-15 12:22:00,
2013-03-15 08:23:00,37.9,21.9,30.21,ENE,68,0.0,0.0,52,0.00,,---,0.00,VWS V14.01,2013-03-15 12:23:00,
2013-03-15 08:24:00,38.1,21.6,30.21,ENE,68,0.0,0.0,51,0.00,,---,0.00,VWS V14.01,2013-03-15 12:24:00,
2013-03-15 08:25:00,38.1,21.6,30.21,SSE,158,0.0,0.0,51,0.00,,---,0.00,VWS V14.01,2013-03-15 12:25:00,
2013-03-15 08:26:00,38.3,21.8,30.21,ENE,68,0.0,0.0,51,0.00,,---,0.00,VWS V14.01,2013-03-15 12:26:00,
2013-03-15 08:27:00,38.5,21.5,30.21,ENE,68,0.0,0.0,50,0.00,,---,0.00,VWS V14.01,2013-03-15 12:27:00,
2013-03-15 08:28:00,38.7,21.6,30.21,ENE,68,0.0,0.0,50,0.00,,---,0.00,VWS V14.01,2013-03-15 12:28:00,
2013-03-15 08:29:00,38.7,21.6,30.21,NNW,338,0.0,0.0,50,0.00,,---,0.00,VWS V14.01,2013-03-15 12:29:00,
2013-03-15 08:30:00,38.8,21.8,30.21,WNW,292,0.0,0.0,50,0.00,,---,0.00,VWS V14.01,2013-03-15 12:30:00,
2013-03-15 08:31:00,39.2,21.7,30.21,WNW,292,0.0,0.0,49,0.00,,---,0.00,VWS V14.01,2013-03-15 12:31:00,
2013-03-15 08:32:00,39.4,21.8,30.21,ESE,112,0.0,0.0,49,0.00,,---,0.00,VWS V14.01,2013-03-15 12:32:00,
2013-03-15 08:33:00,39.4,21.8,30.21,SSE,158,0.0,0.0,49,0.00,,---,0.00,VWS V14.01,2013-03-15 12:33:00,
2013-03-15 08:34:00,39.4,21.8,30.21,East,90,0.0,0.0,49,0.00,,---,0.00,VWS V14.01,2013-03-15 12:34:00,
2013-03-15 08:35:00,39.4,21.3,30.21,ESE,112,0.0,0.0,48,0.00,,---,0.00,VWS V14.01,2013-03-15 12:35:00,
2013-03-15 08:36:00,39.4,21.3,30.21,ESE,112,0.0,0.0,48,0.00,,---,0.00,VWS V14.01,2013-03-15 12:36:00,
2013-03-15 08:37:00,39.4,21.3,30.21,ESE,112,0.0,0.0,48,0.00,,---,0.00,VWS V14.01,2013-03-15 12:37:00,
2013-03-15 08:38:00,39.4,21.3,30.21,South,180,0.0,0.0,48,0.00,,---,0.00,VWS V14.01,2013-03-15 12:38:00,
2013-03-15 08:39:00,39.6,21.0,30.21,SSW,202,0.0,0.0,47,0.00,,---,0.00,VWS V14.01,2013-03-15 12:39:00,
2013-03-15 08:40:00,39.9,21.3,30.21,SSW,202,0.0,0.0,47,0.00,,---,0.00,VWS V14.01,2013-03-15 12:40:00,
2013-03-15 08:41:00,39.9,20.8,30.21,SSE,158,0.0,0.0,46,0.00,,---,0.00,VWS V14.01,2013-03-15 12:41:00,
2013-03-15 08:42:00,40.1,21.0,30.21,NE,45,0.0,0.0,46,0.00,,---,0.00,VWS V14.01,2013-03-15 12:42:00,
2013-03-15 08:43:00,40.3,21.2,30.21,NE,45,0.0,0.0,46,0.00,,---,0.00,VWS V14.01,2013-03-15 12:43:00,
2013-03-15 08:44:00,40.3,21.2,30.21,ESE,112,0.0,0.0,46,0.00,,---,0.00,VWS V14.01,2013-03-15 12:44:00,
2013-03-15 08:45:00,40.3,21.2,30.21,SSE,158,0.0,0.0,46,0.00,,---,0.00,VWS V14.01,2013-03-15 12:45:00,
2013-03-15 08:46:00,40.1,20.5,30.21,ENE,68,0.0,0.0,45,0.00,,---,0.00,VWS V14.01,2013-03-15 12:46:00,
2013-03-15 08:47:00,40.1,20.0,30.21,ENE,68,0.0,0.0,44,0.00,,---,0.00,VWS V14.01,2013-03-15 12:47:00,
2013-03-15 08:48:00,40.3,20.1,30.21,ENE,68,0.0,0.0,44,0.00,,---,0.00,VWS V14.01,2013-03-15 12:48:00,
2013-03-15 08:49:00,40.5,20.3,30.21,ENE,68,0.0,0.0,44,0.00,,---,0.00,VWS V14.01,2013-03-15 12:49:00,
2013-03-15 08:50:00,40.5,20.3,30.21,ENE,68,0.0,0.0,44,0.00,,---,0.00,VWS V14.01,2013-03-15 12:50:00,
2013-03-15 08:51:00,40.8,20.6,30.21,East,90,0.0,0.0,44,0.00,,---,0.00,VWS V14.01,2013-03-15 12:51:00,
2013-03-15 08:52:00,41.0,20.8,30.21,ENE,68,0.0,0.0,44,0.00,,---,0.00,VWS V14.01,2013-03-15 12:52:00,
2013-03-15 08:53:00,41.2,20.9,30.21,ENE,68,0.0,0.0,44,0.00,,---,0.00,VWS V14.01,2013-03-15 12:53:00,
2013-03-15 08:54:00,41.5,21.3,30.21,NE,45,0.0,0.0,44,0.00,,---,0.00,VWS V14.01,2013-03-15 12:54:00,
2013-03-15 08:55:00,42.1,21.2,30.21,NNW,338,0.0,0.0,43,0.00,,---,0.00,VWS V14.01,2013-03-15 12:55:00,
2013-03-15 08:56:00,42.1,21.2,30.21,ENE,68,0.0,0.0,43,0.00,,---,0.00,VWS V14.01,2013-03-15 12:56:00,
2013-03-15 08:57:00,42.3,21.4,30.21,ENE,68,0.0,0.0,43,0.00,,---,0.00,VWS V14.01,2013-03-15 12:57:00,
2013-03-15 08:58:00,42.1,21.2,30.21,WSW,248,0.0,0.0,43,0.00,,---,0.00,VWS V14.01,2013-03-15 12:58:00,
2013-03-15 08:59:00,42.1,21.2,30.21,WSW,248,0.0,0.0,43,0.00,,---,0.00,VWS V14.01,2013-03-15 12:59:00,
2013-03-15 09:00:00,42.3,21.4,30.21,WNW,292,0.0,0.0,43,0.00,,---,0.00,VWS V14.01,2013-03-15 13:00:00,
2013-03-15 09:01:00,42.4,21.5,30.21,NW,315,0.0,0.0,43,0.00,,---,0.00,VWS V14.01,2013-03-15 13:01:00,
2013-03-15 09:02:00,42.4,21.0,30.21,NNE,22,0.0,0.0,42,0.00,,---,0.00,VWS V14.01,2013-03-15 13:02:00,
2013-03-15 09:03:00,42.4,21.0,30.21,ENE,68,0.0,0.0,42,0.00,,---,0.00,VWS V14.01,2013-03-15 13:03:00,
2013-03-15 09:04:00,42.4,21.0,30.18,ENE,68,0.0,0.0,42,0.00,,---,0.00,VWS V14.01,2013-03-15 13:04:00,
2013-03-15 09:05:00,42.6,21.1,30.18,ENE,68,0.0,0.0,42,0.00,,---,0.00,VWS V14.01,2013-03-15 13:05:00,
2013-03-15 09:06:00,42.8,20.8,30.18,NNW,338,0.0,0.0,41,0.00,,---,0.00,VWS V14.01,2013-03-15 13:06:00,
2013-03-15 09:07:00,43.0,20.9,30.18,NNW,338,0.0,0.0,41,0.00,,---,0.00,VWS V14.01,2013-03-15 13:07:00,
2013-03-15 09:08:00,43.2,21.1,30.18,NW,315,0.0,0.0,41,0.00,,---,0.00,VWS V14.01,2013-03-15 13:08:00,
2013-03-15 09:09:00,43.2,21.1,30.18,West,270,0.0,0.0,41,0.00,,---,0.00,VWS V14.01,2013-03-15 13:09:00,
2013-03-15 09:10:00,43.2,20.5,30.18,NW,315,0.0,0.0,40,0.00,,---,0.00,VWS V14.01,2013-03-15 13:10:00,
2013-03-15 09:11:00,43.2,20.5,30.18,West,270,0.0,0.0,40,0.00,,---,0.00,VWS V14.01,2013-03-15 13:11:00,
2013-03-15 09:12:00,43.3,20.6,30.18,WNW,292,0.0,0.0,40,0.00,,---,0.00,VWS V14.01,2013-03-15 13:12:00,
2013-03-15 09:13:00,43.2,20.5,30.18,WNW,292,0.0,0.0,40,0.00,,---,0.00,VWS V14.01,2013-03-15 13:13:00,
2013-03-15 09:14:00,43.3,20.6,30.18,WNW,292,0.0,0.0,40,0.00,,---,0.00,VWS V14.01,2013-03-15 13:14:00,
2013-03-15 09:15:00,43.3,20.6,30.18,ENE,68,0.0,0.0,40,0.00,,---,0.00,VWS V14.01,2013-03-15 13:15:00,
2013-03-15 09:16:00,43.3,20.6,30.18,ENE,68,0.0,0.0,40,0.00,,---,0.00,VWS V14.01,2013-03-15 13:16:00,
2013-03-15 09:17:00,43.7,21.0,30.18,East,90,0.0,0.0,40,0.00,,---,0.00,VWS V14.01,2013-03-15 13:17:00,
2013-03-15 09:18:00,43.9,21.1,30.18,ENE,68,0.0,0.0,40,0.00,,---,0.00,VWS V14.01,2013-03-15 13:18:00,
2013-03-15 09:19:00,43.9,21.1,30.21,ESE,112,0.0,0.0,40,0.00,,---,0.00,VWS V14.01,2013-03-15 13:19:00,
2013-03-15 09:20:00,43.9,21.1,30.21,SSE,158,0.0,0.0,40,0.00,,---,0.00,VWS V14.01,2013-03-15 13:20:00,
2013-03-15 09:21:00,43.9,21.1,30.21,SSE,158,0.0,0.0,40,0.00,,---,0.00,VWS V14.01,2013-03-15 13:21:00,
2013-03-15 09:22:00,44.1,21.3,30.21,NE,45,0.0,0.0,40,0.00,,---,0.00,VWS V14.01,2013-03-15 13:22:00,
2013-03-15 09:23:00,44.2,21.5,30.21,NE,45,0.0,0.0,40,0.00,,---,0.00,VWS V14.01,2013-03-15 13:23:00,
2013-03-15 09:24:00,44.4,21.6,30.21,NNE,22,0.0,0.0,40,0.00,,---,0.00,VWS V14.01,2013-03-15 13:24:00,
2013-03-15 09:25:00,44.6,21.2,30.21,SE,135,0.0,0.0,39,0.00,,---,0.00,VWS V14.01,2013-03-15 13:25:00,
2013-03-15 09:26:00,44.6,21.2,30.21,ESE,112,0.0,0.0,39,0.00,,---,0.00,VWS V14.01,2013-03-15 13:26:00,
2013-03-15 09:27:00,44.2,20.9,30.21,ESE,112,0.0,2.5,39,0.00,,---,0.00,VWS V14.01,2013-03-15 13:27:00,
2013-03-15 09:28:00,44.2,20.9,30.21,WSW,248,0.0,0.0,39,0.00,,---,0.00,VWS V14.01,2013-03-15 13:28:00,
2013-03-15 09:29:00,44.2,20.9,30.21,WSW,248,0.0,0.0,39,0.00,,---,0.00,VWS V14.01,2013-03-15 13:29:00,
2013-03-15 09:30:00,44.8,21.4,30.21,West,270,0.0,1.3,39,0.00,,---,0.00,VWS V14.01,2013-03-15 13:30:00,
2013-03-15 09:31:00,45.0,21.5,30.21,WNW,292,2.5,2.5,39,0.00,,---,0.00,VWS V14.01,2013-03-15 13:31:00,
2013-03-15 09:32:00,45.1,21.1,30.21,NNE,22,2.5,2.5,38,0.00,,---,0.00,VWS V14.01,2013-03-15 13:32:00,
2013-03-15 09:33:00,45.1,21.1,30.21,WSW,248,0.0,2.5,38,0.00,,---,0.00,VWS V14.01,2013-03-15 13:33:00,
2013-03-15 09:34:00,45.5,21.4,30.18,ESE,112,0.0,0.0,38,0.00,,---,0.00,VWS V14.01,2013-03-15 13:34:00,
2013-03-15 09:35:00,45.7,21.5,30.18,WSW,248,0.0,0.0,38,0.00,,---,0.00,VWS V14.01,2013-03-15 13:35:00,
2013-03-15 09:36:00,45.9,21.7,30.18,ESE,112,0.0,0.0,38,0.00,,---,0.00,VWS V14.01,2013-03-15 13:36:00,
2013-03-15 09:37:00,45.9,21.7,30.18,SSE,158,0.0,0.0,38,0.00,,---,0.00,VWS V14.01,2013-03-15 13:37:00,
2013-03-15 09:38:00,46.0,21.9,30.18,WNW,292,0.0,0.0,38,0.00,,---,0.00,VWS V14.01,2013-03-15 13:38:00,
2013-03-15 09:39:00,46.2,22.0,30.18,NNW,338,2.9,2.9,38,0.00,,---,0.00,VWS V14.01,2013-03-15 13:39:00,
2013-03-15 09:40:00,46.4,21.6,30.18,WSW,248,0.0,2.9,37,0.00,,---,0.00,VWS V14.01,2013-03-15 13:40:00,
2013-03-15 09:41:00,46.4,21.6,30.18,NW,315,0.9,0.9,37,0.00,,---,0.00,VWS V14.01,2013-03-15 13:41:00,
2013-03-15 09:42:00,46.8,21.9,30.18,NNE,22,0.0,1.6,37,0.00,,---,0.00,VWS V14.01,2013-03-15 13:42:00,
2013-03-15 09:43:00,46.9,22.0,30.18,East,90,2.5,2.5,37,0.00,,---,0.00,VWS V14.01,2013-03-15 13:43:00,
2013-03-15 09:44:00,46.8,21.9,30.18,SSE,158,0.9,2.5,37,0.00,,---,0.00,VWS V14.01,2013-03-15 13:44:00,
2013-03-15 09:45:00,46.8,21.9,30.18,SE,135,0.0,0.9,37,0.00,,---,0.00,VWS V14.01,2013-03-15 13:45:00,
2013-03-15 09:46:00,46.8,21.9,30.18,NE,45,1.1,1.1,37,0.00,,---,0.00,VWS V14.01,2013-03-15 13:46:00,
2013-03-15 09:47:00,47.1,22.2,30.18,ENE,68,2.5,2.5,37,0.00,,---,0.00,VWS V14.01,2013-03-15 13:47:00,
2013-03-15 09:48:00,46.8,21.9,30.18,ENE,68,3.1,3.1,37,0.00,,---,0.00,VWS V14.01,2013-03-15 13:48:00,
2013-03-15 09:49:00,46.8,21.2,30.15,North,0,1.6,3.8,36,0.00,,---,0.00,VWS V14.01,2013-03-15 13:49:00,
2013-03-15 09:50:00,46.8,21.9,30.15,ENE,68,0.0,1.6,37,0.00,,---,0.00,VWS V14.01,2013-03-15 13:50:00,
2013-03-15 09:51:00,46.8,21.9,30.15,NE,45,1.3,2.2,37,0.00,,---,0.00,VWS V14.01,2013-03-15 13:51:00,
2013-03-15 09:52:00,46.8,21.9,30.15,WSW,248,0.0,2.2,37,0.00,,---,0.00,VWS V14.01,2013-03-15 13:52:00,
2013-03-15 09:53:00,46.8,21.9,30.15,SW,225,0.0,0.9,37,0.00,,---,0.00,VWS V14.01,2013-03-15 13:53:00,
2013-03-15 09:54:00,46.9,22.0,30.15,South,180,0.0,0.0,37,0.00,,---,0.00,VWS V14.01,2013-03-15 13:54:00,
2013-03-15 09:55:00,47.1,22.2,30.15,South,180,0.0,0.0,37,0.00,,---,0.00,VWS V14.01,2013-03-15 13:55:00,
2013-03-15 09:56:00,47.1,21.6,30.15,SE,135,0.0,0.0,36,0.00,,---,0.00,VWS V14.01,2013-03-15 13:56:00,
2013-03-15 09:57:00,47.1,21.6,30.15,ENE,68,0.0,0.0,36,0.00,,---,0.00,VWS V14.01,2013-03-15 13:57:00,
2013-03-15 09:58:00,47.1,21.6,30.15,ENE,68,0.9,0.9,36,0.00,,---,0.00,VWS V14.01,2013-03-15 13:58:00,
2013-03-15 09:59:00,46.9,20.0,30.15,ESE,112,3.4,3.4,34,0.00,,---,0.00,VWS V14.01,2013-03-15 13:59:00,
2013-03-15 10:00:00,46.8,19.9,30.15,SSE,158,1.3,3.4,34,0.00,,---,0.00,VWS V14.01,2013-03-15 14:00:00,
2013-03-15 10:01:00,46.8,19.9,30.15,ENE,68,2.0,2.2,34,0.00,,---,0.00,VWS V14.01,2013-03-15 14:01:00,
2013-03-15 10:02:00,46.9,20.7,30.15,NNE,22,1.1,2.7,35,0.00,,---,0.00,VWS V14.01,2013-03-15 14:02:00,
2013-03-15 10:03:00,47.1,20.2,30.15,NNW,338,0.0,2.0,34,0.00,,---,0.00,VWS V14.01,2013-03-15 14:03:00,
2013-03-15 10:04:00,47.1,20.2,30.15,WSW,248,1.1,3.4,34,0.00,,---,0.00,VWS V14.01,2013-03-15 14:04:00,
2013-03-15 10:05:00,47.1,20.2,30.15,WNW,292,1.1,1.1,34,0.00,,---,0.00,VWS V14.01,2013-03-15 14:05:00,
2013-03-15 10:06:00,47.3,20.4,30.15,WNW,292,0.0,2.5,34,0.00,,---,0.00,VWS V14.01,2013-03-15 14:06:00,
2013-03-15 10:07:00,47.3,19.7,30.15,WNW,292,1.1,2.7,33,0.00,,---,0.00,VWS V14.01,2013-03-15 14:07:00,
2013-03-15 10:08:00,47.5,20.5,30.15,SSE,158,0.9,2.5,34,0.00,,---,0.00,VWS V14.01,2013-03-15 14:08:00,
2013-03-15 10:09:00,47.7,20.7,30.15,SSE,158,1.1,2.9,34,0.00,,---,0.00,VWS V14.01,2013-03-15 14:09:00,
2013-03-15 10:10:00,47.8,20.9,30.15,WNW,292,2.2,2.2,34,0.00,,---,0.00,VWS V14.01,2013-03-15 14:10:00,
2013-03-15 10:11:00,47.8,20.9,30.15,ESE,112,0.0,2.2,34,0.00,,---,0.00,VWS V14.01,2013-03-15 14:11:00,
2013-03-15 10:12:00,47.8,20.9,30.15,NNE,22,1.3,1.3,34,0.00,,---,0.00,VWS V14.01,2013-03-15 14:12:00,
2013-03-15 10:13:00,47.8,20.9,30.15,East,90,2.9,2.9,34,0.00,,---,0.00,VWS V14.01,2013-03-15 14:13:00,
2013-03-15 10:14:00,47.8,20.9,30.15,ENE,68,0.0,2.9,34,0.00,,---,0.00,VWS V14.01,2013-03-15 14:14:00,
2013-03-15 10:15:00,47.8,20.9,30.15,ENE,68,1.6,2.0,34,0.00,,---,0.00,VWS V14.01,2013-03-15 14:15:00,
2013-03-15 10:16:00,47.8,20.9,30.15,West,270,3.8,3.8,34,0.00,,---,0.00,VWS V14.01,2013-03-15 14:16:00,
2013-03-15 10:17:00,47.8,20.1,30.15,ENE,68,3.1,3.8,33,0.00,,---,0.00,VWS V14.01,2013-03-15 14:17:00,
2013-03-15 10:18:00,47.8,19.4,30.15,SE,135,2.5,2.5,32,0.00,,---,0.00,VWS V14.01,2013-03-15 14:18:00,
2013-03-15 10:19:00,48.0,20.3,30.15,ENE,68,2.5,2.7,33,0.00,,---,0.00,VWS V14.01,2013-03-15 14:19:00,
2013-03-15 10:20:00,48.0,20.3,30.15,NW,315,2.7,3.6,33,0.00,,---,0.00,VWS V14.01,2013-03-15 14:20:00,
2013-03-15 10:21:00,48.4,19.9,30.15,NNW,338,0.0,2.7,32,0.00,,---,0.00,VWS V14.01,2013-03-15 14:21:00,
2013-03-15 10:22:00,48.2,19.7,30.15,South,180,0.0,0.0,32,0.00,,---,0.00,VWS V14.01,2013-03-15 14:22:00,
2013-03-15 10:23:00,48.2,19.7,30.15,NW,315,0.0,0.0,32,0.00,,---,0.00,VWS V14.01,2013-03-15 14:23:00,
2013-03-15 10:24:00,48.4,19.9,30.15,NW,315,0.0,0.0,32,0.00,,---,0.00,VWS V14.01,2013-03-15 14:24:00,
2013-03-15 10:25:00,48.6,20.1,30.15,WSW,248,0.0,0.0,32,0.00,,---,0.00,VWS V14.01,2013-03-15 14:25:00,
2013-03-15 10:26:00,48.4,19.9,30.15,North,0,0.0,0.0,32,0.00,,---,0.00,VWS V14.01,2013-03-15 14:26:00,
2013-03-15 10:27:00,48.4,19.9,30.15,NNW,338,0.0,0.0,32,0.00,,---,0.00,VWS V14.01,2013-03-15 14:27:00,
2013-03-15 10:28:00,48.4,19.9,30.15,ESE,112,0.0,0.0,32,0.00,,---,0.00,VWS V14.01,2013-03-15 14:28:00,
2013-03-15 10:29:00,48.2,19.7,30.15,ESE,112,0.0,0.0,32,0.00,,---,0.00,VWS V14.01,2013-03-15 14:29:00,
2013-03-15 10:30:00,48.4,19.9,30.15,ESE,112,0.0,0.0,32,0.00,,---,0.00,VWS V14.01,2013-03-15 14:30:00,
2013-03-15 10:31:00,48.6,20.1,30.15,ESE,112,0.0,0.0,32,0.00,,---,0.00,VWS V14.01,2013-03-15 14:31:00,
2013-03-15 10:32:00,48.6,20.1,30.15,ESE,112,0.0,0.0,32,0.00,,---,0.00,VWS V14.01,2013-03-15 14:32:00,
2013-03-15 10:33:00,48.9,20.4,30.15,WNW,292,0.0,0.0,32,0.00,,---,0.00,VWS V14.01,2013-03-15 14:33:00,
2013-03-15 10:34:00,48.9,19.6,30.15,WNW,292,2.5,2.5,31,0.00,,---,0.00,VWS V14.01,2013-03-15 14:34:00,
2013-03-15 10:35:00,48.9,19.6,30.15,ENE,68,2.5,2.5,31,0.00,,---,0.00,VWS V14.01,2013-03-15 14:35:00,
2013-03-15 10:36:00,49.3,19.9,30.15,North,0,0.0,2.5,31,0.00,,---,0.00,VWS V14.01,2013-03-15 14:36:00,
2013-03-15 10:37:00,49.5,20.1,30.15,ENE,68,0.0,0.0,31,0.00,,---,0.00,VWS V14.01,2013-03-15 14:37:00,
2013-03-15 10:38:00,49.6,20.3,30.15,NNW,338,0.0,0.0,31,0.00,,---,0.00,VWS V14.01,2013-03-15 14:38:00,
2013-03-15 10:39:00,49.6,20.3,30.15,West,270,0.0,0.0,31,0.00,,---,0.00,VWS V14.01,2013-03-15 14:39:00,
2013-03-15 10:40:00,49.6,20.3,30.15,West,270,1.6,1.6,31,0.00,,---,0.00,VWS V14.01,2013-03-15 14:40:00,
2013-03-15 10:41:00,49.8,20.4,30.15,West,270,0.0,2.7,31,0.00,,---,0.00,VWS V14.01,2013-03-15 14:41:00,
2013-03-15 10:42:00,50.0,20.6,30.15,SSE,158,0.9,0.9,31,0.00,,---,0.00,VWS V14.01,2013-03-15 14:42:00,
2013-03-15 10:43:00,50.0,20.6,30.15,ESE,112,1.1,2.2,31,0.00,,---,0.00,VWS V14.01,2013-03-15 14:43:00,
2013-03-15 10:44:00,50.2,20.7,30.15,WSW,248,0.0,1.1,31,0.00,,---,0.00,VWS V14.01,2013-03-15 14:44:00,
2013-03-15 10:45:00,50.0,20.6,30.15,NNE,22,0.0,1.6,31,0.00,,---,0.00,VWS V14.01,2013-03-15 14:45:00,
2013-03-15 10:46:00,50.0,20.6,30.15,West,270,0.0,1.3,31,0.00,,---,0.00,VWS V14.01,2013-03-15 14:46:00,
2013-03-15 10:47:00,50.2,20.7,30.15,SW,225,0.0,0.0,31,0.00,,---,0.00,VWS V14.01,2013-03-15 14:47:00,
2013-03-15 10:48:00,50.0,19.8,30.15,East,90,3.6,3.6,30,0.00,,---,0.00,VWS V14.01,2013-03-15 14:48:00,
2013-03-15 10:49:00,49.8,19.6,30.15,East,90,1.6,4.9,30,0.00,,---,0.00,VWS V14.01,2013-03-15 14:49:00,
2013-03-15 10:50:00,50.0,19.8,30.15,SSE,158,0.0,2.2,30,0.00,,---,0.00,VWS V14.01,2013-03-15 14:50:00,
2013-03-15 10:51:00,49.8,19.6,30.15,SSE,158,2.0,2.9,30,0.00,,---,0.00,VWS V14.01,2013-03-15 14:51:00,
2013-03-15 10:52:00,49.8,19.6,30.15,West,270,1.3,2.0,30,0.00,,---,0.00,VWS V14.01,2013-03-15 14:52:00,
2013-03-15 10:53:00,49.8,19.6,30.15,West,270,0.9,1.3,30,0.00,,---,0.00,VWS V14.01,2013-03-15 14:53:00,
2013-03-15 10:54:00,50.2,20.0,30.15,East,90,1.1,2.9,30,0.00,,---,0.00,VWS V14.01,2013-03-15 14:54:00,
2013-03-15 10:55:00,50.2,20.0,30.15,NNE,22,0.0,0.0,30,0.00,,---,0.00,VWS V14.01,2013-03-15 14:55:00,
2013-03-15 10:56:00,50.0,19.8,30.15,NW,315,2.9,3.6,30,0.00,,---,0.00,VWS V14.01,2013-03-15 14:56:00,
2013-03-15 10:57:00,50.0,19.8,30.15,NNE,22,0.9,2.9,30,0.00,,---,0.00,VWS V14.01,2013-03-15 14:57:00,
2013-03-15 10:58:00,50.2,20.0,30.15,ESE,112,0.0,1.3,30,0.00,,---,0.00,VWS V14.01,2013-03-15 14:58:00,
2013-03-15 10:59:00,50.2,20.0,30.15,ENE,68,1.6,1.6,30,0.00,,---,0.00,VWS V14.01,2013-03-15 14:59:00,
2013-03-15 11:00:00,50.2,20.0,30.15,NE,45,1.1,2.0,30,0.00,,---,0.00,VWS V14.01,2013-03-15 15:00:00,
2013-03-15 11:01:00,50.2,19.2,30.15,ESE,112,2.7,3.8,29,0.00,,---,0.00,VWS V14.01,2013-03-15 15:01:00,
2013-03-15 11:02:00,49.8,19.6,30.15,East,90,0.0,2.7,30,0.00,,---,0.00,VWS V14.01,2013-03-15 15:02:00,
2013-03-15 11:03:00,50.0,19.8,30.15,ENE,68,1.6,1.6,30,0.00,,---,0.00,VWS V14.01,2013-03-15 15:03:00,
2013-03-15 11:04:00,50.2,20.0,30.15,West,270,0.0,2.2,30,0.00,,---,0.00,VWS V14.01,2013-03-15 15:04:00,
2013-03-15 11:05:00,50.0,19.8,30.15,West,270,2.2,3.4,30,0.00,,---,0.00,VWS V14.01,2013-03-15 15:05:00,
2013-03-15 11:06:00,50.2,20.0,30.15,WNW,292,0.0,2.2,30,0.00,,---,0.00,VWS V14.01,2013-03-15 15:06:00,
2013-03-15 11:07:00,50.4,20.1,30.15,WSW,248,0.0,3.8,30,0.00,,---,0.00,VWS V14.01,2013-03-15 15:07:00,
2013-03-15 11:08:00,50.4,20.1,30.15,SSE,158,1.3,1.3,30,0.00,,---,0.00,VWS V14.01,2013-03-15 15:08:00,
2013-03-15 11:09:00,50.5,20.3,30.15,SE,135,2.0,2.0,30,0.00,,---,0.00,VWS V14.01,2013-03-15 15:09:00,
2013-03-15 11:10:00,50.7,20.4,30.15,ESE,112,2.7,2.7,30,0.00,,---,0.00,VWS V14.01,2013-03-15 15:10:00,
2013-03-15 11:11:00,50.9,20.6,30.15,ENE,68,1.1,2.7,30,0.00,,---,0.00,VWS V14.01,2013-03-15 15:11:00,
2013-03-15 11:12:00,51.1,20.8,30.15,NE,45,1.3,1.3,30,0.00,,---,0.00,VWS V14.01,2013-03-15 15:12:00,
2013-03-15 11:13:00,51.4,21.1,30.15,ESE,112,2.5,2.9,30,0.00,,---,0.00,VWS V14.01,2013-03-15 15:13:00,
2013-03-15 11:14:00,51.3,20.9,30.15,NNW,338,1.3,2.5,30,0.00,,---,0.00,VWS V14.01,2013-03-15 15:14:00,
2013-03-15 11:15:00,51.1,20.8,30.15,NNE,22,2.0,2.5,30,0.00,,---,0.00,VWS V14.01,2013-03-15 15:15:00,
2013-03-15 11:16:00,51.1,20.8,30.15,NNW,338,2.0,2.9,30,0.00,,---,0.00,VWS V14.01,2013-03-15 15:16:00,
2013-03-15 11:17:00,51.1,20.8,30.15,West,270,1.1,2.7,30,0.00,,---,0.00,VWS V14.01,2013-03-15 15:17:00,
2013-03-15 11:18:00,51.1,20.8,30.15,ESE,112,0.0,1.1,30,0.00,,---,0.00,VWS V14.01,2013-03-15 15:18:00,
2013-03-15 11:19:00,50.9,20.6,30.15,ENE,68,2.5,2.5,30,0.00,,---,0.00,VWS V14.01,2013-03-15 15:19:00,
2013-03-15 11:20:00,50.7,19.6,30.15,SSE,158,0.9,3.4,29,0.00,,---,0.00,VWS V14.01,2013-03-15 15:20:00,
2013-03-15 11:21:00,50.7,19.6,30.15,SE,135,2.7,2.7,29,0.00,,---,0.00,VWS V14.01,2013-03-15 15:21:00,
2013-03-15 11:22:00,50.5,19.5,30.15,SSE,158,2.0,3.6,29,0.00,,---,0.00,VWS V14.01,2013-03-15 15:22:00,
2013-03-15 11:23:00,50.5,19.5,30.15,NE,45,0.0,2.0,29,0.00,,---,0.00,VWS V14.01,2013-03-15 15:23:00,
2013-03-15 11:24:00,50.7,19.6,30.15,ENE,68,2.9,2.9,29,0.00,,---,0.00,VWS V14.01,2013-03-15 15:24:00,
2013-03-15 11:25:00,50.7,19.6,30.15,NNE,22,0.0,2.9,29,0.00,,---,0.00,VWS V14.01,2013-03-15 15:25:00,
2013-03-15 11:26:00,50.7,19.6,30.15,ESE,112,2.9,3.6,29,0.00,,---,0.00,VWS V14.01,2013-03-15 15:26:00,
2013-03-15 11:27:00,50.7,19.6,30.15,ENE,68,0.0,2.9,29,0.00,,---,0.00,VWS V14.01,2013-03-15 15:27:00,
2013-03-15 11:28:00,50.9,19.8,30.15,SE,135,0.0,0.0,29,0.00,,---,0.00,VWS V14.01,2013-03-15 15:28:00,
2013-03-15 11:29:00,50.7,19.6,30.15,NE,45,2.5,2.7,29,0.00,,---,0.00,VWS V14.01,2013-03-15 15:29:00,
2013-03-15 11:30:00,50.9,19.8,30.15,WNW,292,0.0,2.5,29,0.00,,---,0.00,VWS V14.01,2013-03-15 15:30:00,
2013-03-15 11:31:00,50.9,19.8,30.15,NNE,22,2.5,3.1,29,0.00,,---,0.00,VWS V14.01,2013-03-15 15:31:00,
2013-03-15 11:32:00,50.9,19.8,30.15,SSE,158,0.0,2.5,29,0.00,,---,0.00,VWS V14.01,2013-03-15 15:32:00,
2013-03-15 11:33:00,50.9,19.8,30.15,NE,45,0.9,2.9,29,0.00,,---,0.00,VWS V14.01,2013-03-15 15:33:00,
2013-03-15 11:34:00,51.3,20.1,30.09,North,0,1.3,2.5,29,0.00,,---,0.00,VWS V14.01,2013-03-15 15:34:00,
2013-03-15 11:35:00,51.4,21.1,30.09,NNW,338,0.0,1.3,30,0.00,,---,0.00,VWS V14.01,2013-03-15 15:35:00,
2013-03-15 11:36:00,51.8,20.6,30.09,ENE,68,0.0,1.1,29,0.00,,---,0.00,VWS V14.01,2013-03-15 15:36:00,
2013-03-15 11:37:00,51.8,20.6,30.09,SW,225,0.0,0.0,29,0.00,,---,0.00,VWS V14.01,2013-03-15 15:37:00,
2013-03-15 11:38:00,51.8,20.6,30.09,WNW,292,0.0,0.0,29,0.00,,---,0.00,VWS V14.01,2013-03-15 15:38:00,
2013-03-15 11:39:00,52.9,21.5,30.09,NNW,338,0.0,1.6,29,0.00,,---,0.00,VWS V14.01,2013-03-15 15:39:00,
2013-03-15 11:40:00,53.1,21.7,30.09,East,90,0.0,0.0,29,0.00,,---,0.00,VWS V14.01,2013-03-15 15:40:00,
2013-03-15 11:41:00,53.2,21.8,30.09,SE,135,0.0,0.0,29,0.00,,---,0.00,VWS V14.01,2013-03-15 15:41:00,
2013-03-15 11:42:00,53.4,22.0,30.09,SE,135,2.7,2.7,29,0.00,,---,0.00,VWS V14.01,2013-03-15 15:42:00,
2013-03-15 11:43:00,53.2,21.0,30.09,WNW,292,0.0,4.3,28,0.00,,---,0.00,VWS V14.01,2013-03-15 15:43:00,
2013-03-15 11:44:00,53.4,22.0,30.09,WNW,292,2.5,2.5,29,0.00,,---,0.00,VWS V14.01,2013-03-15 15:44:00,
2013-03-15 11:45:00,53.4,22.0,30.09,ESE,112,0.0,2.7,29,0.00,,---,0.00,VWS V14.01,2013-03-15 15:45:00,
2013-03-15 11:46:00,53.4,22.0,30.09,North,0,0.0,0.0,29,0.00,,---,0.00,VWS V14.01,2013-03-15 15:46:00,
2013-03-15 11:47:00,53.6,21.3,30.09,NNE,22,3.6,3.6,28,0.00,,---,0.00,VWS V14.01,2013-03-15 15:47:00,
2013-03-15 11:48:00,53.6,21.3,30.09,North,0,0.0,3.6,28,0.00,,---,0.00,VWS V14.01,2013-03-15 15:48:00,
2013-03-15 11:49:00,53.4,21.1,30.09,NNW,338,3.4,3.4,28,0.00,,---,0.00,VWS V14.01,2013-03-15 15:49:00,
2013-03-15 11:50:00,53.1,20.8,30.09,East,90,0.9,3.4,28,0.00,,---,0.00,VWS V14.01,2013-03-15 15:50:00,
2013-03-15 11:51:00,52.7,20.5,30.09,ENE,68,5.4,5.4,28,0.00,,---,0.00,VWS V14.01,2013-03-15 15:51:00,
2013-03-15 11:52:00,52.2,20.1,30.09,SE,135,3.1,5.4,28,0.00,,---,0.00,VWS V14.01,2013-03-15 15:52:00,
2013-03-15 11:53:00,52.0,19.9,30.09,SE,135,0.0,3.1,28,0.00,,---,0.00,VWS V14.01,2013-03-15 15:53:00,
2013-03-15 11:54:00,52.0,19.9,30.09,WNW,292,0.0,0.9,28,0.00,,---,0.00,VWS V14.01,2013-03-15 15:54:00,
2013-03-15 11:55:00,52.2,20.1,30.09,South,180,0.9,1.3,28,0.00,,---,0.00,VWS V14.01,2013-03-15 15:55:00,
2013-03-15 11:56:00,52.2,20.1,30.09,WNW,292,0.0,0.9,28,0.00,,---,0.00,VWS V14.01,2013-03-15 15:56:00,
2013-03-15 11:57:00,52.2,20.1,30.09,WSW,248,0.0,1.6,28,0.00,,---,0.00,VWS V14.01,2013-03-15 15:57:00,
2013-03-15 11:58:00,52.2,20.1,30.09,WNW,292,3.1,3.1,28,0.00,,---,0.00,VWS V14.01,2013-03-15 15:58:00,
2013-03-15 11:59:00,52.2,20.1,30.09,ENE,68,3.4,4.7,28,0.00,,---,0.00,VWS V14.01,2013-03-15 15:59:00,
2013-03-15 12:00:00,51.6,19.6,30.09,SW,225,2.7,3.4,28,0.00,,---,0.00,VWS V14.01,2013-03-15 16:00:00,
2013-03-15 12:01:00,51.4,19.4,30.09,ENE,68,0.0,2.7,28,0.00,,---,0.00,VWS V14.01,2013-03-15 16:01:00,
2013-03-15 12:02:00,51.4,19.4,30.09,ENE,68,1.1,1.1,28,0.00,,---,0.00,VWS V14.01,2013-03-15 16:02:00,
2013-03-15 12:03:00,51.3,19.3,30.09,East,90,0.0,1.1,28,0.00,,---,0.00,VWS V14.01,2013-03-15 16:03:00,
2013-03-15 12:04:00,51.3,19.3,30.09,ENE,68,2.5,2.5,28,0.00,,---,0.00,VWS V14.01,2013-03-15 16:04:00,
2013-03-15 12:05:00,51.3,19.3,30.09,West,270,1.1,2.5,28,0.00,,---,0.00,VWS V14.01,2013-03-15 16:05:00,
2013-03-15 12:06:00,51.3,19.3,30.09,ESE,112,0.0,1.1,28,0.00,,---,0.00,VWS V14.01,2013-03-15 16:06:00,
2013-03-15 12:07:00,51.6,19.6,30.09,East,90,0.0,1.1,28,0.00,,---,0.00,VWS V14.01,2013-03-15 16:07:00,
2013-03-15 12:08:00,51.6,19.6,30.09,NW,315,0.0,0.0,28,0.00,,---,0.00,VWS V14.01,2013-03-15 16:08:00,
2013-03-15 12:09:00,51.3,19.3,30.09,SSE,158,3.8,4.3,28,0.00,,---,0.00,VWS V14.01,2013-03-15 16:09:00,
2013-03-15 12:10:00,51.3,19.3,30.09,NNE,22,0.0,3.8,28,0.00,,---,0.00,VWS V14.01,2013-03-15 16:10:00,
2013-03-15 12:11:00,51.4,19.4,30.09,NE,45,0.0,0.0,28,0.00,,---,0.00,VWS V14.01,2013-03-15 16:11:00,
2013-03-15 12:12:00,51.6,19.6,30.09,WSW,248,0.0,0.0,28,0.00,,---,0.00,VWS V14.01,2013-03-15 16:12:00,
2013-03-15 12:13:00,51.6,19.6,30.09,ESE,112,1.1,1.1,28,0.00,,---,0.00,VWS V14.01,2013-03-15 16:13:00,
2013-03-15 12:14:00,51.6,19.6,30.09,West,270,2.5,2.5,28,0.00,,---,0.00,VWS V14.01,2013-03-15 16:14:00,
2013-03-15 12:15:00,51.6,19.6,30.09,ENE,68,1.3,2.9,28,0.00,,---,0.00,VWS V14.01,2013-03-15 16:15:00,
2013-03-15 12:16:00,52.0,19.9,30.09,NNW,338,0.0,1.3,28,0.00,,---,0.00,VWS V14.01,2013-03-15 16:16:00,
2013-03-15 12:17:00,52.2,20.1,30.09,NNW,338,0.0,0.0,28,0.00,,---,0.00,VWS V14.01,2013-03-15 16:17:00,
2013-03-15 12:18:00,52.0,19.9,30.09,NNW,338,0.0,0.0,28,0.00,,---,0.00,VWS V14.01,2013-03-15 16:18:00,
2013-03-15 12:19:00,52.0,19.9,30.06,NW,315,0.0,0.0,28,0.00,,---,0.00,VWS V14.01,2013-03-15 16:19:00,
2013-03-15 12:20:00,52.0,19.9,30.06,NNE,22,0.0,0.0,28,0.00,,---,0.00,VWS V14.01,2013-03-15 16:20:00,
2013-03-15 12:21:00,51.8,19.8,30.06,West,270,0.0,0.0,28,0.00,,---,0.00,VWS V14.01,2013-03-15 16:21:00,
2013-03-15 12:22:00,51.8,19.8,30.06,West,270,0.0,0.0,28,0.00,,---,0.00,VWS V14.01,2013-03-15 16:22:00,
2013-03-15 12:23:00,51.8,19.8,30.06,NNW,338,0.0,0.0,28,0.00,,---,0.00,VWS V14.01,2013-03-15 16:23:00,
2013-03-15 12:24:00,51.8,19.8,30.06,NNE,22,2.7,4.3,28,0.00,,---,0.00,VWS V14.01,2013-03-15 16:24:00,
2013-03-15 12:25:00,52.0,19.9,30.06,SSE,158,0.0,2.7,28,0.00,,---,0.00,VWS V14.01,2013-03-15 16:25:00,
2013-03-15 12:26:00,52.0,19.9,30.06,East,90,2.0,2.9,28,0.00,,---,0.00,VWS V14.01,2013-03-15 16:26:00,
2013-03-15 12:27:00,52.0,19.9,30.06,WNW,292,0.9,2.0,28,0.00,,---,0.00,VWS V14.01,2013-03-15 16:27:00,
2013-03-15 12:28:00,52.2,20.1,30.06,WSW,248,0.9,2.9,28,0.00,,---,0.00,VWS V14.01,2013-03-15 16:28:00,
2013-03-15 12:29:00,52.2,20.1,30.06,SE,135,1.6,3.4,28,0.00,,---,0.00,VWS V14.01,2013-03-15 16:29:00,
2013-03-15 12:30:00,52.3,20.2,30.06,NW,315,0.0,2.0,28,0.00,,---,0.00,VWS V14.01,2013-03-15 16:30:00,
2013-03-15 12:31:00,52.7,20.5,30.06,West,270,0.0,0.0,28,0.00,,---,0.00,VWS V14.01,2013-03-15 16:31:00,
2013-03-15 12:32:00,52.5,19.5,30.06,NW,315,2.9,2.9,27,0.00,,---,0.00,VWS V14.01,2013-03-15 16:32:00,
2013-03-15 12:33:00,52.7,20.5,30.06,NNW,338,0.0,2.9,28,0.00,,---,0.00,VWS V14.01,2013-03-15 16:33:00,
2013-03-15 12:34:00,52.7,20.5,30.09,NNW,338,0.0,0.0,28,0.00,,---,0.00,VWS V14.01,2013-03-15 16:34:00,
2013-03-15 12:35:00,53.1,20.8,30.09,NNW,338,0.0,0.0,28,0.00,,---,0.00,VWS V14.01,2013-03-15 16:35:00,
2013-03-15 12:36:00,53.1,20.8,30.09,SSW,202,0.0,0.0,28,0.00,,---,0.00,VWS V14.01,2013-03-15 16:36:00,
2013-03-15 12:37:00,53.1,20.8,30.09,East,90,0.0,0.0,28,0.00,,---,0.00,VWS V14.01,2013-03-15 16:37:00,
2013-03-15 12:38:00,53.2,21.0,30.09,NW,315,2.5,2.5,28,0.00,,---,0.00,VWS V14.01,2013-03-15 16:38:00,
2013-03-15 12:39:00,53.2,21.0,30.09,ENE,68,0.9,2.9,28,0.00,,---,0.00,VWS V14.01,2013-03-15 16:39:00,
2013-03-15 12:40:00,53.8,20.6,30.09,West,270,4.0,4.0,27,0.00,,---,0.00,VWS V14.01,2013-03-15 16:40:00,
2013-03-15 12:41:00,53.8,20.6,30.09,WNW,292,2.9,4.0,27,0.00,,---,0.00,VWS V14.01,2013-03-15 16:41:00,
2013-03-15 12:42:00,54.0,20.8,30.09,West,270,0.0,2.9,27,0.00,,---,0.00,VWS V14.01,2013-03-15 16:42:00,
2013-03-15 12:43:00,54.3,21.1,30.09,NNW,338,0.0,0.0,27,0.00,,---,0.00,VWS V14.01,2013-03-15 16:43:00,
2013-03-15 12:44:00,54.5,21.2,30.09,West,270,0.0,0.0,27,0.00,,---,0.00,VWS V14.01,2013-03-15 16:44:00,
2013-03-15 12:45:00,54.5,21.2,30.09,East,90,0.0,0.0,27,0.00,,---,0.00,VWS V14.01,2013-03-15 16:45:00,
2013-03-15 12:46:00,54.5,21.2,30.09,NE,45,0.0,2.5,27,0.00,,---,0.00,VWS V14.01,2013-03-15 16:46:00,
2013-03-15 12:47:00,54.5,21.2,30.09,WNW,292,3.6,3.6,27,0.00,,---,0.00,VWS V14.01,2013-03-15 16:47:00,
2013-03-15 12:48:00,54.5,21.2,30.09,WNW,292,2.0,3.6,27,0.00,,---,0.00,VWS V14.01,2013-03-15 16:48:00,
2013-03-15 12:49:00,54.7,21.4,30.09,WNW,292,0.0,2.2,27,0.00,,---,0.00,VWS V14.01,2013-03-15 16:49:00,
2013-03-15 12:50:00,54.9,21.5,30.09,South,180,0.0,0.0,27,0.00,,---,0.00,VWS V14.01,2013-03-15 16:50:00,
2013-03-15 12:51:00,55.0,21.7,30.09,NW,315,0.0,0.0,27,0.00,,---,0.00,VWS V14.01,2013-03-15 16:51:00,
2013-03-15 12:52:00,55.2,21.8,30.09,West,270,0.0,3.1,27,0.00,,---,0.00,VWS V14.01,2013-03-15 16:52:00,
2013-03-15 12:53:00,55.4,22.0,30.09,SSW,202,0.0,0.0,27,0.00,,---,0.00,VWS V14.01,2013-03-15 16:53:00,
2013-03-15 12:54:00,55.6,22.1,30.09,NE,45,0.0,0.0,27,0.00,,---,0.00,VWS V14.01,2013-03-15 16:54:00,
2013-03-15 12:55:00,55.6,22.1,30.09,East,90,0.0,0.0,27,0.00,,---,0.00,VWS V14.01,2013-03-15 16:55:00,
2013-03-15 12:56:00,55.6,22.1,30.09,WNW,292,2.9,2.9,27,0.00,,---,0.00,VWS V14.01,2013-03-15 16:56:00,
2013-03-15 12:57:00,55.6,22.1,30.09,SSE,158,1.6,2.9,27,0.00,,---,0.00,VWS V14.01,2013-03-15 16:57:00,
2013-03-15 12:58:00,55.4,22.0,30.09,NE,45,2.0,2.9,27,0.00,,---,0.00,VWS V14.01,2013-03-15 16:58:00,
2013-03-15 12:59:00,55.6,22.1,30.09,NNW,338,0.0,2.0,27,0.00,,---,0.00,VWS V14.01,2013-03-15 16:59:00,
2013-03-15 13:00:00,55.8,22.3,30.09,NNE,22,0.0,0.0,27,0.00,,---,0.00,VWS V14.01,2013-03-15 17:00:00,
2013-03-15 13:01:00,55.8,22.3,30.09,NNE,22,0.0,0.0,27,0.00,,---,0.00,VWS V14.01,2013-03-15 17:01:00,
2013-03-15 13:02:00,55.8,22.3,30.09,SE,135,0.0,2.5,27,0.00,,---,0.00,VWS V14.01,2013-03-15 17:02:00,
2013-03-15 13:03:00,55.8,22.3,30.09,ENE,68,0.0,1.3,27,0.00,,---,0.00,VWS V14.01,2013-03-15 17:03:00,
2013-03-15 13:04:00,55.8,22.3,30.06,NNE,22,1.6,2.7,27,0.00,,---,0.00,VWS V14.01,2013-03-15 17:04:00,
2013-03-15 13:05:00,55.6,22.1,30.06,North,0,1.6,2.7,27,0.00,,---,0.00,VWS V14.01,2013-03-15 17:05:00,
2013-03-15 13:06:00,55.4,22.0,30.06,West,270,0.0,2.0,27,0.00,,---,0.00,VWS V14.01,2013-03-15 17:06:00,
2013-03-15 13:07:00,55.4,22.0,30.06,East,90,1.6,2.7,27,0.00,,---,0.00,VWS V14.01,2013-03-15 17:07:00,
2013-03-15 13:08:00,55.6,21.3,30.06,NNW,338,3.4,3.6,26,0.00,,---,0.00,VWS V14.01,2013-03-15 17:08:00,
2013-03-15 13:09:00,55.8,22.3,30.06,WNW,292,0.0,3.4,27,0.00,,---,0.00,VWS V14.01,2013-03-15 17:09:00,
2013-03-15 13:10:00,55.9,22.5,30.06,ESE,112,3.6,3.6,27,0.00,,---,0.00,VWS V14.01,2013-03-15 17:10:00,
2013-03-15 13:11:00,55.9,22.5,30.06,WSW,248,1.6,3.6,27,0.00,,---,0.00,VWS V14.01,2013-03-15 17:11:00,
2013-03-15 13:12:00,56.1,22.6,30.06,NNW,338,2.9,2.9,27,0.00,,---,0.00,VWS V14.01,2013-03-15 17:12:00,
2013-03-15 13:13:00,56.3,22.8,30.06,SSE,158,1.6,3.4,27,0.00,,---,0.00,VWS V14.01,2013-03-15 17:13:00,
2013-03-15 13:14:00,56.3,22.8,30.06,West,270,0.0,1.6,27,0.00,,---,0.00,VWS V14.01,2013-03-15 17:14:00,
2013-03-15 13:15:00,56.3,22.8,30.06,NE,45,0.0,0.0,27,0.00,,---,0.00,VWS V14.01,2013-03-15 17:15:00,
2013-03-15 13:16:00,56.3,22.8,30.06,WSW,248,0.0,0.0,27,0.00,,---,0.00,VWS V14.01,2013-03-15 17:16:00,
2013-03-15 13:17:00,56.8,23.2,30.06,SSE,158,4.0,6.0,27,0.00,,---,0.00,VWS V14.01,2013-03-15 17:17:00,
2013-03-15 13:18:00,56.7,22.2,30.06,NNE,22,0.0,4.0,26,0.00,,---,0.00,VWS V14.01,2013-03-15 17:18:00,
2013-03-15 13:19:00,56.8,23.2,30.06,NE,45,0.0,0.0,27,0.00,,---,0.00,VWS V14.01,2013-03-15 17:19:00,
2013-03-15 13:20:00,56.8,23.2,30.06,NE,45,0.0,0.0,27,0.00,,---,0.00,VWS V14.01,2013-03-15 17:20:00,
2013-03-15 13:21:00,56.8,23.2,30.06,WNW,292,0.9,0.9,27,0.00,,---,0.00,VWS V14.01,2013-03-15 17:21:00,
2013-03-15 13:22:00,56.7,22.2,30.06,ENE,68,2.5,2.9,26,0.00,,---,0.00,VWS V14.01,2013-03-15 17:22:00,
2013-03-15 13:23:00,56.7,22.2,30.06,South,180,2.0,3.4,26,0.00,,---,0.00,VWS V14.01,2013-03-15 17:23:00,
2013-03-15 13:24:00,56.7,22.2,30.06,NNW,338,0.0,2.0,26,0.00,,---,0.00,VWS V14.01,2013-03-15 17:24:00,
2013-03-15 13:25:00,56.8,22.3,30.06,SSE,158,1.6,1.6,26,0.00,,---,0.00,VWS V14.01,2013-03-15 17:25:00,
2013-03-15 13:26:00,56.8,22.3,30.06,ESE,112,2.7,4.7,26,0.00,,---,0.00,VWS V14.01,2013-03-15 17:26:00,
2013-03-15 13:27:00,56.7,22.2,30.06,NNE,22,0.9,2.7,26,0.00,,---,0.00,VWS V14.01,2013-03-15 17:27:00,
2013-03-15 13:28:00,56.8,22.3,30.06,ENE,68,0.0,0.9,26,0.00,,---,0.00,VWS V14.01,2013-03-15 17:28:00,
2013-03-15 13:29:00,57.2,22.6,30.06,WNW,292,2.7,2.7,26,0.00,,---,0.00,VWS V14.01,2013-03-15 17:29:00,
2013-03-15 13:30:00,57.2,22.6,30.06,NNW,338,0.9,2.7,26,0.00,,---,0.00,VWS V14.01,2013-03-15 17:30:00,
2013-03-15 13:31:00,57.4,22.8,30.06,WNW,292,0.0,1.6,26,0.00,,---,0.00,VWS V14.01,2013-03-15 17:31:00,
2013-03-15 13:32:00,57.2,22.6,30.06,WNW,292,0.0,0.0,26,0.00,,---,0.00,VWS V14.01,2013-03-15 17:32:00,
2013-03-15 13:33:00,57.2,22.6,30.06,SW,225,0.0,0.0,26,0.00,,---,0.00,VWS V14.01,2013-03-15 17:33:00,
2013-03-15 13:34:00,57.2,22.6,30.03,WSW,248,0.0,1.1,26,0.00,,---,0.00,VWS V14.01,2013-03-15 17:34:00,
2013-03-15 13:35:00,57.2,22.6,30.03,WSW,248,0.0,2.0,26,0.00,,---,0.00,VWS V14.01,2013-03-15 17:35:00,
2013-03-15 13:36:00,57.2,22.6,30.03,SSE,158,2.9,2.9,26,0.00,,---,0.00,VWS V14.01,2013-03-15 17:36:00,
2013-03-15 13:37:00,57.2,22.6,30.03,ESE,112,2.5,3.6,26,0.00,,---,0.00,VWS V14.01,2013-03-15 17:37:00,
2013-03-15 13:38:00,57.2,22.6,30.03,SE,135,0.9,3.8,26,0.00,,---,0.00,VWS V14.01,2013-03-15 17:38:00,
2013-03-15 13:39:00,56.8,22.3,30.03,SSE,158,0.0,4.0,26,0.00,,---,0.00,VWS V14.01,2013-03-15 17:39:00,
2013-03-15 13:40:00,56.8,22.3,30.03,ESE,112,0.0,0.0,26,0.00,,---,0.00,VWS V14.01,2013-03-15 17:40:00,
2013-03-15 13:41:00,56.8,22.3,30.03,SSE,158,1.1,2.2,26,0.00,,---,0.00,VWS V14.01,2013-03-15 17:41:00,
2013-03-15 13:42:00,56.8,22.3,30.03,WSW,248,2.5,2.5,26,0.00,,---,0.00,VWS V14.01,2013-03-15 17:42:00,
2013-03-15 13:43:00,56.8,22.3,30.03,NNE,22,1.6,3.6,26,0.00,,---,0.00,VWS V14.01,2013-03-15 17:43:00,
2013-03-15 13:44:00,56.8,22.3,30.03,West,270,0.0,1.6,26,0.00,,---,0.00,VWS V14.01,2013-03-15 17:44:00,
2013-03-15 13:45:00,56.7,22.2,30.03,SSE,158,3.1,3.1,26,0.00,,---,0.00,VWS V14.01,2013-03-15 17:45:00,
2013-03-15 13:46:00,56.7,22.2,30.03,NE,45,0.0,3.1,26,0.00,,---,0.00,VWS V14.01,2013-03-15 17:46:00,
2013-03-15 13:47:00,56.7,22.2,30.03,WNW,292,2.9,2.9,26,0.00,,---,0.00,VWS V14.01,2013-03-15 17:47:00,
2013-03-15 13:48:00,56.7,22.2,30.03,ENE,68,3.6,3.6,26,0.00,,---,0.00,VWS V14.01,2013-03-15 17:48:00,
2013-03-15 13:49:00,56.7,22.2,30.00,SSE,158,0.0,3.6,26,0.00,,---,0.00,VWS V14.01,2013-03-15 17:49:00,
2013-03-15 13:50:00,56.7,22.2,30.00,SSE,158,0.0,0.0,26,0.00,,---,0.00,VWS V14.01,2013-03-15 17:50:00,
2013-03-15 13:51:00,56.8,22.3,30.00,NE,45,0.0,0.0,26,0.00,,---,0.00,VWS V14.01,2013-03-15 17:51:00,
2013-03-15 13:52:00,56.7,22.2,30.00,ENE,68,3.1,3.1,26,0.00,,---,0.00,VWS V14.01,2013-03-15 17:52:00,
2013-03-15 13:53:00,56.7,22.2,30.00,NNW,338,0.0,3.1,26,0.00,,---,0.00,VWS V14.01,2013-03-15 17:53:00,
2013-03-15 13:54:00,56.1,22.6,30.06,East,90,2.7,2.7,27,0.00,,---,0.00,VWS V14.01,2013-03-15 17:54:00,
2013-03-15 13:55:00,56.7,22.2,30.00,SE,135,0.0,1.3,26,0.00,,---,0.00,VWS V14.01,2013-03-15 17:55:00,
2013-03-15 13:56:00,56.7,22.2,30.00,SE,135,0.0,0.0,26,0.00,,---,0.00,VWS V14.01,2013-03-15 17:56:00,
2013-03-15 13:57:00,56.7,22.2,30.00,WNW,292,4.3,5.8,26,0.00,,---,0.00,VWS V14.01,2013-03-15 17:57:00,
2013-03-15 13:58:00,56.1,21.7,30.00,West,270,4.3,4.3,26,0.00,,---,0.00,VWS V14.01,2013-03-15 17:58:00,
2013-03-15 13:59:00,55.8,21.4,30.00,West,270,1.6,4.3,26,0.00,,---,0.00,VWS V14.01,2013-03-15 17:59:00,
2013-03-15 14:00:00,55.8,21.4,30.00,West,270,2.5,4.3,26,0.00,,---,0.00,VWS V14.01,2013-03-15 18:00:00,
2013-03-15 14:01:00,55.9,21.6,30.00,West,270,1.1,3.4,26,0.00,,---,0.00,VWS V14.01,2013-03-15 18:01:00,
2013-03-15 14:02:00,55.9,21.6,30.00,WNW,292,0.0,1.6,26,0.00,,---,0.00,VWS V14.01,2013-03-15 18:02:00,
2013-03-15 14:03:00,55.9,21.6,30.00,ESE,112,0.0,2.9,26,0.00,,---,0.00,VWS V14.01,2013-03-15 18:03:00,
2013-03-15 14:04:00,55.9,21.6,30.00,West,270,4.0,4.0,26,0.00,,---,0.00,VWS V14.01,2013-03-15 18:04:00,
2013-03-15 14:05:00,55.8,21.4,30.00,NW,315,0.9,4.0,26,0.00,,---,0.00,VWS V14.01,2013-03-15 18:05:00,
2013-03-15 14:06:00,55.8,21.4,30.00,WNW,292,3.1,3.8,26,0.00,,---,0.00,VWS V14.01,2013-03-15 18:06:00,
2013-03-15 14:07:00,55.4,21.1,30.00,WSW,248,1.6,3.4,26,0.00,,---,0.00,VWS V14.01,2013-03-15 18:07:00,
2013-03-15 14:08:00,55.6,21.3,30.00,SE,135,0.9,2.0,26,0.00,,---,0.00,VWS V14.01,2013-03-15 18:08:00,
2013-03-15 14:09:00,55.6,21.3,30.00,NNE,22,0.9,3.1,26,0.00,,---,0.00,VWS V14.01,2013-03-15 18:09:00,
2013-03-15 14:10:00,55.6,21.3,30.00,West,270,2.7,3.6,26,0.00,,---,0.00,VWS V14.01,2013-03-15 18:10:00,
2013-03-15 14:11:00,55.6,21.3,30.00,WNW,292,1.6,2.7,26,0.00,,---,0.00,VWS V14.01,2013-03-15 18:11:00,
2013-03-15 14:12:00,55.4,21.1,30.00,ESE,112,2.2,2.5,26,0.00,,---,0.00,VWS V14.01,2013-03-15 18:12:00,
2013-03-15 14:13:00,55.4,21.1,30.00,ENE,68,1.3,2.2,26,0.00,,---,0.00,VWS V14.01,2013-03-15 18:13:00,
2013-03-15 14:14:00,55.4,21.1,30.00,NNW,338,2.5,2.7,26,0.00,,---,0.00,VWS V14.01,2013-03-15 18:14:00,
2013-03-15 14:15:00,55.4,21.1,30.00,NW,315,2.9,2.9,26,0.00,,---,0.00,VWS V14.01,2013-03-15 18:15:00,
2013-03-15 14:16:00,55.2,21.0,30.00,ENE,68,0.0,2.9,26,0.00,,---,0.00,VWS V14.01,2013-03-15 18:16:00,
2013-03-15 14:17:00,55.4,21.1,30.00,WNW,292,0.0,0.0,26,0.00,,---,0.00,VWS V14.01,2013-03-15 18:17:00,
2013-03-15 14:18:00,55.4,21.1,30.00,WNW,292,0.0,1.1,26,0.00,,---,0.00,VWS V14.01,2013-03-15 18:18:00,
2013-03-15 14:19:00,55.4,21.1,30.03,WSW,248,0.0,0.0,26,0.00,,---,0.00,VWS V14.01,2013-03-15 18:19:00,
2013-03-15 14:20:00,55.4,21.1,30.03,East,90,0.0,2.5,26,0.00,,---,0.00,VWS V14.01,2013-03-15 18:20:00,
2013-03-15 14:21:00,55.6,21.3,30.03,WNW,292,2.7,2.7,26,0.00,,---,0.00,VWS V14.01,2013-03-15 18:21:00,
2013-03-15 14:22:00,55.4,21.1,30.03,WNW,292,0.9,2.7,26,0.00,,---,0.00,VWS V14.01,2013-03-15 18:22:00,
2013-03-15 14:23:00,55.4,21.1,30.03,SSE,158,1.1,3.4,26,0.00,,---,0.00,VWS V14.01,2013-03-15 18:23:00,
2013-03-15 14:24:00,55.4,21.1,30.03,WSW,248,2.2,2.2,26,0.00,,---,0.00,VWS V14.01,2013-03-15 18:24:00,
2013-03-15 14:25:00,55.4,21.1,30.03,WNW,292,4.0,4.0,26,0.00,,---,0.00,VWS V14.01,2013-03-15 18:25:00,
2013-03-15 14:26:00,55.4,21.1,30.03,East,90,2.2,4.0,26,0.00,,---,0.00,VWS V14.01,2013-03-15 18:26:00,
2013-03-15 14:27:00,55.2,21.0,30.03,West,270,2.0,2.2,26,0.00,,---,0.00,VWS V14.01,2013-03-15 18:27:00,
2013-03-15 14:28:00,55.4,21.1,30.03,WSW,248,3.4,4.7,26,0.00,,---,0.00,VWS V14.01,2013-03-15 18:28:00,
2013-03-15 14:29:00,55.4,21.1,30.03,WSW,248,1.1,3.4,26,0.00,,---,0.00,VWS V14.01,2013-03-15 18:29:00,
2013-03-15 14:30:00,55.0,20.8,30.03,South,180,2.9,2.9,26,0.00,,---,0.00,VWS V14.01,2013-03-15 18:30:00,
2013-03-15 14:31:00,55.0,20.8,30.03,East,90,0.0,2.9,26,0.00,,---,0.00,VWS V14.01,2013-03-15 18:31:00,
2013-03-15 14:32:00,55.0,20.8,30.03,NW,315,2.2,2.2,26,0.00,,---,0.00,VWS V14.01,2013-03-15 18:32:00,
2013-03-15 14:33:00,55.2,21.0,30.03,WNW,292,0.0,2.2,26,0.00,,---,0.00,VWS V14.01,2013-03-15 18:33:00,
2013-03-15 14:34:00,55.2,21.0,30.03,ESE,112,5.4,5.4,26,0.00,,---,0.00,VWS V14.01,2013-03-15 18:34:00,
2013-03-15 14:35:00,55.0,20.8,30.03,West,270,0.0,5.4,26,0.00,,---,0.00,VWS V14.01,2013-03-15 18:35:00,
2013-03-15 14:36:00,55.0,20.8,30.03,WNW,292,0.0,0.0,26,0.00,,---,0.00,VWS V14.01,2013-03-15 18:36:00,
2013-03-15 14:37:00,55.0,20.8,30.03,SSE,158,0.0,1.3,26,0.00,,---,0.00,VWS V14.01,2013-03-15 18:37:00,
2013-03-15 14:38:00,55.0,20.8,30.03,West,270,0.0,0.9,26,0.00,,---,0.00,VWS V14.01,2013-03-15 18:38:00,
2013-03-15 14:39:00,55.0,20.8,30.03,West,270,0.0,0.0,26,0.00,,---,0.00,VWS V14.01,2013-03-15 18:39:00,
2013-03-15 14:40:00,55.0,20.8,30.03,East,90,0.0,2.9,26,0.00,,---,0.00,VWS V14.01,2013-03-15 18:40:00,
2013-03-15 14:41:00,55.2,21.0,30.03,WNW,292,1.3,1.6,26,0.00,,---,0.00,VWS V14.01,2013-03-15 18:41:00,
2013-03-15 14:42:00,55.0,20.8,30.03,SW,225,1.1,2.7,26,0.00,,---,0.00,VWS V14.01,2013-03-15 18:42:00,
2013-03-15 14:43:00,55.0,20.8,30.03,WNW,292,0.0,1.1,26,0.00,,---,0.00,VWS V14.01,2013-03-15 18:43:00,
2013-03-15 14:44:00,55.0,20.8,30.03,ESE,112,0.0,1.6,26,0.00,,---,0.00,VWS V14.01,2013-03-15 18:44:00,
2013-03-15 14:45:00,54.9,20.6,30.03,NE,45,0.0,3.1,26,0.00,,---,0.00,VWS V14.01,2013-03-15 18:45:00,
2013-03-15 14:46:00,54.9,20.6,30.03,NNE,22,0.0,0.0,26,0.00,,---,0.00,VWS V14.01,2013-03-15 18:46:00,
2013-03-15 14:47:00,54.9,20.6,30.03,SSE,158,0.0,0.0,26,0.00,,---,0.00,VWS V14.01,2013-03-15 18:47:00,
2013-03-15 14:48:00,54.9,20.6,30.03,NE,45,0.0,0.0,26,0.00,,---,0.00,VWS V14.01,2013-03-15 18:48:00,
2013-03-15 14:49:00,55.0,20.8,30.00,WSW,248,3.1,3.6,26,0.00,,---,0.00,VWS V14.01,2013-03-15 18:49:00,
2013-03-15 14:50:00,54.9,20.6,30.00,WNW,292,0.0,3.1,26,0.00,,---,0.00,VWS V14.01,2013-03-15 18:50:00,
2013-03-15 14:51:00,54.9,20.6,30.00,East,90,1.1,2.2,26,0.00,,---,0.00,VWS V14.01,2013-03-15 18:51:00,
2013-03-15 14:52:00,54.9,20.6,30.00,ENE,68,1.1,2.9,26,0.00,,---,0.00,VWS V14.01,2013-03-15 18:52:00,
2013-03-15 14:53:00,54.9,20.6,30.00,WSW,248,2.5,2.5,26,0.00,,---,0.00,VWS V14.01,2013-03-15 18:53:00,
2013-03-15 14:54:00,55.0,20.8,30.00,WNW,292,0.9,2.5,26,0.00,,---,0.00,VWS V14.01,2013-03-15 18:54:00,
2013-03-15 14:55:00,55.0,20.8,30.00,WSW,248,0.0,0.9,26,0.00,,---,0.00,VWS V14.01,2013-03-15 18:55:00,
2013-03-15 14:56:00,55.0,20.8,30.00,NNW,338,0.0,0.9,26,0.00,,---,0.00,VWS V14.01,2013-03-15 18:56:00,
2013-03-15 14:57:00,55.0,20.8,30.00,WNW,292,0.0,0.0,26,0.00,,---,0.00,VWS V14.01,2013-03-15 18:57:00,
2013-03-15 14:58:00,55.0,20.8,30.00,NE,45,0.0,0.0,26,0.00,,---,0.00,VWS V14.01,2013-03-15 18:58:00,
2013-03-15 14:59:00,55.0,20.8,30.00,East,90,0.0,0.0,26,0.00,,---,0.00,VWS V14.01,2013-03-15 18:59:00,
2013-03-15 15:00:00,55.0,21.7,30.00,SE,135,0.0,0.0,27,0.00,,---,0.00,VWS V14.01,2013-03-15 19:00:00,
2013-03-15 15:01:00,55.0,21.7,30.00,ESE,112,2.9,2.9,27,0.00,,---,0.00,VWS V14.01,2013-03-15 19:01:00,
2013-03-15 15:02:00,54.9,21.5,30.00,WSW,248,0.0,3.4,27,0.00,,---,0.00,VWS V14.01,2013-03-15 19:02:00,
2013-03-15 15:03:00,54.9,21.5,30.00,East,90,1.1,2.5,27,0.00,,---,0.00,VWS V14.01,2013-03-15 19:03:00,
2013-03-15 15:04:00,54.9,20.6,29.97,East,90,1.6,2.0,26,0.00,,---,0.00,VWS V14.01,2013-03-15 19:04:00,
2013-03-15 15:05:00,54.9,20.6,29.97,WNW,292,0.0,1.6,26,0.00,,---,0.00,VWS V14.01,2013-03-15 19:05:00,
2013-03-15 15:06:00,54.9,20.6,29.97,East,90,0.0,0.0,26,0.00,,---,0.00,VWS V14.01,2013-03-15 19:06:00,
2013-03-15 15:07:00,55.0,20.8,29.97,ENE,68,2.7,2.7,26,0.00,,---,0.00,VWS V14.01,2013-03-15 19:07:00,
2013-03-15 15:08:00,55.0,21.7,29.97,ESE,112,2.5,3.6,27,0.00,,---,0.00,VWS V14.01,2013-03-15 19:08:00,
2013-03-15 15:09:00,54.9,21.5,29.97,SE,135,4.3,4.9,27,0.00,,---,0.00,VWS V14.01,2013-03-15 19:09:00,
2013-03-15 15:10:00,54.9,20.6,29.97,WSW,248,0.0,4.3,26,0.00,,---,0.00,VWS V14.01,2013-03-15 19:10:00,
2013-03-15 15:11:00,54.9,20.6,29.97,NW,315,0.0,0.0,26,0.00,,---,0.00,VWS V14.01,2013-03-15 19:11:00,
2013-03-15 15:12:00,54.9,20.6,29.97,ENE,68,0.0,0.0,26,0.00,,---,0.00,VWS V14.01,2013-03-15 19:12:00,
2013-03-15 15:13:00,54.9,21.5,29.97,North,0,0.0,0.0,27,0.00,,---,0.00,VWS V14.01,2013-03-15 19:13:00,
2013-03-15 15:14:00,54.9,21.5,29.97,NNE,22,0.0,0.0,27,0.00,,---,0.00,VWS V14.01,2013-03-15 19:14:00,
2013-03-15 15:15:00,55.0,20.8,29.97,ESE,112,0.0,0.0,26,0.00,,---,0.00,VWS V14.01,2013-03-15 19:15:00,
2013-03-15 15:16:00,55.0,20.8,29.97,WNW,292,1.3,1.3,26,0.00,,---,0.00,VWS V14.01,2013-03-15 19:16:00,
2013-03-15 15:17:00,55.0,20.8,29.97,ESE,112,2.0,5.6,26,0.00,,---,0.00,VWS V14.01,2013-03-15 19:17:00,
2013-03-15 15:18:00,55.0,20.8,29.97,NNE,22,0.0,2.0,26,0.00,,---,0.00,VWS V14.01,2013-03-15 19:18:00,
2013-03-15 15:19:00,55.0,21.7,29.97,SSW,202,0.9,2.9,27,0.00,,---,0.00,VWS V14.01,2013-03-15 19:19:00,
2013-03-15 15:20:00,55.0,21.7,29.97,NNW,338,2.9,2.9,27,0.00,,---,0.00,VWS V14.01,2013-03-15 19:20:00,
2013-03-15 15:21:00,55.0,21.7,29.97,ESE,112,0.9,2.9,27,0.00,,---,0.00,VWS V14.01,2013-03-15 19:21:00,
2013-03-15 15:22:00,55.0,21.7,29.97,SSW,202,0.0,0.9,27,0.00,,---,0.00,VWS V14.01,2013-03-15 19:22:00,
2013-03-15 15:23:00,55.0,21.7,29.97,East,90,1.6,1.6,27,0.00,,---,0.00,VWS V14.01,2013-03-15 19:23:00,
2013-03-15 15:24:00,55.0,20.8,29.97,ESE,112,2.7,3.4,26,0.00,,---,0.00,VWS V14.01,2013-03-15 19:24:00,
2013-03-15 15:25:00,55.0,20.8,29.97,NE,45,0.0,2.7,26,0.00,,---,0.00,VWS V14.01,2013-03-15 19:25:00,
2013-03-15 15:26:00,55.0,20.8,29.97,ESE,112,0.0,0.0,26,0.00,,---,0.00,VWS V14.01,2013-03-15 19:26:00,
2013-03-15 15:27:00,55.0,20.8,29.97,WNW,292,1.1,1.1,26,0.00,,---,0.00,VWS V14.01,2013-03-15 19:27:00,
2013-03-15 15:28:00,55.2,21.0,29.97,SSE,158,2.5,3.8,26,0.00,,---,0.00,VWS V14.01,2013-03-15 19:28:00,
2013-03-15 15:29:00,55.0,20.8,29.97,WNW,292,0.0,2.5,26,0.00,,---,0.00,VWS V14.01,2013-03-15 19:29:00,
2013-03-15 15:30:00,55.0,20.8,29.97,SW,225,1.6,1.6,26,0.00,,---,0.00,VWS V14.01,2013-03-15 19:30:00,
2013-03-15 15:31:00,55.0,21.7,29.97,WNW,292,0.0,1.6,27,0.00,,---,0.00,VWS V14.01,2013-03-15 19:31:00,
2013-03-15 15:32:00,55.0,21.7,29.97,East,90,0.0,0.0,27,0.00,,---,0.00,VWS V14.01,2013-03-15 19:32:00,
2013-03-15 15:33:00,55.0,21.7,29.97,ESE,112,0.0,0.0,27,0.00,,---,0.00,VWS V14.01,2013-03-15 19:33:00,
2013-03-15 15:34:00,55.0,21.7,30.00,WSW,248,0.9,2.0,27,0.00,,---,0.00,VWS V14.01,2013-03-15 19:34:00,
2013-03-15 15:35:00,54.9,21.5,30.00,South,180,0.0,0.9,27,0.00,,---,0.00,VWS V14.01,2013-03-15 19:35:00,
2013-03-15 15:36:00,54.9,21.5,30.00,ESE,112,3.4,3.4,27,0.00,,---,0.00,VWS V14.01,2013-03-15 19:36:00,
2013-03-15 15:37:00,55.0,21.7,30.00,ESE,112,1.6,3.4,27,0.00,,---,0.00,VWS V14.01,2013-03-15 19:37:00,
2013-03-15 15:38:00,55.0,21.7,30.00,WNW,292,2.7,2.7,27,0.00,,---,0.00,VWS V14.01,2013-03-15 19:38:00,
2013-03-15 15:39:00,54.9,21.5,30.00,SSE,158,0.0,2.7,27,0.00,,---,0.00,VWS V14.01,2013-03-15 19:39:00,
2013-03-15 15:40:00,54.9,21.5,30.00,NW,315,0.0,0.0,27,0.00,,---,0.00,VWS V14.01,2013-03-15 19:40:00,
2013-03-15 15:41:00,54.9,21.5,30.00,NW,315,0.0,0.0,27,0.00,,---,0.00,VWS V14.01,2013-03-15 19:41:00,
2013-03-15 15:42:00,54.9,21.5,30.00,East,90,0.9,0.9,27,0.00,,---,0.00,VWS V14.01,2013-03-15 19:42:00,
2013-03-15 15:43:00,54.9,21.5,30.00,ENE,68,0.9,1.6,27,0.00,,---,0.00,VWS V14.01,2013-03-15 19:43:00,
2013-03-15 15:44:00,54.7,21.4,30.00,West,270,0.0,2.5,27,0.00,,---,0.00,VWS V14.01,2013-03-15 19:44:00,
2013-03-15 15:45:00,54.7,21.4,30.00,ESE,112,3.8,3.8,27,0.00,,---,0.00,VWS V14.01,2013-03-15 19:45:00,
2013-03-15 15:46:00,54.9,21.5,30.00,East,90,0.0,3.8,27,0.00,,---,0.00,VWS V14.01,2013-03-15 19:46:00,
2013-03-15 15:47:00,54.9,21.5,30.00,ESE,112,2.7,2.7,27,0.00,,---,0.00,VWS V14.01,2013-03-15 19:47:00,
2013-03-15 15:48:00,54.9,21.5,30.00,ESE,112,0.0,2.7,27,0.00,,---,0.00,VWS V14.01,2013-03-15 19:48:00,
2013-03-15 15:49:00,54.9,21.5,29.97,ESE,112,2.2,3.4,27,0.00,,---,0.00,VWS V14.01,2013-03-15 19:49:00,
2013-03-15 15:50:00,54.9,21.5,29.97,West,270,1.3,2.2,27,0.00,,---,0.00,VWS V14.01,2013-03-15 19:50:00,
2013-03-15 15:51:00,54.9,21.5,29.97,NE,45,1.3,2.7,27,0.00,,---,0.00,VWS V14.01,2013-03-15 19:51:00,
2013-03-15 15:52:00,54.9,21.5,29.97,ESE,112,0.0,1.3,27,0.00,,---,0.00,VWS V14.01,2013-03-15 19:52:00,
2013-03-15 15:53:00,54.9,21.5,29.97,ESE,112,2.0,2.7,27,0.00,,---,0.00,VWS V14.01,2013-03-15 19:53:00,
2013-03-15 15:54:00,54.7,21.4,29.97,ESE,112,0.0,2.0,27,0.00,,---,0.00,VWS V14.01,2013-03-15 19:54:00,
2013-03-15 15:55:00,54.7,21.4,29.97,East,90,0.0,2.5,27,0.00,,---,0.00,VWS V14.01,2013-03-15 19:55:00,
2013-03-15 15:56:00,54.7,21.4,29.97,ENE,68,0.0,0.0,27,0.00,,---,0.00,VWS V14.01,2013-03-15 19:56:00,
2013-03-15 15:57:00,54.7,21.4,29.97,ESE,112,0.0,0.0,27,0.00,,---,0.00,VWS V14.01,2013-03-15 19:57:00,
2013-03-15 15:58:00,54.7,21.4,29.97,WNW,292,0.0,0.0,27,0.00,,---,0.00,VWS V14.01,2013-03-15 19:58:00,
2013-03-15 15:59:00,54.9,21.5,29.97,SSE,158,0.0,0.0,27,0.00,,---,0.00,VWS V14.01,2013-03-15 19:59:00,
2013-03-15 16:00:00,54.9,21.5,29.97,SSE,158,0.0,0.0,27,0.00,,---,0.00,VWS V14.01,2013-03-15 20:00:00,
2013-03-15 16:01:00,54.9,21.5,29.97,NE,45,0.0,0.0,27,0.00,,---,0.00,VWS V14.01,2013-03-15 20:01:00,
2013-03-15 16:02:00,54.9,21.5,29.97,WSW,248,0.0,0.0,27,0.00,,---,0.00,VWS V14.01,2013-03-15 20:02:00,
2013-03-15 16:03:00,55.0,21.7,29.97,SSW,202,0.0,0.0,27,0.00,,---,0.00,VWS V14.01,2013-03-15 20:03:00,
2013-03-15 16:04:00,55.0,21.7,29.97,ENE,68,0.0,0.0,27,0.00,,---,0.00,VWS V14.01,2013-03-15 20:04:00,
2013-03-15 16:05:00,55.0,21.7,29.97,WNW,292,0.0,0.0,27,0.00,,---,0.00,VWS V14.01,2013-03-15 20:05:00,
2013-03-15 16:06:00,55.0,21.7,29.97,ESE,112,0.0,0.0,27,0.00,,---,0.00,VWS V14.01,2013-03-15 20:06:00,
2013-03-15 16:07:00,55.0,21.7,29.97,West,270,0.0,0.0,27,0.00,,---,0.00,VWS V14.01,2013-03-15 20:07:00,
2013-03-15 16:08:00,55.0,21.7,29.97,WNW,292,0.0,0.0,27,0.00,,---,0.00,VWS V14.01,2013-03-15 20:08:00,
2013-03-15 16:09:00,55.0,21.7,29.97,SSW,202,0.0,0.0,27,0.00,,---,0.00,VWS V14.01,2013-03-15 20:09:00,
2013-03-15 16:10:00,55.0,21.7,29.97,WNW,292,0.0,0.0,27,0.00,,---,0.00,VWS V14.01,2013-03-15 20:10:00,
2013-03-15 16:11:00,55.0,21.7,29.97,WNW,292,0.0,0.0,27,0.00,,---,0.00,VWS V14.01,2013-03-15 20:11:00,
2013-03-15 16:12:00,55.0,21.7,29.97,ESE,112,0.0,0.0,27,0.00,,---,0.00,VWS V14.01,2013-03-15 20:12:00,
2013-03-15 16:13:00,55.0,21.7,29.97,WNW,292,2.5,2.5,27,0.00,,---,0.00,VWS V14.01,2013-03-15 20:13:00,
2013-03-15 16:14:00,55.0,21.7,29.97,ESE,112,2.7,2.7,27,0.00,,---,0.00,VWS V14.01,2013-03-15 20:14:00,
2013-03-15 16:15:00,55.0,21.7,29.97,SSE,158,0.0,2.7,27,0.00,,---,0.00,VWS V14.01,2013-03-15 20:15:00,
2013-03-15 16:16:00,55.2,21.8,29.97,East,90,0.0,2.0,27,0.00,,---,0.00,VWS V14.01,2013-03-15 20:16:00,
2013-03-15 16:17:00,55.2,21.8,29.97,SSE,158,4.0,4.0,27,0.00,,---,0.00,VWS V14.01,2013-03-15 20:17:00,
2013-03-15 16:18:00,55.2,21.8,29.97,ESE,112,0.9,4.0,27,0.00,,---,0.00,VWS V14.01,2013-03-15 20:18:00,
2013-03-15 16:19:00,55.2,21.8,29.97,ESE,112,0.9,2.5,27,0.00,,---,0.00,VWS V14.01,2013-03-15 20:19:00,
2013-03-15 16:20:00,55.2,21.8,29.97,SSE,158,0.0,0.9,27,0.00,,---,0.00,VWS V14.01,2013-03-15 20:20:00,
2013-03-15 16:21:00,55.2,21.8,29.97,ESE,112,0.0,0.0,27,0.00,,---,0.00,VWS V14.01,2013-03-15 20:21:00,
2013-03-15 16:22:00,55.2,21.8,29.97,SW,225,0.0,2.0,27,0.00,,---,0.00,VWS V14.01,2013-03-15 20:22:00,
2013-03-15 16:23:00,55.4,22.0,29.97,SE,135,0.0,0.0,27,0.00,,---,0.00,VWS V14.01,2013-03-15 20:23:00,
2013-03-15 16:24:00,55.4,22.0,29.97,NW,315,1.3,1.3,27,0.00,,---,0.00,VWS V14.01,2013-03-15 20:24:00,
2013-03-15 16:25:00,55.4,22.0,29.97,NE,45,2.5,2.5,27,0.00,,---,0.00,VWS V14.01,2013-03-15 20:25:00,
2013-03-15 16:26:00,55.4,22.0,29.97,East,90,0.0,2.5,27,0.00,,---,0.00,VWS V14.01,2013-03-15 20:26:00,
2013-03-15 16:27:00,55.4,22.0,29.97,NE,45,2.2,2.2,27,0.00,,---,0.00,VWS V14.01,2013-03-15 20:27:00,
2013-03-15 16:28:00,55.4,22.0,29.97,East,90,0.9,2.2,27,0.00,,---,0.00,VWS V14.01,2013-03-15 20:28:00,
2013-03-15 16:29:00,55.2,21.8,29.97,East,90,0.0,0.9,27,0.00,,---,0.00,VWS V14.01,2013-03-15 20:29:00,
2013-03-15 16:30:00,55.2,21.8,29.97,ENE,68,0.0,0.0,27,0.00,,---,0.00,VWS V14.01,2013-03-15 20:30:00,
2013-03-15 16:31:00,55.2,21.8,29.97,ESE,112,0.0,0.0,27,0.00,,---,0.00,VWS V14.01,2013-03-15 20:31:00,
2013-03-15 16:32:00,55.2,21.8,29.97,ESE,112,0.0,0.0,27,0.00,,---,0.00,VWS V14.01,2013-03-15 20:32:00,
2013-03-15 16:33:00,55.2,21.8,29.97,ESE,112,0.0,0.0,27,0.00,,---,0.00,VWS V14.01,2013-03-15 20:33:00,
2013-03-15 16:34:00,55.2,21.8,29.94,SSW,202,0.9,0.9,27,0.00,,---,0.00,VWS V14.01,2013-03-15 20:34:00,
2013-03-15 16:35:00,55.2,21.8,29.94,ESE,112,0.0,0.9,27,0.00,,---,0.00,VWS V14.01,2013-03-15 20:35:00,
2013-03-15 16:36:00,55.2,21.8,29.94,ESE,112,0.0,0.0,27,0.00,,---,0.00,VWS V14.01,2013-03-15 20:36:00,
2013-03-15 16:37:00,55.2,21.8,29.94,ESE,112,0.0,0.0,27,0.00,,---,0.00,VWS V14.01,2013-03-15 20:37:00,
2013-03-15 16:38:00,55.2,21.8,29.94,NNE,22,0.0,0.0,27,0.00,,---,0.00,VWS V14.01,2013-03-15 20:38:00,
2013-03-15 16:39:00,55.2,21.8,29.94,ESE,112,0.0,0.0,27,0.00,,---,0.00,VWS V14.01,2013-03-15 20:39:00,
2013-03-15 16:40:00,55.2,21.8,29.94,ESE,112,0.0,0.0,27,0.00,,---,0.00,VWS V14.01,2013-03-15 20:40:00,
2013-03-15 16:41:00,55.2,21.8,29.94,ESE,112,0.0,0.0,27,0.00,,---,0.00,VWS V14.01,2013-03-15 20:41:00,
2013-03-15 16:42:00,55.2,21.8,29.94,ESE,112,0.0,0.0,27,0.00,,---,0.00,VWS V14.01,2013-03-15 20:42:00,
2013-03-15 16:43:00,55.0,21.7,29.94,ESE,112,0.9,2.7,27,0.00,,---,0.00,VWS V14.01,2013-03-15 20:43:00,
2013-03-15 16:44:00,55.0,21.7,29.94,ESE,112,0.0,0.9,27,0.00,,---,0.00,VWS V14.01,2013-03-15 20:44:00,
2013-03-15 16:45:00,55.0,21.7,29.94,ESE,112,0.0,0.0,27,0.00,,---,0.00,VWS V14.01,2013-03-15 20:45:00,
2013-03-15 16:46:00,55.0,21.7,29.94,ESE,112,0.0,1.6,27,0.00,,---,0.00,VWS V14.01,2013-03-15 20:46:00,
2013-03-15 16:47:00,55.0,21.7,29.94,ESE,112,0.0,1.6,27,0.00,,---,0.00,VWS V14.01,2013-03-15 20:47:00,
2013-03-15 16:48:00,55.0,21.7,29.94,WNW,292,0.0,2.0,27,0.00,,---,0.00,VWS V14.01,2013-03-15 20:48:00,
2013-03-15 16:49:00,55.0,21.7,29.94,NNW,338,1.1,2.5,27,0.00,,---,0.00,VWS V14.01,2013-03-15 20:49:00,
2013-03-15 16:50:00,55.0,21.7,29.94,ESE,112,1.1,2.0,27,0.00,,---,0.00,VWS V14.01,2013-03-15 20:50:00,
2013-03-15 16:51:00,55.0,21.7,29.94,SSW,202,0.9,4.3,27,0.00,,---,0.00,VWS V14.01,2013-03-15 20:51:00,
2013-03-15 16:52:00,55.0,21.7,29.94,SE,135,0.0,1.1,27,0.00,,---,0.00,VWS V14.01,2013-03-15 20:52:00,
2013-03-15 16:53:00,55.0,21.7,29.94,East,90,0.0,0.0,27,0.00,,---,0.00,VWS V14.01,2013-03-15 20:53:00,
2013-03-15 16:54:00,55.0,21.7,29.94,ESE,112,1.1,1.1,27,0.00,,---,0.00,VWS V14.01,2013-03-15 20:54:00,
2013-03-15 16:55:00,55.0,21.7,29.94,ENE,68,0.9,1.1,27,0.00,,---,0.00,VWS V14.01,2013-03-15 20:55:00,
2013-03-15 16:56:00,55.0,21.7,29.94,ENE,68,0.0,1.1,27,0.00,,---,0.00,VWS V14.01,2013-03-15 20:56:00,
2013-03-15 16:57:00,55.0,21.7,29.94,ENE,68,0.0,0.0,27,0.00,,---,0.00,VWS V14.01,2013-03-15 20:57:00,
2013-03-15 16:58:00,55.0,21.7,29.94,NNW,338,2.7,2.7,27,0.00,,---,0.00,VWS V14.01,2013-03-15 20:58:00,
2013-03-15 16:59:00,55.0,21.7,29.94,ESE,112,1.1,2.7,27,0.00,,---,0.00,VWS V14.01,2013-03-15 20:59:00,
2013-03-15 17:00:00,55.0,21.7,29.94,ESE,112,0.0,1.1,27,0.00,,---,0.00,VWS V14.01,2013-03-15 21:00:00,
2013-03-15 17:01:00,55.0,21.7,29.94,ESE,112,0.0,0.0,27,0.00,,---,0.00,VWS V14.01,2013-03-15 21:01:00,
2013-03-15 17:02:00,55.0,21.7,29.94,West,270,1.6,2.0,27,0.00,,---,0.00,VWS V14.01,2013-03-15 21:02:00,
2013-03-15 17:03:00,55.0,21.7,29.94,WSW,248,0.9,1.3,27,0.00,,---,0.00,VWS V14.01,2013-03-15 21:03:00,
2013-03-15 17:04:00,55.0,21.7,29.94,WNW,292,0.0,1.3,27,0.00,,---,0.00,VWS V14.01,2013-03-15 21:04:00,
2013-03-15 17:05:00,55.2,21.8,29.94,West,270,0.0,0.0,27,0.00,,---,0.00,VWS V14.01,2013-03-15 21:05:00,
2013-03-15 17:06:00,55.2,21.8,29.94,West,270,0.0,0.0,27,0.00,,---,0.00,VWS V14.01,2013-03-15 21:06:00,
2013-03-15 17:07:00,55.0,21.7,29.94,SSE,158,0.0,0.0,27,0.00,,---,0.00,VWS V14.01,2013-03-15 21:07:00,
2013-03-15 17:08:00,55.0,21.7,29.94,East,90,0.0,0.0,27,0.00,,---,0.00,VWS V14.01,2013-03-15 21:08:00,
2013-03-15 17:09:00,55.0,21.7,29.94,East,90,0.0,0.0,27,0.00,,---,0.00,VWS V14.01,2013-03-15 21:09:00,
2013-03-15 17:10:00,55.0,21.7,29.94,East,90,1.1,1.1,27,0.00,,---,0.00,VWS V14.01,2013-03-15 21:10:00,
2013-03-15 17:11:00,55.0,21.7,29.94,ESE,112,2.0,2.0,27,0.00,,---,0.00,VWS V14.01,2013-03-15 21:11:00,
2013-03-15 17:12:00,55.2,21.8,29.94,ESE,112,0.0,2.0,27,0.00,,---,0.00,VWS V14.01,2013-03-15 21:12:00,
2013-03-15 17:13:00,55.2,21.8,29.94,NNE,22,0.0,0.0,27,0.00,,---,0.00,VWS V14.01,2013-03-15 21:13:00,
2013-03-15 17:14:00,55.2,21.8,29.94,East,90,1.3,1.6,27,0.00,,---,0.00,VWS V14.01,2013-03-15 21:14:00,
2013-03-15 17:15:00,55.0,22.5,29.94,East,90,0.0,1.6,28,0.00,,---,0.00,VWS V14.01,2013-03-15 21:15:00,
2013-03-15 17:16:00,55.0,22.5,29.94,East,90,0.0,0.0,28,0.00,,---,0.00,VWS V14.01,2013-03-15 21:16:00,
2013-03-15 17:17:00,55.0,22.5,29.94,East,90,0.0,0.0,28,0.00,,---,0.00,VWS V14.01,2013-03-15 21:17:00,
2013-03-15 17:18:00,55.0,22.5,29.94,East,90,0.0,0.0,28,0.00,,---,0.00,VWS V14.01,2013-03-15 21:18:00,
2013-03-15 17:19:00,55.0,22.5,29.94,ESE,112,0.0,0.0,28,0.00,,---,0.00,VWS V14.01,2013-03-15 21:19:00,
2013-03-15 17:20:00,54.9,22.4,29.94,ESE,112,0.0,0.0,28,0.00,,---,0.00,VWS V14.01,2013-03-15 21:20:00,
2013-03-15 17:21:00,54.9,22.4,29.94,ESE,112,0.0,0.0,28,0.00,,---,0.00,VWS V14.01,2013-03-15 21:21:00,
2013-03-15 17:22:00,54.9,22.4,29.94,ESE,112,0.0,0.0,28,0.00,,---,0.00,VWS V14.01,2013-03-15 21:22:00,
2013-03-15 17:23:00,54.7,22.2,29.94,East,90,1.6,2.0,28,0.00,,---,0.00,VWS V14.01,2013-03-15 21:23:00,
2013-03-15 17:24:00,54.7,22.2,29.94,East,90,0.0,1.6,28,0.00,,---,0.00,VWS V14.01,2013-03-15 21:24:00,
2013-03-15 17:25:00,54.7,22.2,29.94,East,90,0.0,0.0,28,0.00,,---,0.00,VWS V14.01,2013-03-15 21:25:00,
2013-03-15 17:26:00,54.7,22.2,29.94,East,90,0.0,0.0,28,0.00,,---,0.00,VWS V14.01,2013-03-15 21:26:00,
2013-03-15 17:27:00,54.7,22.2,29.94,East,90,0.0,0.0,28,0.00,,---,0.00,VWS V14.01,2013-03-15 21:27:00,
2013-03-15 17:28:00,54.7,22.2,29.94,East,90,0.0,0.0,28,0.00,,---,0.00,VWS V14.01,2013-03-15 21:28:00,
2013-03-15 17:29:00,54.7,22.2,29.94,East,90,0.0,0.0,28,0.00,,---,0.00,VWS V14.01,2013-03-15 21:29:00,
2013-03-15 17:30:00,54.7,22.2,29.94,WNW,292,0.0,0.0,28,0.00,,---,0.00,VWS V14.01,2013-03-15 21:30:00,
2013-03-15 17:31:00,54.5,22.1,29.94,WNW,292,0.0,0.0,28,0.00,,---,0.00,VWS V14.01,2013-03-15 21:31:00,
2013-03-15 17:32:00,54.5,22.1,29.94,WNW,292,0.0,0.0,28,0.00,,---,0.00,VWS V14.01,2013-03-15 21:32:00,
2013-03-15 17:33:00,54.5,22.1,29.94,East,90,0.0,0.0,28,0.00,,---,0.00,VWS V14.01,2013-03-15 21:33:00,
2013-03-15 17:34:00,54.3,21.9,29.91,ENE,68,0.0,0.0,28,0.00,,---,0.00,VWS V14.01,2013-03-15 21:34:00,
2013-03-15 17:35:00,54.3,21.9,29.91,East,90,0.0,0.0,28,0.00,,---,0.00,VWS V14.01,2013-03-15 21:35:00,
2013-03-15 17:36:00,54.3,21.9,29.91,NNW,338,0.0,0.0,28,0.00,,---,0.00,VWS V14.01,2013-03-15 21:36:00,
2013-03-15 17:37:00,54.1,21.8,29.91,NNW,338,0.0,0.0,28,0.00,,---,0.00,VWS V14.01,2013-03-15 21:37:00,
2013-03-15 17:38:00,54.1,21.8,29.91,NNW,338,0.0,0.0,28,0.00,,---,0.00,VWS V14.01,2013-03-15 21:38:00,
2013-03-15 17:39:00,54.0,21.6,29.91,East,90,0.0,0.0,28,0.00,,---,0.00,VWS V14.01,2013-03-15 21:39:00,
2013-03-15 17:40:00,54.0,21.6,29.91,East,90,0.0,0.0,28,0.00,,---,0.00,VWS V14.01,2013-03-15 21:40:00,
2013-03-15 17:41:00,54.0,21.6,29.91,WNW,292,0.0,0.0,28,0.00,,---,0.00,VWS V14.01,2013-03-15 21:41:00,
2013-03-15 17:42:00,54.0,21.6,29.91,ESE,112,0.0,0.0,28,0.00,,---,0.00,VWS V14.01,2013-03-15 21:42:00,
2013-03-15 17:43:00,53.8,21.5,29.91,ESE,112,0.0,0.0,28,0.00,,---,0.00,VWS V14.01,2013-03-15 21:43:00,
2013-03-15 17:44:00,53.8,21.5,29.91,ESE,112,0.0,0.0,28,0.00,,---,0.00,VWS V14.01,2013-03-15 21:44:00,
2013-03-15 17:45:00,53.8,21.5,29.91,ESE,112,0.0,0.0,28,0.00,,---,0.00,VWS V14.01,2013-03-15 21:45:00,
2013-03-15 17:46:00,53.8,21.5,29.91,ESE,112,0.0,0.0,28,0.00,,---,0.00,VWS V14.01,2013-03-15 21:46:00,
2013-03-15 17:47:00,53.6,21.3,29.91,ESE,112,0.0,0.0,28,0.00,,---,0.00,VWS V14.01,2013-03-15 21:47:00,
2013-03-15 17:48:00,53.6,21.3,29.91,ESE,112,0.0,0.0,28,0.00,,---,0.00,VWS V14.01,2013-03-15 21:48:00,
2013-03-15 17:49:00,53.6,21.3,29.91,ENE,68,0.0,0.0,28,0.00,,---,0.00,VWS V14.01,2013-03-15 21:49:00,
2013-03-15 17:50:00,53.6,21.3,29.91,ESE,112,0.0,0.0,28,0.00,,---,0.00,VWS V14.01,2013-03-15 21:50:00,
2013-03-15 17:51:00,53.4,21.1,29.91,ESE,112,0.0,0.0,28,0.00,,---,0.00,VWS V14.01,2013-03-15 21:51:00,
2013-03-15 17:52:00,53.4,21.1,29.91,ESE,112,0.0,0.0,28,0.00,,---,0.00,VWS V14.01,2013-03-15 21:52:00,
2013-03-15 17:53:00,53.2,21.0,29.91,ESE,112,0.0,0.0,28,0.00,,---,0.00,VWS V14.01,2013-03-15 21:53:00,
2013-03-15 17:54:00,53.1,20.8,29.91,ESE,112,0.0,0.0,28,0.00,,---,0.00,VWS V14.01,2013-03-15 21:54:00,
2013-03-15 17:55:00,53.1,20.8,29.91,ESE,112,0.0,0.0,28,0.00,,---,0.00,VWS V14.01,2013-03-15 21:55:00,
2013-03-15 17:56:00,52.9,20.7,29.91,ESE,112,0.0,0.0,28,0.00,,---,0.00,VWS V14.01,2013-03-15 21:56:00,
2013-03-15 17:57:00,52.9,20.7,29.91,ESE,112,0.0,0.0,28,0.00,,---,0.00,VWS V14.01,2013-03-15 21:57:00,
2013-03-15 17:58:00,52.7,20.5,29.91,ESE,112,0.0,0.0,28,0.00,,---,0.00,VWS V14.01,2013-03-15 21:58:00,
2013-03-15 17:59:00,52.7,20.5,29.91,ESE,112,0.0,0.0,28,0.00,,---,0.00,VWS V14.01,2013-03-15 21:59:00,
2013-03-15 18:00:00,52.5,20.4,29.91,ESE,112,0.0,0.0,28,0.00,,---,0.00,VWS V14.01,2013-03-15 22:00:00,
2013-03-15 18:01:00,52.5,20.4,29.91,ESE,112,0.0,0.0,28,0.00,,---,0.00,VWS V14.01,2013-03-15 22:01:00,
2013-03-15 18:02:00,52.5,20.4,29.91,ESE,112,0.0,0.0,28,0.00,,---,0.00,VWS V14.01,2013-03-15 22:02:00,
2013-03-15 18:03:00,52.3,20.2,29.91,ESE,112,0.0,0.0,28,0.00,,---,0.00,VWS V14.01,2013-03-15 22:03:00,
2013-03-15 18:04:00,52.3,20.2,29.91,ESE,112,0.0,0.0,28,0.00,,---,0.00,VWS V14.01,2013-03-15 22:04:00,
2013-03-15 18:05:00,52.3,20.2,29.91,ESE,112,0.0,0.0,28,0.00,,---,0.00,VWS V14.01,2013-03-15 22:05:00,
2013-03-15 18:06:00,52.2,20.1,29.91,ESE,112,0.0,0.0,28,0.00,,---,0.00,VWS V14.01,2013-03-15 22:06:00,
2013-03-15 18:07:00,52.2,20.1,29.91,ESE,112,0.0,0.0,28,0.00,,---,0.00,VWS V14.01,2013-03-15 22:07:00,
2013-03-15 18:08:00,52.2,20.1,29.91,ESE,112,0.0,0.0,28,0.00,,---,0.00,VWS V14.01,2013-03-15 22:08:00,
2013-03-15 18:09:00,51.8,19.8,29.91,ESE,112,0.0,0.0,28,0.00,,---,0.00,VWS V14.01,2013-03-15 22:09:00,
2013-03-15 18:10:00,51.6,20.4,29.91,ESE,112,0.0,0.0,29,0.00,,---,0.00,VWS V14.01,2013-03-15 22:10:00,
2013-03-15 18:11:00,51.6,20.4,29.91,ESE,112,0.0,0.0,29,0.00,,---,0.00,VWS V14.01,2013-03-15 22:11:00,
2013-03-15 18:12:00,51.6,20.4,29.91,ESE,112,0.0,0.0,29,0.00,,---,0.00,VWS V14.01,2013-03-15 22:12:00,
2013-03-15 18:13:00,51.4,20.3,29.91,ESE,112,0.0,0.0,29,0.00,,---,0.00,VWS V14.01,2013-03-15 22:13:00,
2013-03-15 18:14:00,51.4,20.3,29.91,ESE,112,0.0,0.0,29,0.00,,---,0.00,VWS V14.01,2013-03-15 22:14:00,
2013-03-15 18:15:00,51.3,20.1,29.91,ESE,112,0.0,0.0,29,0.00,,---,0.00,VWS V14.01,2013-03-15 22:15:00,
2013-03-15 18:16:00,51.1,20.0,29.91,ESE,112,0.0,0.0,29,0.00,,---,0.00,VWS V14.01,2013-03-15 22:16:00,
2013-03-15 18:17:00,51.1,20.0,29.91,ESE,112,0.0,0.0,29,0.00,,---,0.00,VWS V14.01,2013-03-15 22:17:00,
2013-03-15 18:18:00,51.1,20.0,29.91,ESE,112,0.0,0.0,29,0.00,,---,0.00,VWS V14.01,2013-03-15 22:18:00,
2013-03-15 18:19:00,50.9,19.8,29.94,ESE,112,0.0,0.0,29,0.00,,---,0.00,VWS V14.01,2013-03-15 22:19:00,
2013-03-15 18:20:00,50.9,19.8,29.94,ESE,112,0.0,0.0,29,0.00,,---,0.00,VWS V14.01,2013-03-15 22:20:00,
2013-03-15 18:21:00,50.7,19.6,29.94,ESE,112,0.0,0.0,29,0.00,,---,0.00,VWS V14.01,2013-03-15 22:21:00,
2013-03-15 18:22:00,50.5,19.5,29.94,ESE,112,0.0,0.0,29,0.00,,---,0.00,VWS V14.01,2013-03-15 22:22:00,
2013-03-15 18:23:00,50.5,19.5,29.94,ESE,112,0.0,0.0,29,0.00,,---,0.00,VWS V14.01,2013-03-15 22:23:00,
2013-03-15 18:24:00,50.2,19.2,29.94,ESE,112,0.0,0.0,29,0.00,,---,0.00,VWS V14.01,2013-03-15 22:24:00,
2013-03-15 18:25:00,50.2,19.2,29.94,ESE,112,0.0,0.0,29,0.00,,---,0.00,VWS V14.01,2013-03-15 22:25:00,
2013-03-15 18:26:00,50.2,19.2,29.94,ESE,112,0.0,0.0,29,0.00,,---,0.00,VWS V14.01,2013-03-15 22:26:00,
2013-03-15 18:27:00,50.0,19.0,29.94,ESE,112,0.0,0.0,29,0.00,,---,0.00,VWS V14.01,2013-03-15 22:27:00,
2013-03-15 18:28:00,50.0,19.0,29.94,ESE,112,0.0,0.0,29,0.00,,---,0.00,VWS V14.01,2013-03-15 22:28:00,
2013-03-15 18:29:00,50.2,19.2,29.94,ESE,112,0.0,0.0,29,0.00,,---,0.00,VWS V14.01,2013-03-15 22:29:00,
2013-03-15 18:30:00,50.2,19.2,29.94,ESE,112,0.0,0.0,29,0.00,,---,0.00,VWS V14.01,2013-03-15 22:30:00,
2013-03-15 18:31:00,50.2,19.2,29.94,ESE,112,0.0,0.0,29,0.00,,---,0.00,VWS V14.01,2013-03-15 22:31:00,
2013-03-15 18:32:00,50.0,19.0,29.94,ESE,112,0.0,0.0,29,0.00,,---,0.00,VWS V14.01,2013-03-15 22:32:00,
2013-03-15 18:33:00,50.0,19.0,29.94,ESE,112,0.0,0.0,29,0.00,,---,0.00,VWS V14.01,2013-03-15 22:33:00,
2013-03-15 18:34:00,49.8,19.6,29.91,ESE,112,0.0,0.0,30,0.00,,---,0.00,VWS V14.01,2013-03-15 22:34:00,
2013-03-15 18:35:00,49.8,19.6,29.91,ESE,112,0.0,0.0,30,0.00,,---,0.00,VWS V14.01,2013-03-15 22:35:00,
2013-03-15 18:36:00,49.6,19.5,29.91,ESE,112,0.0,0.0,30,0.00,,---,0.00,VWS V14.01,2013-03-15 22:36:00,
2013-03-15 18:37:00,49.6,19.5,29.91,ESE,112,0.0,0.0,30,0.00,,---,0.00,VWS V14.01,2013-03-15 22:37:00,
2013-03-15 18:38:00,49.6,19.5,29.91,ESE,112,0.0,0.0,30,0.00,,---,0.00,VWS V14.01,2013-03-15 22:38:00,
2013-03-15 18:39:00,49.5,19.3,29.91,ESE,112,0.0,0.0,30,0.00,,---,0.00,VWS V14.01,2013-03-15 22:39:00,
2013-03-15 18:40:00,49.5,19.3,29.91,ESE,112,0.0,0.0,30,0.00,,---,0.00,VWS V14.01,2013-03-15 22:40:00,
2013-03-15 18:41:00,49.5,19.3,29.91,ESE,112,0.0,0.0,30,0.00,,---,0.00,VWS V14.01,2013-03-15 22:41:00,
2013-03-15 18:42:00,49.3,19.2,29.91,ESE,112,0.0,0.0,30,0.00,,---,0.00,VWS V14.01,2013-03-15 22:42:00,
2013-03-15 18:43:00,49.1,19.0,29.91,ESE,112,0.0,0.0,30,0.00,,---,0.00,VWS V14.01,2013-03-15 22:43:00,
2013-03-15 18:44:00,49.1,19.0,29.91,ESE,112,0.0,0.0,30,0.00,,---,0.00,VWS V14.01,2013-03-15 22:44:00,
2013-03-15 18:45:00,48.9,18.9,29.91,ESE,112,0.0,0.0,30,0.00,,---,0.00,VWS V14.01,2013-03-15 22:45:00,
2013-03-15 18:46:00,48.7,18.7,29.91,ESE,112,0.0,0.0,30,0.00,,---,0.00,VWS V14.01,2013-03-15 22:46:00,
2013-03-15 18:47:00,48.7,18.7,29.91,ESE,112,0.0,0.0,30,0.00,,---,0.00,VWS V14.01,2013-03-15 22:47:00,
2013-03-15 18:48:00,48.6,18.5,29.91,ESE,112,0.0,0.0,30,0.00,,---,0.00,VWS V14.01,2013-03-15 22:48:00,
2013-03-15 18:49:00,48.4,19.2,29.91,ESE,112,0.0,0.0,31,0.00,,---,0.00,VWS V14.01,2013-03-15 22:49:00,
2013-03-15 18:50:00,48.4,19.2,29.91,ESE,112,0.0,0.0,31,0.00,,---,0.00,VWS V14.01,2013-03-15 22:50:00,
2013-03-15 18:51:00,48.2,19.0,29.91,ESE,112,0.0,0.0,31,0.00,,---,0.00,VWS V14.01,2013-03-15 22:51:00,
2013-03-15 18:52:00,48.0,18.8,29.91,ESE,112,0.0,0.0,31,0.00,,---,0.00,VWS V14.01,2013-03-15 22:52:00,
2013-03-15 18:53:00,47.8,18.7,29.91,ESE,112,0.0,0.0,31,0.00,,---,0.00,VWS V14.01,2013-03-15 22:53:00,
2013-03-15 18:54:00,47.5,18.4,29.91,ESE,112,0.0,0.0,31,0.00,,---,0.00,VWS V14.01,2013-03-15 22:54:00,
2013-03-15 18:55:00,47.5,18.4,29.91,ESE,112,0.0,0.0,31,0.00,,---,0.00,VWS V14.01,2013-03-15 22:55:00,
2013-03-15 18:56:00,47.3,18.2,29.91,ESE,112,0.0,0.0,31,0.00,,---,0.00,VWS V14.01,2013-03-15 22:56:00,
2013-03-15 18:57:00,47.3,18.2,29.91,ESE,112,0.0,0.0,31,0.00,,---,0.00,VWS V14.01,2013-03-15 22:57:00,
2013-03-15 18:58:00,47.1,18.1,29.91,ESE,112,0.0,0.0,31,0.00,,---,0.00,VWS V14.01,2013-03-15 22:58:00,
2013-03-15 18:59:00,47.1,18.8,29.91,ESE,112,0.0,0.0,32,0.00,,---,0.00,VWS V14.01,2013-03-15 22:59:00,
2013-03-15 19:00:00,46.9,18.6,29.91,ESE,112,0.0,0.0,32,0.00,,---,0.00,VWS V14.01,2013-03-15 23:00:00,
2013-03-15 19:01:00,46.9,18.6,29.91,ESE,112,0.0,0.0,32,0.00,,---,0.00,VWS V14.01,2013-03-15 23:01:00,
2013-03-15 19:02:00,46.9,18.6,29.91,ESE,112,0.0,0.0,32,0.00,,---,0.00,VWS V14.01,2013-03-15 23:02:00,
2013-03-15 19:03:00,46.8,18.5,29.91,ESE,112,0.0,0.0,32,0.00,,---,0.00,VWS V14.01,2013-03-15 23:03:00,
2013-03-15 19:04:00,46.8,18.5,29.94,ESE,112,0.0,0.0,32,0.00,,---,0.00,VWS V14.01,2013-03-15 23:04:00,
2013-03-15 19:05:00,46.8,18.5,29.94,ESE,112,0.0,0.0,32,0.00,,---,0.00,VWS V14.01,2013-03-15 23:05:00,
2013-03-15 19:06:00,46.6,19.0,29.94,ESE,112,0.0,0.0,33,0.00,,---,0.00,VWS V14.01,2013-03-15 23:06:00,
2013-03-15 19:07:00,46.4,18.9,29.94,ESE,112,0.0,0.0,33,0.00,,---,0.00,VWS V14.01,2013-03-15 23:07:00,
2013-03-15 19:08:00,46.4,18.9,29.94,ESE,112,0.0,0.0,33,0.00,,---,0.00,VWS V14.01,2013-03-15 23:08:00,
2013-03-15 19:09:00,46.0,19.3,29.94,ESE,112,0.0,0.0,34,0.00,,---,0.00,VWS V14.01,2013-03-15 23:09:00,
2013-03-15 19:10:00,46.0,19.3,29.94,ESE,112,0.0,0.0,34,0.00,,---,0.00,VWS V14.01,2013-03-15 23:10:00,
2013-03-15 19:11:00,45.9,19.1,29.94,ESE,112,0.0,0.0,34,0.00,,---,0.00,VWS V14.01,2013-03-15 23:11:00,
2013-03-15 19:12:00,45.9,19.1,29.94,ESE,112,0.0,0.0,34,0.00,,---,0.00,VWS V14.01,2013-03-15 23:12:00,
2013-03-15 19:13:00,45.7,19.6,29.94,ESE,112,0.0,0.0,35,0.00,,---,0.00,VWS V14.01,2013-03-15 23:13:00,
2013-03-15 19:14:00,45.5,19.5,29.94,ESE,112,0.0,0.0,35,0.00,,---,0.00,VWS V14.01,2013-03-15 23:14:00,
2013-03-15 19:15:00,45.3,19.3,29.94,ESE,112,0.0,0.0,35,0.00,,---,0.00,VWS V14.01,2013-03-15 23:15:00,
2013-03-15 19:16:00,45.3,19.3,29.94,ESE,112,0.0,0.0,35,0.00,,---,0.00,VWS V14.01,2013-03-15 23:16:00,
2013-03-15 19:17:00,45.1,19.1,29.94,ESE,112,0.0,0.0,35,0.00,,---,0.00,VWS V14.01,2013-03-15 23:17:00,
2013-03-15 19:18:00,45.0,19.6,29.94,ESE,112,0.0,0.0,36,0.00,,---,0.00,VWS V14.01,2013-03-15 23:18:00,
2013-03-15 19:19:00,44.8,19.5,29.91,ESE,112,0.0,0.0,36,0.00,,---,0.00,VWS V14.01,2013-03-15 23:19:00,
2013-03-15 19:20:00,44.8,19.5,29.91,ESE,112,0.0,0.0,36,0.00,,---,0.00,VWS V14.01,2013-03-15 23:20:00,
2013-03-15 19:21:00,44.6,19.3,29.91,ESE,112,0.0,0.0,36,0.00,,---,0.00,VWS V14.01,2013-03-15 23:21:00,
2013-03-15 19:22:00,44.6,19.3,29.91,ESE,112,0.0,0.0,36,0.00,,---,0.00,VWS V14.01,2013-03-15 23:22:00,
2013-03-15 19:23:00,44.6,19.3,29.91,ESE,112,0.0,0.0,36,0.00,,---,0.00,VWS V14.01,2013-03-15 23:23:00,
2013-03-15 19:24:00,44.4,19.8,29.91,ESE,112,0.0,0.0,37,0.00,,---,0.00,VWS V14.01,2013-03-15 23:24:00,
2013-03-15 19:25:00,44.2,19.6,29.91,ESE,112,0.0,0.0,37,0.00,,---,0.00,VWS V14.01,2013-03-15 23:25:00,
2013-03-15 19:26:00,44.2,19.6,29.91,ESE,112,0.0,0.0,37,0.00,,---,0.00,VWS V14.01,2013-03-15 23:26:00,
2013-03-15 19:27:00,44.2,19.6,29.91,ESE,112,0.0,0.0,37,0.00,,---,0.00,VWS V14.01,2013-03-15 23:27:00,
2013-03-15 19:28:00,44.2,20.3,29.91,ESE,112,0.0,0.0,38,0.00,,---,0.00,VWS V14.01,2013-03-15 23:28:00,
2013-03-15 19:29:00,44.1,20.1,29.91,ESE,112,0.0,0.0,38,0.00,,---,0.00,VWS V14.01,2013-03-15 23:29:00,
2013-03-15 19:30:00,44.1,20.1,29.91,ESE,112,0.0,0.0,38,0.00,,---,0.00,VWS V14.01,2013-03-15 23:30:00,
2013-03-15 19:31:00,44.1,20.1,29.91,ESE,112,0.0,0.0,38,0.00,,---,0.00,VWS V14.01,2013-03-15 23:31:00,
2013-03-15 19:32:00,43.9,19.9,29.91,ESE,112,0.0,0.0,38,0.00,,---,0.00,VWS V14.01,2013-03-15 23:32:00,
2013-03-15 19:33:00,43.9,19.9,29.91,ESE,112,0.0,0.0,38,0.00,,---,0.00,VWS V14.01,2013-03-15 23:33:00,
2013-03-15 19:34:00,43.9,19.9,29.94,ESE,112,0.0,0.0,38,0.00,,---,0.00,VWS V14.01,2013-03-15 23:34:00,
2013-03-15 19:35:00,43.7,19.8,29.94,ESE,112,0.0,0.0,38,0.00,,---,0.00,VWS V14.01,2013-03-15 23:35:00,
2013-03-15 19:36:00,43.7,19.8,29.94,ESE,112,0.0,0.0,38,0.00,,---,0.00,VWS V14.01,2013-03-15 23:36:00,
2013-03-15 19:37:00,43.7,19.8,29.94,ESE,112,0.0,0.0,38,0.00,,---,0.00,VWS V14.01,2013-03-15 23:37:00,
2013-03-15 19:38:00,43.5,19.6,29.94,ESE,112,0.0,0.0,38,0.00,,---,0.00,VWS V14.01,2013-03-15 23:38:00,
2013-03-15 19:39:00,43.3,19.5,29.94,ESE,112,0.0,0.0,38,0.00,,---,0.00,VWS V14.01,2013-03-15 23:39:00,
2013-03-15 19:40:00,43.3,19.5,29.94,ESE,112,0.0,0.0,38,0.00,,---,0.00,VWS V14.01,2013-03-15 23:40:00,
2013-03-15 19:41:00,43.3,19.5,29.94,ESE,112,0.0,0.0,38,0.00,,---,0.00,VWS V14.01,2013-03-15 23:41:00,
2013-03-15 19:42:00,43.3,19.5,29.94,ESE,112,0.0,0.0,38,0.00,,---,0.00,VWS V14.01,2013-03-15 23:42:00,
2013-03-15 19:43:00,43.2,19.3,29.94,ESE,112,0.0,0.0,38,0.00,,---,0.00,VWS V14.01,2013-03-15 23:43:00,
2013-03-15 19:44:00,43.2,19.3,29.94,ESE,112,0.0,0.0,38,0.00,,---,0.00,VWS V14.01,2013-03-15 23:44:00,
2013-03-15 19:45:00,43.0,19.1,29.94,ESE,112,0.0,0.0,38,0.00,,---,0.00,VWS V14.01,2013-03-15 23:45:00,
2013-03-15 19:46:00,43.0,19.1,29.94,ESE,112,0.0,0.0,38,0.00,,---,0.00,VWS V14.01,2013-03-15 23:46:00,
2013-03-15 19:47:00,42.8,19.0,29.94,ESE,112,0.0,0.0,38,0.00,,---,0.00,VWS V14.01,2013-03-15 23:47:00,
2013-03-15 19:48:00,42.8,19.0,29.94,ESE,112,0.0,0.0,38,0.00,,---,0.00,VWS V14.01,2013-03-15 23:48:00,
2013-03-15 19:49:00,42.8,19.0,29.94,ESE,112,0.0,0.0,38,0.00,,---,0.00,VWS V14.01,2013-03-15 23:49:00,
2013-03-15 19:50:00,42.6,19.4,29.94,ESE,112,0.0,0.0,39,0.00,,---,0.00,VWS V14.01,2013-03-15 23:50:00,
2013-03-15 19:51:00,42.6,19.4,29.94,ESE,112,0.0,0.0,39,0.00,,---,0.00,VWS V14.01,2013-03-15 23:51:00,
2013-03-15 19:52:00,42.6,19.4,29.94,ESE,112,0.0,0.0,39,0.00,,---,0.00,VWS V14.01,2013-03-15 23:52:00,
2013-03-15 19:53:00,42.4,19.2,29.94,ESE,112,0.0,0.0,39,0.00,,---,0.00,VWS V14.01,2013-03-15 23:53:00,
2013-03-15 19:54:00,42.4,19.2,29.94,ESE,112,0.0,0.0,39,0.00,,---,0.00,VWS V14.01,2013-03-15 23:54:00,
2013-03-15 19:55:00,42.4,19.2,29.94,ESE,112,0.0,0.0,39,0.00,,---,0.00,VWS V14.01,2013-03-15 23:55:00,
2013-03-15 19:56:00,42.4,19.2,29.94,ESE,112,0.0,0.0,39,0.00,,---,0.00,VWS V14.01,2013-03-15 23:56:00,
2013-03-15 19:57:00,42.4,19.2,29.94,ESE,112,0.0,0.0,39,0.00,,---,0.00,VWS V14.01,2013-03-15 23:57:00,
2013-03-15 19:58:00,42.4,19.2,29.94,ESE,112,0.0,0.0,39,0.00,,---,0.00,VWS V14.01,2013-03-15 23:58:00,
2013-03-15 19:59:00,42.4,19.2,29.94,ESE,112,0.0,0.0,39,0.00,,---,0.00,VWS V14.01,2013-03-15 23:59:00,
2013-03-15 20:00:00,42.3,19.1,29.94,ESE,112,0.0,0.0,39,0.00,,---,0.00,VWS V14.01,2013-03-16 00:00:00,
2013-03-15 20:01:00,42.3,19.1,29.94,ESE,112,0.0,0.0,39,0.00,,---,0.00,VWS V14.01,2013-03-16 00:01:00,
2013-03-15 20:02:00,42.3,19.1,29.94,ESE,112,0.0,0.0,39,0.00,,---,0.00,VWS V14.01,2013-03-16 00:02:00,
2013-03-15 20:03:00,42.3,19.1,29.94,ESE,112,0.0,0.0,39,0.00,,---,0.00,VWS V14.01,2013-03-16 00:03:00,
2013-03-15 20:04:00,42.3,19.1,29.94,ESE,112,0.0,0.0,39,0.00,,---,0.00,VWS V14.01,2013-03-16 00:04:00,
2013-03-15 20:05:00,42.1,18.9,29.94,ESE,112,0.0,0.0,39,0.00,,---,0.00,VWS V14.01,2013-03-16 00:05:00,
2013-03-15 20:06:00,42.1,18.9,29.94,ESE,112,0.0,0.0,39,0.00,,---,0.00,VWS V14.01,2013-03-16 00:06:00,
2013-03-15 20:07:00,42.1,18.9,29.94,ESE,112,0.0,0.0,39,0.00,,---,0.00,VWS V14.01,2013-03-16 00:07:00,
2013-03-15 20:08:00,42.1,18.9,29.94,ESE,112,0.0,0.0,39,0.00,,---,0.00,VWS V14.01,2013-03-16 00:08:00,
2013-03-15 20:09:00,42.1,18.9,29.94,ESE,112,0.0,0.0,39,0.00,,---,0.00,VWS V14.01,2013-03-16 00:09:00,
2013-03-15 20:10:00,42.1,18.9,29.94,ESE,112,0.0,0.0,39,0.00,,---,0.00,VWS V14.01,2013-03-16 00:10:00,
2013-03-15 20:11:00,41.9,18.8,29.94,ESE,112,0.0,0.0,39,0.00,,---,0.00,VWS V14.01,2013-03-16 00:11:00,
2013-03-15 20:12:00,41.9,18.8,29.94,ESE,112,0.0,0.0,39,0.00,,---,0.00,VWS V14.01,2013-03-16 00:12:00,
2013-03-15 20:13:00,41.9,18.8,29.94,ESE,112,0.0,0.0,39,0.00,,---,0.00,VWS V14.01,2013-03-16 00:13:00,
2013-03-15 20:14:00,41.9,19.4,29.94,ESE,112,0.0,0.0,40,0.00,,---,0.00,VWS V14.01,2013-03-16 00:14:00,
2013-03-15 20:15:00,41.9,19.4,29.94,ESE,112,0.0,0.0,40,0.00,,---,0.00,VWS V14.01,2013-03-16 00:15:00,
2013-03-15 20:16:00,41.9,19.4,29.94,ESE,112,0.0,0.0,40,0.00,,---,0.00,VWS V14.01,2013-03-16 00:16:00,
2013-03-15 20:17:00,41.9,19.4,29.94,ESE,112,0.0,0.0,40,0.00,,---,0.00,VWS V14.01,2013-03-16 00:17:00,
2013-03-15 20:18:00,41.9,19.4,29.94,ESE,112,0.0,0.0,40,0.00,,---,0.00,VWS V14.01,2013-03-16 00:18:00,
2013-03-15 20:19:00,41.9,19.4,29.94,ESE,112,0.0,0.0,40,0.00,,---,0.00,VWS V14.01,2013-03-16 00:19:00,
2013-03-15 20:20:00,41.9,19.4,29.94,ESE,112,0.0,0.0,40,0.00,,---,0.00,VWS V14.01,2013-03-16 00:20:00,
2013-03-15 20:21:00,41.9,19.4,29.94,ESE,112,0.0,0.0,40,0.00,,---,0.00,VWS V14.01,2013-03-16 00:21:00,
2013-03-15 20:22:00,41.7,19.2,29.94,ESE,112,0.0,0.0,40,0.00,,---,0.00,VWS V14.01,2013-03-16 00:22:00,
2013-03-15 20:23:00,41.7,19.2,29.94,ESE,112,0.0,0.0,40,0.00,,---,0.00,VWS V14.01,2013-03-16 00:23:00,
2013-03-15 20:24:00,41.7,19.2,29.94,ESE,112,0.0,0.0,40,0.00,,---,0.00,VWS V14.01,2013-03-16 00:24:00,
2013-03-15 20:25:00,41.7,19.2,29.94,ESE,112,0.0,0.0,40,0.00,,---,0.00,VWS V14.01,2013-03-16 00:25:00,
2013-03-15 20:26:00,41.7,19.2,29.94,ESE,112,0.0,0.0,40,0.00,,---,0.00,VWS V14.01,2013-03-16 00:26:00,
2013-03-15 20:27:00,41.7,19.2,29.94,ESE,112,0.0,0.0,40,0.00,,---,0.00,VWS V14.01,2013-03-16 00:27:00,
2013-03-15 20:28:00,41.7,19.2,29.94,ESE,112,0.0,0.0,40,0.00,,---,0.00,VWS V14.01,2013-03-16 00:28:00,
2013-03-15 20:29:00,41.7,19.2,29.94,ESE,112,0.0,0.0,40,0.00,,---,0.00,VWS V14.01,2013-03-16 00:29:00,
2013-03-15 20:30:00,41.7,19.2,29.94,ESE,112,0.0,0.0,40,0.00,,---,0.00,VWS V14.01,2013-03-16 00:30:00,
2013-03-15 20:31:00,41.7,19.2,29.94,ESE,112,0.0,0.0,40,0.00,,---,0.00,VWS V14.01,2013-03-16 00:31:00,
2013-03-15 20:32:00,41.7,19.2,29.94,ESE,112,0.0,0.0,40,0.00,,---,0.00,VWS V14.01,2013-03-16 00:32:00,
2013-03-15 20:33:00,41.7,19.2,29.94,ESE,112,0.0,0.0,40,0.00,,---,0.00,VWS V14.01,2013-03-16 00:33:00,
2013-03-15 20:34:00,41.7,19.2,29.94,ESE,112,0.0,0.0,40,0.00,,---,0.00,VWS V14.01,2013-03-16 00:34:00,
2013-03-15 20:35:00,41.7,19.2,29.94,ESE,112,0.0,0.0,40,0.00,,---,0.00,VWS V14.01,2013-03-16 00:35:00,
2013-03-15 20:36:00,41.7,19.8,29.94,ESE,112,0.0,0.0,41,0.00,,---,0.00,VWS V14.01,2013-03-16 00:36:00,
2013-03-15 20:37:00,41.7,19.8,29.94,ESE,112,0.0,0.0,41,0.00,,---,0.00,VWS V14.01,2013-03-16 00:37:00,
2013-03-15 20:38:00,41.7,19.8,29.94,ESE,112,0.0,0.0,41,0.00,,---,0.00,VWS V14.01,2013-03-16 00:38:00,
2013-03-15 20:39:00,41.7,19.8,29.94,ESE,112,0.0,0.0,41,0.00,,---,0.00,VWS V14.01,2013-03-16 00:39:00,
2013-03-15 20:40:00,41.7,19.8,29.94,ESE,112,0.0,0.0,41,0.00,,---,0.00,VWS V14.01,2013-03-16 00:40:00,
2013-03-15 20:41:00,41.7,19.8,29.94,ESE,112,0.0,0.0,41,0.00,,---,0.00,VWS V14.01,2013-03-16 00:41:00,
2013-03-15 20:42:00,41.5,19.6,29.94,ESE,112,0.0,0.0,41,0.00,,---,0.00,VWS V14.01,2013-03-16 00:42:00,
2013-03-15 20:43:00,41.7,19.8,29.94,ESE,112,0.0,0.0,41,0.00,,---,0.00,VWS V14.01,2013-03-16 00:43:00,
2013-03-15 20:44:00,41.7,19.8,29.94,ESE,112,0.0,0.0,41,0.00,,---,0.00,VWS V14.01,2013-03-16 00:44:00,
2013-03-15 20:45:00,41.7,19.8,29.94,ESE,112,0.0,0.0,41,0.00,,---,0.00,VWS V14.01,2013-03-16 00:45:00,
2013-03-15 20:46:00,41.7,19.8,29.94,ESE,112,0.0,0.0,41,0.00,,---,0.00,VWS V14.01,2013-03-16 00:46:00,
2013-03-15 20:47:00,41.7,19.8,29.94,ESE,112,0.0,0.0,41,0.00,,---,0.00,VWS V14.01,2013-03-16 00:47:00,
2013-03-15 20:48:00,41.7,19.8,29.94,ESE,112,0.0,0.0,41,0.00,,---,0.00,VWS V14.01,2013-03-16 00:48:00,
2013-03-15 20:49:00,41.7,19.8,29.94,ESE,112,0.0,0.0,41,0.00,,---,0.00,VWS V14.01,2013-03-16 00:49:00,
2013-03-15 20:50:00,41.7,19.8,29.94,ESE,112,0.0,0.0,41,0.00,,---,0.00,VWS V14.01,2013-03-16 00:50:00,
2013-03-15 20:51:00,41.7,19.8,29.94,ESE,112,0.0,0.0,41,0.00,,---,0.00,VWS V14.01,2013-03-16 00:51:00,
2013-03-15 20:52:00,41.9,19.9,29.94,ESE,112,0.0,0.0,41,0.00,,---,0.00,VWS V14.01,2013-03-16 00:52:00,
2013-03-15 20:53:00,41.9,19.9,29.94,ESE,112,0.0,0.0,41,0.00,,---,0.00,VWS V14.01,2013-03-16 00:53:00,
2013-03-15 20:54:00,41.9,19.9,29.94,ESE,112,0.0,0.0,41,0.00,,---,0.00,VWS V14.01,2013-03-16 00:54:00,
2013-03-15 20:55:00,41.7,19.8,29.94,ESE,112,0.0,0.0,41,0.00,,---,0.00,VWS V14.01,2013-03-16 00:55:00,
2013-03-15 20:56:00,41.9,19.9,29.94,ESE,112,0.0,0.0,41,0.00,,---,0.00,VWS V14.01,2013-03-16 00:56:00,
2013-03-15 20:57:00,41.9,19.9,29.94,ESE,112,0.0,0.0,41,0.00,,---,0.00,VWS V14.01,2013-03-16 00:57:00,
2013-03-15 20:58:00,41.9,20.5,29.94,ESE,112,0.0,0.0,42,0.00,,---,0.00,VWS V14.01,2013-03-16 00:58:00,
2013-03-15 20:59:00,41.9,20.5,29.94,ESE,112,0.0,0.0,42,0.00,,---,0.00,VWS V14.01,2013-03-16 00:59:00,
2013-03-15 21:00:00,41.9,20.5,29.94,ESE,112,0.0,0.0,42,0.00,,---,0.00,VWS V14.01,2013-03-16 01:00:00,
2013-03-15 21:01:00,41.7,20.3,29.94,ESE,112,0.0,0.0,42,0.00,,---,0.00,VWS V14.01,2013-03-16 01:01:00,
2013-03-15 21:02:00,41.9,20.5,29.94,ESE,112,0.0,0.0,42,0.00,,---,0.00,VWS V14.01,2013-03-16 01:02:00,
2013-03-15 21:03:00,41.9,20.5,29.94,ESE,112,0.0,0.0,42,0.00,,---,0.00,VWS V14.01,2013-03-16 01:03:00,
2013-03-15 21:04:00,41.7,20.3,29.94,ESE,112,0.0,0.0,42,0.00,,---,0.00,VWS V14.01,2013-03-16 01:04:00,
2013-03-15 21:05:00,41.7,20.3,29.94,ESE,112,0.0,0.0,42,0.00,,---,0.00,VWS V14.01,2013-03-16 01:05:00,
2013-03-15 21:06:00,41.7,20.3,29.94,ESE,112,0.0,0.0,42,0.00,,---,0.00,VWS V14.01,2013-03-16 01:06:00,
2013-03-15 21:07:00,41.7,20.3,29.94,ESE,112,0.0,0.0,42,0.00,,---,0.00,VWS V14.01,2013-03-16 01:07:00,
2013-03-15 21:08:00,41.7,20.3,29.94,ESE,112,0.0,0.0,42,0.00,,---,0.00,VWS V14.01,2013-03-16 01:08:00,
2013-03-15 21:09:00,41.7,20.3,29.94,ESE,112,0.0,0.0,42,0.00,,---,0.00,VWS V14.01,2013-03-16 01:09:00,
2013-03-15 21:10:00,41.7,20.9,29.94,ESE,112,0.0,0.0,43,0.00,,---,0.00,VWS V14.01,2013-03-16 01:10:00,
2013-03-15 21:11:00,41.7,20.9,29.94,ESE,112,0.0,0.0,43,0.00,,---,0.00,VWS V14.01,2013-03-16 01:11:00,
2013-03-15 21:12:00,41.7,20.9,29.94,ESE,112,0.0,0.0,43,0.00,,---,0.00,VWS V14.01,2013-03-16 01:12:00,
2013-03-15 21:13:00,41.5,20.7,29.94,ESE,112,0.0,0.0,43,0.00,,---,0.00,VWS V14.01,2013-03-16 01:13:00,
2013-03-15 21:14:00,41.5,20.7,29.94,ESE,112,0.0,0.0,43,0.00,,---,0.00,VWS V14.01,2013-03-16 01:14:00,
2013-03-15 21:15:00,41.5,20.7,29.94,ESE,112,0.0,0.0,43,0.00,,---,0.00,VWS V14.01,2013-03-16 01:15:00,
2013-03-15 21:16:00,41.5,20.7,29.94,ESE,112,0.0,0.0,43,0.00,,---,0.00,VWS V14.01,2013-03-16 01:16:00,
2013-03-15 21:17:00,41.5,20.7,29.94,ESE,112,0.0,0.0,43,0.00,,---,0.00,VWS V14.01,2013-03-16 01:17:00,
2013-03-15 21:18:00,41.5,20.7,29.94,ESE,112,0.0,0.0,43,0.00,,---,0.00,VWS V14.01,2013-03-16 01:18:00,
2013-03-15 21:19:00,41.5,20.7,29.94,ESE,112,0.0,0.0,43,0.00,,---,0.00,VWS V14.01,2013-03-16 01:19:00,
2013-03-15 21:20:00,41.5,20.7,29.94,ESE,112,0.0,0.0,43,0.00,,---,0.00,VWS V14.01,2013-03-16 01:20:00,
2013-03-15 21:21:00,41.5,20.7,29.94,ESE,112,0.0,0.0,43,0.00,,---,0.00,VWS V14.01,2013-03-16 01:21:00,
2013-03-15 21:22:00,41.5,20.7,29.94,ESE,112,0.0,0.0,43,0.00,,---,0.00,VWS V14.01,2013-03-16 01:22:00,
2013-03-15 21:23:00,41.5,20.7,29.94,ESE,112,0.0,0.0,43,0.00,,---,0.00,VWS V14.01,2013-03-16 01:23:00,
2013-03-15 21:24:00,41.5,20.7,29.94,ESE,112,0.0,0.0,43,0.00,,---,0.00,VWS V14.01,2013-03-16 01:24:00,
2013-03-15 21:25:00,41.5,20.7,29.94,ESE,112,0.0,0.0,43,0.00,,---,0.00,VWS V14.01,2013-03-16 01:25:00,
2013-03-15 21:26:00,41.5,20.7,29.94,ESE,112,0.0,0.0,43,0.00,,---,0.00,VWS V14.01,2013-03-16 01:26:00,
2013-03-15 21:27:00,41.5,20.7,29.94,ESE,112,0.0,0.0,43,0.00,,---,0.00,VWS V14.01,2013-03-16 01:27:00,
2013-03-15 21:28:00,41.5,20.7,29.94,ESE,112,0.0,0.0,43,0.00,,---,0.00,VWS V14.01,2013-03-16 01:28:00,
2013-03-15 21:29:00,41.5,20.7,29.94,ESE,112,0.0,0.0,43,0.00,,---,0.00,VWS V14.01,2013-03-16 01:29:00,
2013-03-15 21:30:00,41.4,20.6,29.94,ESE,112,0.0,0.0,43,0.00,,---,0.00,VWS V14.01,2013-03-16 01:30:00,
2013-03-15 21:31:00,41.4,20.6,29.94,ESE,112,0.0,0.0,43,0.00,,---,0.00,VWS V14.01,2013-03-16 01:31:00,
2013-03-15 21:32:00,41.4,20.6,29.94,ESE,112,0.0,0.0,43,0.00,,---,0.00,VWS V14.01,2013-03-16 01:32:00,
2013-03-15 21:33:00,41.2,20.4,29.94,ESE,112,0.0,0.0,43,0.00,,---,0.00,VWS V14.01,2013-03-16 01:33:00,
2013-03-15 21:34:00,41.2,20.4,29.94,ESE,112,0.0,0.0,43,0.00,,---,0.00,VWS V14.01,2013-03-16 01:34:00,
2013-03-15 21:35:00,41.2,20.4,29.94,ESE,112,0.0,0.0,43,0.00,,---,0.00,VWS V14.01,2013-03-16 01:35:00,
2013-03-15 21:36:00,41.2,20.4,29.94,ESE,112,0.0,0.0,43,0.00,,---,0.00,VWS V14.01,2013-03-16 01:36:00,
2013-03-15 21:37:00,41.2,20.4,29.94,ESE,112,0.0,0.0,43,0.00,,---,0.00,VWS V14.01,2013-03-16 01:37:00,
2013-03-15 21:38:00,41.2,20.9,29.94,ESE,112,0.0,0.0,44,0.00,,---,0.00,VWS V14.01,2013-03-16 01:38:00,
2013-03-15 21:39:00,41.2,20.4,29.94,WNW,292,0.0,0.0,43,0.00,,---,0.00,VWS V14.01,2013-03-16 01:39:00,
2013-03-15 21:40:00,41.0,20.8,29.94,WNW,292,0.0,0.0,44,0.00,,---,0.00,VWS V14.01,2013-03-16 01:40:00,
2013-03-15 21:41:00,41.0,20.8,29.94,WNW,292,0.0,0.0,44,0.00,,---,0.00,VWS V14.01,2013-03-16 01:41:00,
2013-03-15 21:42:00,41.0,20.8,29.94,SSW,202,0.0,0.0,44,0.00,,---,0.00,VWS V14.01,2013-03-16 01:42:00,
2013-03-15 21:43:00,41.0,20.8,29.94,SSW,202,0.0,0.0,44,0.00,,---,0.00,VWS V14.01,2013-03-16 01:43:00,
2013-03-15 21:44:00,41.0,21.3,29.94,SSW,202,0.0,0.0,45,0.00,,---,0.00,VWS V14.01,2013-03-16 01:44:00,
2013-03-15 21:45:00,41.0,21.3,29.94,SSW,202,0.0,0.0,45,0.00,,---,0.00,VWS V14.01,2013-03-16 01:45:00,
2013-03-15 21:46:00,41.0,21.3,29.94,SSW,202,0.0,0.0,45,0.00,,---,0.00,VWS V14.01,2013-03-16 01:46:00,
2013-03-15 21:47:00,41.0,21.3,29.94,SSW,202,0.0,0.0,45,0.00,,---,0.00,VWS V14.01,2013-03-16 01:47:00,
2013-03-15 21:48:00,41.0,21.3,29.94,SSW,202,0.0,0.0,45,0.00,,---,0.00,VWS V14.01,2013-03-16 01:48:00,
2013-03-15 21:49:00,41.0,21.3,29.94,SSW,202,0.0,0.0,45,0.00,,---,0.00,VWS V14.01,2013-03-16 01:49:00,
2013-03-15 21:50:00,41.0,21.3,29.94,SSW,202,0.0,0.0,45,0.00,,---,0.00,VWS V14.01,2013-03-16 01:50:00,
2013-03-15 21:51:00,41.0,21.3,29.94,SSW,202,0.0,0.0,45,0.00,,---,0.00,VWS V14.01,2013-03-16 01:51:00,
2013-03-15 21:52:00,41.0,21.3,29.94,SSW,202,0.0,0.0,45,0.00,,---,0.00,VWS V14.01,2013-03-16 01:52:00,
2013-03-15 21:53:00,41.0,21.3,29.94,SSW,202,0.0,0.0,45,0.00,,---,0.00,VWS V14.01,2013-03-16 01:53:00,
2013-03-15 21:54:00,41.2,21.5,29.94,SSW,202,0.0,0.0,45,0.00,,---,0.00,VWS V14.01,2013-03-16 01:54:00,
2013-03-15 21:55:00,41.0,21.3,29.94,SSW,202,0.0,0.0,45,0.00,,---,0.00,VWS V14.01,2013-03-16 01:55:00,
2013-03-15 21:56:00,41.0,21.3,29.94,WSW,248,0.0,0.0,45,0.00,,---,0.00,VWS V14.01,2013-03-16 01:56:00,
2013-03-15 21:57:00,41.0,21.3,29.94,WSW,248,0.0,0.0,45,0.00,,---,0.00,VWS V14.01,2013-03-16 01:57:00,
2013-03-15 21:58:00,41.0,21.3,29.94,WSW,248,0.0,0.0,45,0.00,,---,0.00,VWS V14.01,2013-03-16 01:58:00,
2013-03-15 21:59:00,41.0,21.3,29.94,WSW,248,0.0,0.0,45,0.00,,---,0.00,VWS V14.01,2013-03-16 01:59:00,
2013-03-15 22:00:00,41.0,21.3,29.94,WSW,248,0.0,0.0,45,0.00,,---,0.00,VWS V14.01,2013-03-16 02:00:00,
2013-03-15 22:01:00,41.0,21.3,29.94,WSW,248,0.0,0.0,45,0.00,,---,0.00,VWS V14.01,2013-03-16 02:01:00,
2013-03-15 22:02:00,40.8,21.1,29.94,WSW,248,0.0,0.0,45,0.00,,---,0.00,VWS V14.01,2013-03-16 02:02:00,
2013-03-15 22:03:00,40.8,21.1,29.94,WSW,248,0.0,0.0,45,0.00,,---,0.00,VWS V14.01,2013-03-16 02:03:00,
2013-03-15 22:04:00,40.8,21.1,29.94,WSW,248,0.0,0.0,45,0.00,,---,0.00,VWS V14.01,2013-03-16 02:04:00,
2013-03-15 22:05:00,40.8,21.1,29.94,WSW,248,0.0,0.0,45,0.00,,---,0.00,VWS V14.01,2013-03-16 02:05:00,
2013-03-15 22:06:00,40.6,21.0,29.94,WSW,248,0.0,0.0,45,0.00,,---,0.00,VWS V14.01,2013-03-16 02:06:00,
2013-03-15 22:07:00,40.6,21.0,29.94,WSW,248,0.0,0.0,45,0.00,,---,0.00,VWS V14.01,2013-03-16 02:07:00,
2013-03-15 22:08:00,40.6,21.0,29.94,WSW,248,0.0,0.0,45,0.00,,---,0.00,VWS V14.01,2013-03-16 02:08:00,
2013-03-15 22:09:00,40.6,21.0,29.94,WSW,248,0.0,0.0,45,0.00,,---,0.00,VWS V14.01,2013-03-16 02:09:00,
2013-03-15 22:10:00,40.6,21.5,29.94,WSW,248,0.0,0.0,46,0.00,,---,0.00,VWS V14.01,2013-03-16 02:10:00,
2013-03-15 22:11:00,40.6,21.5,29.94,WSW,248,0.0,0.0,46,0.00,,---,0.00,VWS V14.01,2013-03-16 02:11:00,
2013-03-15 22:12:00,40.5,21.3,29.94,WSW,248,0.0,0.0,46,0.00,,---,0.00,VWS V14.01,2013-03-16 02:12:00,
2013-03-15 22:13:00,40.5,21.3,29.94,WSW,248,0.0,0.0,46,0.00,,---,0.00,VWS V14.01,2013-03-16 02:13:00,
2013-03-15 22:14:00,40.5,21.3,29.94,WSW,248,0.0,0.0,46,0.00,,---,0.00,VWS V14.01,2013-03-16 02:14:00,
2013-03-15 22:15:00,40.5,21.3,29.94,WSW,248,0.0,0.0,46,0.00,,---,0.00,VWS V14.01,2013-03-16 02:15:00,
2013-03-15 22:16:00,40.5,21.3,29.94,WSW,248,0.0,0.9,46,0.00,,---,0.00,VWS V14.01,2013-03-16 02:16:00,
2013-03-15 22:17:00,40.5,21.3,29.94,WSW,248,0.0,0.0,46,0.00,,---,0.00,VWS V14.01,2013-03-16 02:17:00,
2013-03-15 22:18:00,40.5,21.3,29.94,WSW,248,0.0,0.0,46,0.00,,---,0.00,VWS V14.01,2013-03-16 02:18:00,
2013-03-15 22:19:00,40.5,21.3,29.94,WSW,248,0.0,0.0,46,0.00,,---,0.00,VWS V14.01,2013-03-16 02:19:00,
2013-03-15 22:20:00,40.3,21.7,29.94,WSW,248,0.0,0.0,47,0.00,,---,0.00,VWS V14.01,2013-03-16 02:20:00,
2013-03-15 22:21:00,40.3,21.7,29.94,WSW,248,0.0,0.0,47,0.00,,---,0.00,VWS V14.01,2013-03-16 02:21:00,
2013-03-15 22:22:00,40.3,21.7,29.94,WSW,248,0.0,0.0,47,0.00,,---,0.00,VWS V14.01,2013-03-16 02:22:00,
2013-03-15 22:23:00,40.3,21.7,29.94,WSW,248,0.0,0.0,47,0.00,,---,0.00,VWS V14.01,2013-03-16 02:23:00,
2013-03-15 22:24:00,40.1,21.5,29.94,WSW,248,0.0,0.0,47,0.00,,---,0.00,VWS V14.01,2013-03-16 02:24:00,
2013-03-15 22:25:00,40.1,21.5,29.94,WSW,248,0.0,0.0,47,0.00,,---,0.00,VWS V14.01,2013-03-16 02:25:00,
2013-03-15 22:26:00,39.9,21.3,29.94,WSW,248,0.0,0.0,47,0.00,,---,0.00,VWS V14.01,2013-03-16 02:26:00,
2013-03-15 22:27:00,39.9,21.3,29.94,WSW,248,0.0,0.0,47,0.00,,---,0.00,VWS V14.01,2013-03-16 02:27:00,
2013-03-15 22:28:00,39.9,21.8,29.94,WSW,248,0.0,0.0,48,0.00,,---,0.00,VWS V14.01,2013-03-16 02:28:00,
2013-03-15 22:29:00,39.9,21.3,29.94,WSW,248,0.0,0.0,47,0.00,,---,0.00,VWS V14.01,2013-03-16 02:29:00,
2013-03-15 22:30:00,39.9,21.8,29.94,WSW,248,0.0,0.0,48,0.00,,---,0.00,VWS V14.01,2013-03-16 02:30:00,
2013-03-15 22:31:00,39.9,21.8,29.94,WSW,248,0.0,0.0,48,0.00,,---,0.00,VWS V14.01,2013-03-16 02:31:00,
2013-03-15 22:32:00,39.9,21.3,29.94,WSW,248,0.0,0.0,47,0.00,,---,0.00,VWS V14.01,2013-03-16 02:32:00,
2013-03-15 22:33:00,39.9,21.3,29.94,WSW,248,0.0,0.0,47,0.00,,---,0.00,VWS V14.01,2013-03-16 02:33:00,
2013-03-15 22:34:00,39.9,21.8,29.94,WSW,248,0.0,0.0,48,0.00,,---,0.00,VWS V14.01,2013-03-16 02:34:00,
2013-03-15 22:35:00,39.9,21.8,29.94,WSW,248,0.0,0.0,48,0.00,,---,0.00,VWS V14.01,2013-03-16 02:35:00,
2013-03-15 22:36:00,39.9,21.8,29.94,WSW,248,0.0,0.0,48,0.00,,---,0.00,VWS V14.01,2013-03-16 02:36:00,
2013-03-15 22:37:00,39.9,21.8,29.94,WSW,248,0.0,0.0,48,0.00,,---,0.00,VWS V14.01,2013-03-16 02:37:00,
2013-03-15 22:38:00,39.9,21.8,29.94,WSW,248,0.0,0.0,48,0.00,,---,0.00,VWS V14.01,2013-03-16 02:38:00,
2013-03-15 22:39:00,39.7,21.7,29.94,WSW,248,0.0,0.0,48,0.00,,---,0.00,VWS V14.01,2013-03-16 02:39:00,
2013-03-15 22:40:00,39.7,21.7,29.94,WSW,248,0.0,0.0,48,0.00,,---,0.00,VWS V14.01,2013-03-16 02:40:00,
2013-03-15 22:41:00,39.7,21.7,29.94,WSW,248,0.0,0.0,48,0.00,,---,0.00,VWS V14.01,2013-03-16 02:41:00,
2013-03-15 22:42:00,39.7,21.7,29.94,WSW,248,0.0,0.0,48,0.00,,---,0.00,VWS V14.01,2013-03-16 02:42:00,
2013-03-15 22:43:00,39.7,21.7,29.94,WSW,248,0.0,0.0,48,0.00,,---,0.00,VWS V14.01,2013-03-16 02:43:00,
2013-03-15 22:44:00,39.7,21.7,29.94,WSW,248,0.0,0.0,48,0.00,,---,0.00,VWS V14.01,2013-03-16 02:44:00,
2013-03-15 22:45:00,39.7,21.7,29.94,WSW,248,0.0,0.0,48,0.00,,---,0.00,VWS V14.01,2013-03-16 02:45:00,
2013-03-15 22:46:00,39.7,21.7,29.94,WSW,248,0.0,0.0,48,0.00,,---,0.00,VWS V14.01,2013-03-16 02:46:00,
2013-03-15 22:47:00,39.7,21.7,29.94,WSW,248,0.0,0.0,48,0.00,,---,0.00,VWS V14.01,2013-03-16 02:47:00,
2013-03-15 22:48:00,39.7,22.2,29.94,WSW,248,0.0,0.0,49,0.00,,---,0.00,VWS V14.01,2013-03-16 02:48:00,
2013-03-15 22:49:00,39.7,21.7,29.94,WNW,292,0.0,0.0,48,0.00,,---,0.00,VWS V14.01,2013-03-16 02:49:00,
2013-03-15 22:50:00,39.7,21.7,29.94,West,270,1.6,2.7,48,0.00,,---,0.00,VWS V14.01,2013-03-16 02:50:00,
2013-03-15 22:51:00,39.7,22.2,29.94,West,270,0.0,1.6,49,0.00,,---,0.00,VWS V14.01,2013-03-16 02:51:00,
2013-03-15 22:52:00,39.7,22.2,29.94,WSW,248,0.0,0.0,49,0.00,,---,0.00,VWS V14.01,2013-03-16 02:52:00,
2013-03-15 22:53:00,39.7,22.2,29.94,WSW,248,0.0,0.0,49,0.00,,---,0.00,VWS V14.01,2013-03-16 02:53:00,
2013-03-15 22:54:00,39.7,22.2,29.94,WSW,248,0.0,0.0,49,0.00,,---,0.00,VWS V14.01,2013-03-16 02:54:00,
2013-03-15 22:55:00,39.7,22.2,29.94,WSW,248,0.0,0.0,49,0.00,,---,0.00,VWS V14.01,2013-03-16 02:55:00,
2013-03-15 22:56:00,39.6,22.0,29.94,WSW,248,0.0,0.0,49,0.00,,---,0.00,VWS V14.01,2013-03-16 02:56:00,
2013-03-15 22:57:00,39.6,22.0,29.94,WSW,248,0.0,0.0,49,0.00,,---,0.00,VWS V14.01,2013-03-16 02:57:00,
2013-03-15 22:58:00,39.6,22.0,29.94,WSW,248,1.6,1.6,49,0.00,,---,0.00,VWS V14.01,2013-03-16 02:58:00,
2013-03-15 22:59:00,39.6,22.0,29.94,WSW,248,0.0,1.6,49,0.00,,---,0.00,VWS V14.01,2013-03-16 02:59:00,
2013-03-15 23:00:00,39.6,22.0,29.94,WSW,248,0.0,0.0,49,0.00,,---,0.00,VWS V14.01,2013-03-16 03:00:00,
2013-03-15 23:01:00,39.6,22.0,29.94,WSW,248,0.0,0.0,49,0.00,,---,0.00,VWS V14.01,2013-03-16 03:01:00,
2013-03-15 23:02:00,39.6,22.0,29.94,WSW,248,0.0,0.0,49,0.00,,---,0.00,VWS V14.01,2013-03-16 03:02:00,
2013-03-15 23:03:00,39.6,22.5,29.94,WSW,248,0.0,1.1,50,0.00,,---,0.00,VWS V14.01,2013-03-16 03:03:00,
2013-03-15 23:04:00,39.4,22.3,29.94,WSW,248,0.0,0.0,50,0.00,,---,0.00,VWS V14.01,2013-03-16 03:04:00,
2013-03-15 23:05:00,39.4,22.3,29.94,WSW,248,0.0,0.0,50,0.00,,---,0.00,VWS V14.01,2013-03-16 03:05:00,
2013-03-15 23:06:00,39.4,22.3,29.94,WSW,248,0.0,0.0,50,0.00,,---,0.00,VWS V14.01,2013-03-16 03:06:00,
2013-03-15 23:07:00,39.4,22.3,29.94,WSW,248,0.0,0.0,50,0.00,,---,0.00,VWS V14.01,2013-03-16 03:07:00,
2013-03-15 23:08:00,39.2,22.1,29.94,WSW,248,0.0,0.0,50,0.00,,---,0.00,VWS V14.01,2013-03-16 03:08:00,
2013-03-15 23:09:00,39.2,21.7,29.94,WSW,248,0.0,0.0,49,0.00,,---,0.00,VWS V14.01,2013-03-16 03:09:00,
2013-03-15 23:10:00,39.2,21.7,29.94,WSW,248,0.0,0.0,49,0.00,,---,0.00,VWS V14.01,2013-03-16 03:10:00,
2013-03-15 23:11:00,39.2,22.1,29.94,WSW,248,0.0,0.0,50,0.00,,---,0.00,VWS V14.01,2013-03-16 03:11:00,
2013-03-15 23:12:00,39.2,22.1,29.94,WSW,248,0.0,0.0,50,0.00,,---,0.00,VWS V14.01,2013-03-16 03:12:00,
2013-03-15 23:13:00,39.2,22.1,29.94,WSW,248,0.0,0.0,50,0.00,,---,0.00,VWS V14.01,2013-03-16 03:13:00,
2013-03-15 23:14:00,39.2,22.1,29.94,WSW,248,0.0,0.0,50,0.00,,---,0.00,VWS V14.01,2013-03-16 03:14:00,
2013-03-15 23:15:00,39.2,22.1,29.94,WSW,248,0.0,0.0,50,0.00,,---,0.00,VWS V14.01,2013-03-16 03:15:00,
2013-03-15 23:16:00,39.2,22.1,29.94,WSW,248,0.0,0.0,50,0.00,,---,0.00,VWS V14.01,2013-03-16 03:16:00,
2013-03-15 23:17:00,39.0,22.0,29.94,WSW,248,0.0,0.0,50,0.00,,---,0.00,VWS V14.01,2013-03-16 03:17:00,
2013-03-15 23:18:00,39.0,22.0,29.94,WSW,248,0.0,0.0,50,0.00,,---,0.00,VWS V14.01,2013-03-16 03:18:00,
2013-03-15 23:19:00,39.0,22.0,29.94,WSW,248,0.0,0.0,50,0.00,,---,0.00,VWS V14.01,2013-03-16 03:19:00,
2013-03-15 23:20:00,39.0,22.4,29.94,WSW,248,0.0,0.0,51,0.00,,---,0.00,VWS V14.01,2013-03-16 03:20:00,
2013-03-15 23:21:00,39.0,22.0,29.94,SSE,158,0.0,0.0,50,0.00,,---,0.00,VWS V14.01,2013-03-16 03:21:00,
2013-03-15 23:22:00,39.2,22.6,29.94,West,270,2.7,2.7,51,0.00,,---,0.00,VWS V14.01,2013-03-16 03:22:00,
2013-03-15 23:23:00,39.2,23.1,29.94,WNW,292,2.2,3.8,52,0.00,,---,0.00,VWS V14.01,2013-03-16 03:23:00,
2013-03-15 23:24:00,39.2,22.6,29.94,SSW,202,0.0,2.2,51,0.00,,---,0.00,VWS V14.01,2013-03-16 03:24:00,
2013-03-15 23:25:00,39.0,22.9,29.94,SSE,158,0.0,0.9,52,0.00,,---,0.00,VWS V14.01,2013-03-16 03:25:00,
2013-03-15 23:26:00,39.0,22.9,29.94,SE,135,0.9,0.9,52,0.00,,---,0.00,VWS V14.01,2013-03-16 03:26:00,
2013-03-15 23:27:00,39.2,23.1,29.94,SE,135,0.0,1.1,52,0.00,,---,0.00,VWS V14.01,2013-03-16 03:27:00,
2013-03-15 23:28:00,39.4,23.7,29.94,West,270,2.7,2.7,53,0.00,,---,0.00,VWS V14.01,2013-03-16 03:28:00,
2013-03-15 23:29:00,39.2,24.0,29.94,SSE,158,1.3,3.8,54,0.00,,---,0.00,VWS V14.01,2013-03-16 03:29:00,
2013-03-15 23:30:00,39.2,25.3,29.94,SSE,158,3.4,3.4,57,0.00,,---,0.00,VWS V14.01,2013-03-16 03:30:00,
2013-03-15 23:31:00,39.2,25.7,29.94,South,180,0.0,3.4,58,0.00,,---,0.00,VWS V14.01,2013-03-16 03:31:00,
2013-03-15 23:32:00,39.2,25.3,29.94,SSE,158,0.0,0.0,57,0.00,,---,0.00,VWS V14.01,2013-03-16 03:32:00,
2013-03-15 23:33:00,39.2,24.8,29.94,West,270,0.0,0.0,56,0.00,,---,0.00,VWS V14.01,2013-03-16 03:33:00,
2013-03-15 23:34:00,39.0,24.2,29.94,West,270,0.0,0.0,55,0.00,,---,0.00,VWS V14.01,2013-03-16 03:34:00,
2013-03-15 23:35:00,39.0,24.2,29.94,West,270,0.0,0.0,55,0.00,,---,0.00,VWS V14.01,2013-03-16 03:35:00,
2013-03-15 23:36:00,39.0,24.7,29.94,SSE,158,0.0,0.0,56,0.00,,---,0.00,VWS V14.01,2013-03-16 03:36:00,
2013-03-15 23:37:00,39.0,24.2,29.94,South,180,0.0,0.0,55,0.00,,---,0.00,VWS V14.01,2013-03-16 03:37:00,
2013-03-15 23:38:00,39.0,24.2,29.94,South,180,0.0,0.0,55,0.00,,---,0.00,VWS V14.01,2013-03-16 03:38:00,
2013-03-15 23:39:00,39.0,24.2,29.94,WNW,292,0.0,0.0,55,0.00,,---,0.00,VWS V14.01,2013-03-16 03:39:00,
2013-03-15 23:40:00,38.8,24.1,29.94,WNW,292,0.0,0.0,55,0.00,,---,0.00,VWS V14.01,2013-03-16 03:40:00,
2013-03-15 23:41:00,38.8,24.1,29.94,WNW,292,0.0,0.0,55,0.00,,---,0.00,VWS V14.01,2013-03-16 03:41:00,
2013-03-15 23:42:00,38.8,23.6,29.94,SW,225,0.0,0.0,54,0.00,,---,0.00,VWS V14.01,2013-03-16 03:42:00,
2013-03-15 23:43:00,38.8,23.6,29.94,SW,225,0.0,0.0,54,0.00,,---,0.00,VWS V14.01,2013-03-16 03:43:00,
2013-03-15 23:44:00,38.8,24.1,29.94,SSE,158,0.0,0.0,55,0.00,,---,0.00,VWS V14.01,2013-03-16 03:44:00,
2013-03-15 23:45:00,39.0,24.2,29.94,SSE,158,0.0,0.0,55,0.00,,---,0.00,VWS V14.01,2013-03-16 03:45:00,
2013-03-15 23:46:00,39.0,24.2,29.94,West,270,0.0,0.0,55,0.00,,---,0.00,VWS V14.01,2013-03-16 03:46:00,
2013-03-15 23:47:00,38.8,23.6,29.94,West,270,0.0,0.0,54,0.00,,---,0.00,VWS V14.01,2013-03-16 03:47:00,
2013-03-15 23:48:00,38.8,23.6,29.94,West,270,0.0,0.0,54,0.00,,---,0.00,VWS V14.01,2013-03-16 03:48:00,
2013-03-15 23:49:00,38.8,23.6,29.94,West,270,0.0,0.0,54,0.00,,---,0.00,VWS V14.01,2013-03-16 03:49:00,
2013-03-15 23:50:00,38.7,23.5,29.94,West,270,0.0,0.0,54,0.00,,---,0.00,VWS V14.01,2013-03-16 03:50:00,
2013-03-15 23:51:00,38.7,23.5,29.94,West,270,0.0,0.0,54,0.00,,---,0.00,VWS V14.01,2013-03-16 03:51:00,
2013-03-15 23:52:00,38.7,23.5,29.94,West,270,0.0,0.0,54,0.00,,---,0.00,VWS V14.01,2013-03-16 03:52:00,
2013-03-15 23:53:00,38.7,23.5,29.94,West,270,0.0,0.0,54,0.00,,---,0.00,VWS V14.01,2013-03-16 03:53:00,
2013-03-15 23:54:00,38.5,23.3,29.94,West,270,0.0,0.0,54,0.00,,---,0.00,VWS V14.01,2013-03-16 03:54:00,
2013-03-15 23:55:00,38.5,22.9,29.94,West,270,0.0,0.0,53,0.00,,---,0.00,VWS V14.01,2013-03-16 03:55:00,
2013-03-15 23:56:00,38.5,23.3,29.94,West,270,0.0,0.0,54,0.00,,---,0.00,VWS V14.01,2013-03-16 03:56:00,
2013-03-15 23:57:00,38.5,23.3,29.94,West,270,0.0,0.0,54,0.00,,---,0.00,VWS V14.01,2013-03-16 03:57:00,
2013-03-15 23:58:00,38.3,22.7,29.94,West,270,0.0,0.0,53,0.00,,---,0.00,VWS V14.01,2013-03-16 03:58:00,
2013-03-15 23:59:00,38.3,22.7,29.94,West,270,0.0,0.0,53,0.00,,---,0.00,VWS V14.01,2013-03-16 03:59:00,